<?xml version="1.0" encoding="UTF-8" standalone="no" ?>
<gpx xmlns="http://www.topografix.com/GPX/1/1" xmlns:xsi="http://www.w3.org/2001/XMLSchema-instance" xsi:schemaLocation="http://www.topografix.com/GPX/1/1 http://www.topografix.com/GPX/1/1/gpx.xsd" version="1.1" creator="VisuGPX - https://www.visugpx.com">
  <metadata>
    <name>Pareloup</name>
  </metadata>
  <trk>
    <name><![CDATA[Arvieu]]></name>
    <extensions>
      <line xmlns="http://www.topografix.com/GPX/gpx_style/0/2">
        <color>0000FF</color>
        <width>4</width>
      </line>
    </extensions>
    <trkseg>
      <trkpt lat="44.19239" lon="2.81451">
        <ele>926.37</ele>
        <time>2022-07-15T04:54:45Z</time>
      </trkpt>
      <trkpt lat="44.19231" lon="2.81443">
        <ele>915.79</ele>
        <time>2022-07-15T05:01:00Z</time>
      </trkpt>
      <trkpt lat="44.19222" lon="2.81435">
        <ele>916.75</ele>
        <time>2022-07-15T05:01:09Z</time>
      </trkpt>
      <trkpt lat="44.19217" lon="2.81416">
        <ele>916.27</ele>
        <time>2022-07-15T05:01:32Z</time>
      </trkpt>
      <trkpt lat="44.1922" lon="2.81402">
        <ele>916.27</ele>
        <time>2022-07-15T05:01:40Z</time>
      </trkpt>
      <trkpt lat="44.19225" lon="2.81389">
        <ele>916.75</ele>
        <time>2022-07-15T05:01:49Z</time>
      </trkpt>
      <trkpt lat="44.19231" lon="2.81379">
        <ele>916.75</ele>
        <time>2022-07-15T05:01:58Z</time>
      </trkpt>
      <trkpt lat="44.19238" lon="2.81366">
        <ele>916.75</ele>
        <time>2022-07-15T05:02:08Z</time>
      </trkpt>
      <trkpt lat="44.19242" lon="2.81352">
        <ele>917.24</ele>
        <time>2022-07-15T05:02:17Z</time>
      </trkpt>
      <trkpt lat="44.19247" lon="2.81328">
        <ele>917.24</ele>
        <time>2022-07-15T05:02:34Z</time>
      </trkpt>
      <trkpt lat="44.1925" lon="2.81313">
        <ele>917.24</ele>
        <time>2022-07-15T05:02:44Z</time>
      </trkpt>
      <trkpt lat="44.19253" lon="2.81298">
        <ele>917.72</ele>
        <time>2022-07-15T05:02:53Z</time>
      </trkpt>
      <trkpt lat="44.19257" lon="2.81284">
        <ele>916.75</ele>
        <time>2022-07-15T05:03:01Z</time>
      </trkpt>
      <trkpt lat="44.19262" lon="2.81269">
        <ele>915.79</ele>
        <time>2022-07-15T05:03:09Z</time>
      </trkpt>
      <trkpt lat="44.19268" lon="2.81256">
        <ele>914.35</ele>
        <time>2022-07-15T05:03:18Z</time>
      </trkpt>
      <trkpt lat="44.19276" lon="2.81244">
        <ele>912.91</ele>
        <time>2022-07-15T05:03:26Z</time>
      </trkpt>
      <trkpt lat="44.19282" lon="2.81232">
        <ele>913.39</ele>
        <time>2022-07-15T05:03:34Z</time>
      </trkpt>
      <trkpt lat="44.19289" lon="2.81221">
        <ele>912.91</ele>
        <time>2022-07-15T05:03:43Z</time>
      </trkpt>
      <trkpt lat="44.19293" lon="2.81207">
        <ele>910.51</ele>
        <time>2022-07-15T05:03:53Z</time>
      </trkpt>
      <trkpt lat="44.19297" lon="2.81193">
        <ele>909.54</ele>
        <time>2022-07-15T05:04:02Z</time>
      </trkpt>
      <trkpt lat="44.19302" lon="2.81179">
        <ele>909.06</ele>
        <time>2022-07-15T05:04:11Z</time>
      </trkpt>
      <trkpt lat="44.19306" lon="2.81163">
        <ele>908.1</ele>
        <time>2022-07-15T05:04:20Z</time>
      </trkpt>
      <trkpt lat="44.19311" lon="2.81149">
        <ele>908.1</ele>
        <time>2022-07-15T05:04:28Z</time>
      </trkpt>
      <trkpt lat="44.19315" lon="2.81135">
        <ele>907.14</ele>
        <time>2022-07-15T05:04:36Z</time>
      </trkpt>
      <trkpt lat="44.19318" lon="2.81119">
        <ele>906.66</ele>
        <time>2022-07-15T05:04:45Z</time>
      </trkpt>
      <trkpt lat="44.1932" lon="2.81103">
        <ele>905.7</ele>
        <time>2022-07-15T05:04:54Z</time>
      </trkpt>
      <trkpt lat="44.19322" lon="2.81089">
        <ele>905.22</ele>
        <time>2022-07-15T05:05:03Z</time>
      </trkpt>
      <trkpt lat="44.19325" lon="2.81073">
        <ele>903.78</ele>
        <time>2022-07-15T05:05:12Z</time>
      </trkpt>
      <trkpt lat="44.1933" lon="2.81048">
        <ele>901.37</ele>
        <time>2022-07-15T05:05:29Z</time>
      </trkpt>
      <trkpt lat="44.19333" lon="2.8103">
        <ele>899.93</ele>
        <time>2022-07-15T05:05:38Z</time>
      </trkpt>
      <trkpt lat="44.19334" lon="2.81009">
        <ele>899.45</ele>
        <time>2022-07-15T05:05:49Z</time>
      </trkpt>
      <trkpt lat="44.19334" lon="2.8098">
        <ele>897.53</ele>
        <time>2022-07-15T05:06:05Z</time>
      </trkpt>
      <trkpt lat="44.19335" lon="2.80949">
        <ele>894.64</ele>
        <time>2022-07-15T05:06:23Z</time>
      </trkpt>
      <trkpt lat="44.19337" lon="2.80933">
        <ele>892.72</ele>
        <time>2022-07-15T05:06:32Z</time>
      </trkpt>
      <trkpt lat="44.19339" lon="2.80915">
        <ele>889.84</ele>
        <time>2022-07-15T05:06:42Z</time>
      </trkpt>
      <trkpt lat="44.19341" lon="2.80899">
        <ele>886.95</ele>
        <time>2022-07-15T05:06:50Z</time>
      </trkpt>
      <trkpt lat="44.19344" lon="2.80883">
        <ele>883.59</ele>
        <time>2022-07-15T05:06:58Z</time>
      </trkpt>
      <trkpt lat="44.19339" lon="2.80851">
        <ele>883.11</ele>
        <time>2022-07-15T05:07:41Z</time>
      </trkpt>
      <trkpt lat="44.19342" lon="2.80833">
        <ele>884.07</ele>
        <time>2022-07-15T05:07:50Z</time>
      </trkpt>
      <trkpt lat="44.19347" lon="2.80819">
        <ele>881.67</ele>
        <time>2022-07-15T05:08:02Z</time>
      </trkpt>
      <trkpt lat="44.1935" lon="2.80803">
        <ele>880.71</ele>
        <time>2022-07-15T05:08:11Z</time>
      </trkpt>
      <trkpt lat="44.19355" lon="2.80728">
        <ele>865.8</ele>
        <time>2022-07-15T05:09:01Z</time>
      </trkpt>
      <trkpt lat="44.19352" lon="2.807">
        <ele>861.96</ele>
        <time>2022-07-15T05:09:15Z</time>
      </trkpt>
      <trkpt lat="44.19384" lon="2.80548">
        <ele>833.12</ele>
        <time>2022-07-15T05:11:02Z</time>
      </trkpt>
      <trkpt lat="44.19392" lon="2.80519">
        <ele>828.79</ele>
        <time>2022-07-15T05:11:13Z</time>
      </trkpt>
      <trkpt lat="44.19352" lon="2.80372">
        <ele>818.7</ele>
        <time>2022-07-15T05:12:55Z</time>
      </trkpt>
      <trkpt lat="44.193" lon="2.80313">
        <ele>839.85</ele>
        <time>2022-07-15T05:14:30Z</time>
      </trkpt>
      <trkpt lat="44.19285" lon="2.80294">
        <ele>846.1</ele>
        <time>2022-07-15T05:15:54Z</time>
      </trkpt>
      <trkpt lat="44.19275" lon="2.80279">
        <ele>845.62</ele>
        <time>2022-07-15T05:16:02Z</time>
      </trkpt>
      <trkpt lat="44.19268" lon="2.80267">
        <ele>844.66</ele>
        <time>2022-07-15T05:16:10Z</time>
      </trkpt>
      <trkpt lat="44.19259" lon="2.80252">
        <ele>842.25</ele>
        <time>2022-07-15T05:16:22Z</time>
      </trkpt>
      <trkpt lat="44.19245" lon="2.80229">
        <ele>839.85</ele>
        <time>2022-07-15T05:16:35Z</time>
      </trkpt>
      <trkpt lat="44.19226" lon="2.80167">
        <ele>838.89</ele>
        <time>2022-07-15T05:17:05Z</time>
      </trkpt>
      <trkpt lat="44.19225" lon="2.80153">
        <ele>838.41</ele>
        <time>2022-07-15T05:17:13Z</time>
      </trkpt>
      <trkpt lat="44.19224" lon="2.80133">
        <ele>837.45</ele>
        <time>2022-07-15T05:17:23Z</time>
      </trkpt>
      <trkpt lat="44.19225" lon="2.80103">
        <ele>832.64</ele>
        <time>2022-07-15T05:17:40Z</time>
      </trkpt>
      <trkpt lat="44.19226" lon="2.80084">
        <ele>828.31</ele>
        <time>2022-07-15T05:17:48Z</time>
      </trkpt>
      <trkpt lat="44.19226" lon="2.80064">
        <ele>823.51</ele>
        <time>2022-07-15T05:17:57Z</time>
      </trkpt>
      <trkpt lat="44.19225" lon="2.80045">
        <ele>822.06</ele>
        <time>2022-07-15T05:18:05Z</time>
      </trkpt>
      <trkpt lat="44.19222" lon="2.80023">
        <ele>822.55</ele>
        <time>2022-07-15T05:18:15Z</time>
      </trkpt>
      <trkpt lat="44.19211" lon="2.79977">
        <ele>820.62</ele>
        <time>2022-07-15T05:18:42Z</time>
      </trkpt>
      <trkpt lat="44.19225" lon="2.79948">
        <ele>818.7</ele>
        <time>2022-07-15T05:19:12Z</time>
      </trkpt>
      <trkpt lat="44.19247" lon="2.79915">
        <ele>820.62</ele>
        <time>2022-07-15T05:19:30Z</time>
      </trkpt>
      <trkpt lat="44.19257" lon="2.79883">
        <ele>818.22</ele>
        <time>2022-07-15T05:19:46Z</time>
      </trkpt>
      <trkpt lat="44.19259" lon="2.79862">
        <ele>816.3</ele>
        <time>2022-07-15T05:19:57Z</time>
      </trkpt>
      <trkpt lat="44.19262" lon="2.79842">
        <ele>817.74</ele>
        <time>2022-07-15T05:20:08Z</time>
      </trkpt>
      <trkpt lat="44.19262" lon="2.79822">
        <ele>816.78</ele>
        <time>2022-07-15T05:20:16Z</time>
      </trkpt>
      <trkpt lat="44.19261" lon="2.79803">
        <ele>818.22</ele>
        <time>2022-07-15T05:20:24Z</time>
      </trkpt>
      <trkpt lat="44.1926" lon="2.79785">
        <ele>820.14</ele>
        <time>2022-07-15T05:20:32Z</time>
      </trkpt>
      <trkpt lat="44.19261" lon="2.79767">
        <ele>819.66</ele>
        <time>2022-07-15T05:20:42Z</time>
      </trkpt>
      <trkpt lat="44.19262" lon="2.79748">
        <ele>818.7</ele>
        <time>2022-07-15T05:20:51Z</time>
      </trkpt>
      <trkpt lat="44.19262" lon="2.79728">
        <ele>818.22</ele>
        <time>2022-07-15T05:21:00Z</time>
      </trkpt>
      <trkpt lat="44.19263" lon="2.79709">
        <ele>818.7</ele>
        <time>2022-07-15T05:21:08Z</time>
      </trkpt>
      <trkpt lat="44.19263" lon="2.79689">
        <ele>819.66</ele>
        <time>2022-07-15T05:21:16Z</time>
      </trkpt>
      <trkpt lat="44.19262" lon="2.79669">
        <ele>819.18</ele>
        <time>2022-07-15T05:21:26Z</time>
      </trkpt>
      <trkpt lat="44.19259" lon="2.79651">
        <ele>819.66</ele>
        <time>2022-07-15T05:21:34Z</time>
      </trkpt>
      <trkpt lat="44.19255" lon="2.79635">
        <ele>820.14</ele>
        <time>2022-07-15T05:21:41Z</time>
      </trkpt>
      <trkpt lat="44.19249" lon="2.79616">
        <ele>819.66</ele>
        <time>2022-07-15T05:21:53Z</time>
      </trkpt>
      <trkpt lat="44.19246" lon="2.796">
        <ele>815.82</ele>
        <time>2022-07-15T05:22:01Z</time>
      </trkpt>
      <trkpt lat="44.19244" lon="2.79583">
        <ele>811.97</ele>
        <time>2022-07-15T05:22:10Z</time>
      </trkpt>
      <trkpt lat="44.19242" lon="2.79567">
        <ele>810.05</ele>
        <time>2022-07-15T05:22:18Z</time>
      </trkpt>
      <trkpt lat="44.19241" lon="2.7955">
        <ele>810.53</ele>
        <time>2022-07-15T05:22:27Z</time>
      </trkpt>
      <trkpt lat="44.19237" lon="2.79529">
        <ele>810.05</ele>
        <time>2022-07-15T05:22:36Z</time>
      </trkpt>
      <trkpt lat="44.19231" lon="2.79505">
        <ele>813.89</ele>
        <time>2022-07-15T05:22:45Z</time>
      </trkpt>
      <trkpt lat="44.19231" lon="2.79489">
        <ele>813.41</ele>
        <time>2022-07-15T05:22:53Z</time>
      </trkpt>
      <trkpt lat="44.19233" lon="2.79473">
        <ele>812.93</ele>
        <time>2022-07-15T05:23:02Z</time>
      </trkpt>
      <trkpt lat="44.19235" lon="2.79457">
        <ele>813.89</ele>
        <time>2022-07-15T05:23:10Z</time>
      </trkpt>
      <trkpt lat="44.19237" lon="2.7944">
        <ele>814.37</ele>
        <time>2022-07-15T05:23:19Z</time>
      </trkpt>
      <trkpt lat="44.19239" lon="2.79422">
        <ele>813.89</ele>
        <time>2022-07-15T05:23:27Z</time>
      </trkpt>
      <trkpt lat="44.1924" lon="2.79407">
        <ele>813.89</ele>
        <time>2022-07-15T05:23:34Z</time>
      </trkpt>
      <trkpt lat="44.1924" lon="2.79391">
        <ele>813.89</ele>
        <time>2022-07-15T05:23:41Z</time>
      </trkpt>
      <trkpt lat="44.1924" lon="2.79374">
        <ele>814.37</ele>
        <time>2022-07-15T05:23:47Z</time>
      </trkpt>
      <trkpt lat="44.1924" lon="2.79357">
        <ele>814.37</ele>
        <time>2022-07-15T05:23:54Z</time>
      </trkpt>
      <trkpt lat="44.1924" lon="2.7934">
        <ele>814.37</ele>
        <time>2022-07-15T05:24:01Z</time>
      </trkpt>
      <trkpt lat="44.1924" lon="2.79323">
        <ele>814.85</ele>
        <time>2022-07-15T05:24:08Z</time>
      </trkpt>
      <trkpt lat="44.19239" lon="2.79308">
        <ele>814.37</ele>
        <time>2022-07-15T05:24:15Z</time>
      </trkpt>
      <trkpt lat="44.19237" lon="2.79294">
        <ele>814.37</ele>
        <time>2022-07-15T05:24:22Z</time>
      </trkpt>
      <trkpt lat="44.19233" lon="2.79281">
        <ele>813.89</ele>
        <time>2022-07-15T05:24:29Z</time>
      </trkpt>
      <trkpt lat="44.19226" lon="2.79271">
        <ele>812.93</ele>
        <time>2022-07-15T05:24:39Z</time>
      </trkpt>
      <trkpt lat="44.19216" lon="2.79265">
        <ele>809.09</ele>
        <time>2022-07-15T05:24:49Z</time>
      </trkpt>
      <trkpt lat="44.19206" lon="2.79256">
        <ele>808.13</ele>
        <time>2022-07-15T05:24:59Z</time>
      </trkpt>
      <trkpt lat="44.19196" lon="2.79244">
        <ele>805.24</ele>
        <time>2022-07-15T05:25:09Z</time>
      </trkpt>
      <trkpt lat="44.19183" lon="2.79237">
        <ele>804.28</ele>
        <time>2022-07-15T05:25:17Z</time>
      </trkpt>
      <trkpt lat="44.19173" lon="2.79225">
        <ele>801.4</ele>
        <time>2022-07-15T05:25:27Z</time>
      </trkpt>
      <trkpt lat="44.19162" lon="2.79208">
        <ele>800.44</ele>
        <time>2022-07-15T05:25:36Z</time>
      </trkpt>
      <trkpt lat="44.19155" lon="2.79193">
        <ele>798.51</ele>
        <time>2022-07-15T05:25:45Z</time>
      </trkpt>
      <trkpt lat="44.19148" lon="2.7918">
        <ele>798.03</ele>
        <time>2022-07-15T05:25:52Z</time>
      </trkpt>
      <trkpt lat="44.19144" lon="2.79165">
        <ele>797.07</ele>
        <time>2022-07-15T05:26:00Z</time>
      </trkpt>
      <trkpt lat="44.19141" lon="2.79144">
        <ele>801.4</ele>
        <time>2022-07-15T05:26:10Z</time>
      </trkpt>
      <trkpt lat="44.19144" lon="2.7912">
        <ele>799.95</ele>
        <time>2022-07-15T05:26:21Z</time>
      </trkpt>
      <trkpt lat="44.19148" lon="2.79102">
        <ele>799.47</ele>
        <time>2022-07-15T05:26:32Z</time>
      </trkpt>
      <trkpt lat="44.19151" lon="2.79084">
        <ele>798.99</ele>
        <time>2022-07-15T05:26:41Z</time>
      </trkpt>
      <trkpt lat="44.19151" lon="2.79064">
        <ele>798.99</ele>
        <time>2022-07-15T05:26:49Z</time>
      </trkpt>
      <trkpt lat="44.19148" lon="2.79044">
        <ele>798.51</ele>
        <time>2022-07-15T05:26:58Z</time>
      </trkpt>
      <trkpt lat="44.19146" lon="2.79023">
        <ele>799.47</ele>
        <time>2022-07-15T05:27:07Z</time>
      </trkpt>
      <trkpt lat="44.19145" lon="2.79004">
        <ele>799.95</ele>
        <time>2022-07-15T05:27:15Z</time>
      </trkpt>
      <trkpt lat="44.19141" lon="2.78988">
        <ele>800.92</ele>
        <time>2022-07-15T05:27:22Z</time>
      </trkpt>
      <trkpt lat="44.19136" lon="2.78975">
        <ele>800.44</ele>
        <time>2022-07-15T05:27:29Z</time>
      </trkpt>
      <trkpt lat="44.19129" lon="2.78961">
        <ele>810.05</ele>
        <time>2022-07-15T05:30:13Z</time>
      </trkpt>
      <trkpt lat="44.19122" lon="2.78947">
        <ele>810.05</ele>
        <time>2022-07-15T05:33:40Z</time>
      </trkpt>
      <trkpt lat="44.19115" lon="2.78936">
        <ele>811.49</ele>
        <time>2022-07-15T05:33:54Z</time>
      </trkpt>
      <trkpt lat="44.19125" lon="2.78928">
        <ele>811.97</ele>
        <time>2022-07-15T05:34:01Z</time>
      </trkpt>
      <trkpt lat="44.19135" lon="2.78925">
        <ele>811.97</ele>
        <time>2022-07-15T05:34:05Z</time>
      </trkpt>
      <trkpt lat="44.19146" lon="2.78922">
        <ele>811.97</ele>
        <time>2022-07-15T05:34:09Z</time>
      </trkpt>
      <trkpt lat="44.19156" lon="2.78918">
        <ele>811.49</ele>
        <time>2022-07-15T05:34:12Z</time>
      </trkpt>
      <trkpt lat="44.19165" lon="2.78915">
        <ele>811.49</ele>
        <time>2022-07-15T05:34:15Z</time>
      </trkpt>
      <trkpt lat="44.19177" lon="2.78911">
        <ele>811.97</ele>
        <time>2022-07-15T05:34:19Z</time>
      </trkpt>
      <trkpt lat="44.19186" lon="2.78907">
        <ele>812.45</ele>
        <time>2022-07-15T05:34:22Z</time>
      </trkpt>
      <trkpt lat="44.19198" lon="2.78904">
        <ele>812.93</ele>
        <time>2022-07-15T05:34:26Z</time>
      </trkpt>
      <trkpt lat="44.19207" lon="2.78901">
        <ele>812.93</ele>
        <time>2022-07-15T05:34:30Z</time>
      </trkpt>
      <trkpt lat="44.19218" lon="2.78902">
        <ele>812.93</ele>
        <time>2022-07-15T05:34:38Z</time>
      </trkpt>
      <trkpt lat="44.1923" lon="2.789">
        <ele>813.41</ele>
        <time>2022-07-15T05:34:46Z</time>
      </trkpt>
      <trkpt lat="44.19238" lon="2.789">
        <ele>812.93</ele>
        <time>2022-07-15T05:34:53Z</time>
      </trkpt>
      <trkpt lat="44.19247" lon="2.78897">
        <ele>813.89</ele>
        <time>2022-07-15T05:35:00Z</time>
      </trkpt>
      <trkpt lat="44.19254" lon="2.78888">
        <ele>814.85</ele>
        <time>2022-07-15T05:35:07Z</time>
      </trkpt>
      <trkpt lat="44.19262" lon="2.78877">
        <ele>814.85</ele>
        <time>2022-07-15T05:35:14Z</time>
      </trkpt>
      <trkpt lat="44.1927" lon="2.78866">
        <ele>815.34</ele>
        <time>2022-07-15T05:35:23Z</time>
      </trkpt>
      <trkpt lat="44.19302" lon="2.7879">
        <ele>832.16</ele>
        <time>2022-07-15T05:36:36Z</time>
      </trkpt>
      <trkpt lat="44.19307" lon="2.78782">
        <ele>839.85</ele>
        <time>2022-07-15T05:37:14Z</time>
      </trkpt>
      <trkpt lat="44.19305" lon="2.78769">
        <ele>838.41</ele>
        <time>2022-07-15T05:37:23Z</time>
      </trkpt>
      <trkpt lat="44.19301" lon="2.78754">
        <ele>836.48</ele>
        <time>2022-07-15T05:37:32Z</time>
      </trkpt>
      <trkpt lat="44.19305" lon="2.78743">
        <ele>834.08</ele>
        <time>2022-07-15T05:37:40Z</time>
      </trkpt>
      <trkpt lat="44.19317" lon="2.78737">
        <ele>833.12</ele>
        <time>2022-07-15T05:37:54Z</time>
      </trkpt>
      <trkpt lat="44.19338" lon="2.7874">
        <ele>831.2</ele>
        <time>2022-07-15T05:38:11Z</time>
      </trkpt>
      <trkpt lat="44.19352" lon="2.78737">
        <ele>832.64</ele>
        <time>2022-07-15T05:38:21Z</time>
      </trkpt>
      <trkpt lat="44.1939" lon="2.78729">
        <ele>827.83</ele>
        <time>2022-07-15T05:38:50Z</time>
      </trkpt>
      <trkpt lat="44.19414" lon="2.78723">
        <ele>833.6</ele>
        <time>2022-07-15T05:39:04Z</time>
      </trkpt>
      <trkpt lat="44.1943" lon="2.78712">
        <ele>841.29</ele>
        <time>2022-07-15T05:39:13Z</time>
      </trkpt>
      <trkpt lat="44.19438" lon="2.78695">
        <ele>846.1</ele>
        <time>2022-07-15T05:39:21Z</time>
      </trkpt>
      <trkpt lat="44.19444" lon="2.78681">
        <ele>848.98</ele>
        <time>2022-07-15T05:39:29Z</time>
      </trkpt>
      <trkpt lat="44.1945" lon="2.78666">
        <ele>850.9</ele>
        <time>2022-07-15T05:39:37Z</time>
      </trkpt>
      <trkpt lat="44.19454" lon="2.78653">
        <ele>852.35</ele>
        <time>2022-07-15T05:39:44Z</time>
      </trkpt>
      <trkpt lat="44.19459" lon="2.7864">
        <ele>854.27</ele>
        <time>2022-07-15T05:39:52Z</time>
      </trkpt>
      <trkpt lat="44.19464" lon="2.78626">
        <ele>855.23</ele>
        <time>2022-07-15T05:40:00Z</time>
      </trkpt>
      <trkpt lat="44.19469" lon="2.78614">
        <ele>856.67</ele>
        <time>2022-07-15T05:40:07Z</time>
      </trkpt>
      <trkpt lat="44.19474" lon="2.78599">
        <ele>857.63</ele>
        <time>2022-07-15T05:40:15Z</time>
      </trkpt>
      <trkpt lat="44.1948" lon="2.78589">
        <ele>858.59</ele>
        <time>2022-07-15T05:40:22Z</time>
      </trkpt>
      <trkpt lat="44.19485" lon="2.78578">
        <ele>859.08</ele>
        <time>2022-07-15T05:40:29Z</time>
      </trkpt>
      <trkpt lat="44.19492" lon="2.78566">
        <ele>860.52</ele>
        <time>2022-07-15T05:40:36Z</time>
      </trkpt>
      <trkpt lat="44.19499" lon="2.78555">
        <ele>861.96</ele>
        <time>2022-07-15T05:40:43Z</time>
      </trkpt>
      <trkpt lat="44.19506" lon="2.78545">
        <ele>861.96</ele>
        <time>2022-07-15T05:40:50Z</time>
      </trkpt>
      <trkpt lat="44.19514" lon="2.78533">
        <ele>862.44</ele>
        <time>2022-07-15T05:40:58Z</time>
      </trkpt>
      <trkpt lat="44.19521" lon="2.78522">
        <ele>862.92</ele>
        <time>2022-07-15T05:41:05Z</time>
      </trkpt>
      <trkpt lat="44.19527" lon="2.7851">
        <ele>863.88</ele>
        <time>2022-07-15T05:41:12Z</time>
      </trkpt>
      <trkpt lat="44.19533" lon="2.78497">
        <ele>863.88</ele>
        <time>2022-07-15T05:41:19Z</time>
      </trkpt>
      <trkpt lat="44.19538" lon="2.78484">
        <ele>864.84</ele>
        <time>2022-07-15T05:41:26Z</time>
      </trkpt>
      <trkpt lat="44.19542" lon="2.7847">
        <ele>865.32</ele>
        <time>2022-07-15T05:41:33Z</time>
      </trkpt>
      <trkpt lat="44.19545" lon="2.78456">
        <ele>866.29</ele>
        <time>2022-07-15T05:41:40Z</time>
      </trkpt>
      <trkpt lat="44.19549" lon="2.78441">
        <ele>866.29</ele>
        <time>2022-07-15T05:41:48Z</time>
      </trkpt>
      <trkpt lat="44.19552" lon="2.78425">
        <ele>867.25</ele>
        <time>2022-07-15T05:41:56Z</time>
      </trkpt>
      <trkpt lat="44.19557" lon="2.78412">
        <ele>867.73</ele>
        <time>2022-07-15T05:42:03Z</time>
      </trkpt>
      <trkpt lat="44.19563" lon="2.78401">
        <ele>868.21</ele>
        <time>2022-07-15T05:42:10Z</time>
      </trkpt>
      <trkpt lat="44.1957" lon="2.78391">
        <ele>868.69</ele>
        <time>2022-07-15T05:42:17Z</time>
      </trkpt>
      <trkpt lat="44.19579" lon="2.78382">
        <ele>868.69</ele>
        <time>2022-07-15T05:42:25Z</time>
      </trkpt>
      <trkpt lat="44.19588" lon="2.78373">
        <ele>869.17</ele>
        <time>2022-07-15T05:42:33Z</time>
      </trkpt>
      <trkpt lat="44.19596" lon="2.78366">
        <ele>869.65</ele>
        <time>2022-07-15T05:42:40Z</time>
      </trkpt>
      <trkpt lat="44.19606" lon="2.78355">
        <ele>870.13</ele>
        <time>2022-07-15T05:42:49Z</time>
      </trkpt>
      <trkpt lat="44.19615" lon="2.78345">
        <ele>871.09</ele>
        <time>2022-07-15T05:42:56Z</time>
      </trkpt>
      <trkpt lat="44.19624" lon="2.78337">
        <ele>871.57</ele>
        <time>2022-07-15T05:43:03Z</time>
      </trkpt>
      <trkpt lat="44.19633" lon="2.78327">
        <ele>872.53</ele>
        <time>2022-07-15T05:43:10Z</time>
      </trkpt>
      <trkpt lat="44.19643" lon="2.78319">
        <ele>872.05</ele>
        <time>2022-07-15T05:43:17Z</time>
      </trkpt>
      <trkpt lat="44.19652" lon="2.78311">
        <ele>873.01</ele>
        <time>2022-07-15T05:43:24Z</time>
      </trkpt>
      <trkpt lat="44.1966" lon="2.78303">
        <ele>873.5</ele>
        <time>2022-07-15T05:43:30Z</time>
      </trkpt>
      <trkpt lat="44.19668" lon="2.78295">
        <ele>873.5</ele>
        <time>2022-07-15T05:43:36Z</time>
      </trkpt>
      <trkpt lat="44.19676" lon="2.78288">
        <ele>874.46</ele>
        <time>2022-07-15T05:43:42Z</time>
      </trkpt>
      <trkpt lat="44.19685" lon="2.7828">
        <ele>874.94</ele>
        <time>2022-07-15T05:43:49Z</time>
      </trkpt>
      <trkpt lat="44.19694" lon="2.78272">
        <ele>875.42</ele>
        <time>2022-07-15T05:43:56Z</time>
      </trkpt>
      <trkpt lat="44.19702" lon="2.78264">
        <ele>876.86</ele>
        <time>2022-07-15T05:44:03Z</time>
      </trkpt>
      <trkpt lat="44.19711" lon="2.78256">
        <ele>877.82</ele>
        <time>2022-07-15T05:44:10Z</time>
      </trkpt>
      <trkpt lat="44.19719" lon="2.78249">
        <ele>878.3</ele>
        <time>2022-07-15T05:44:17Z</time>
      </trkpt>
      <trkpt lat="44.19727" lon="2.78242">
        <ele>878.78</ele>
        <time>2022-07-15T05:44:24Z</time>
      </trkpt>
      <trkpt lat="44.19737" lon="2.78236">
        <ele>878.78</ele>
        <time>2022-07-15T05:44:32Z</time>
      </trkpt>
      <trkpt lat="44.19747" lon="2.78232">
        <ele>877.82</ele>
        <time>2022-07-15T05:44:39Z</time>
      </trkpt>
      <trkpt lat="44.19757" lon="2.78227">
        <ele>878.78</ele>
        <time>2022-07-15T05:44:46Z</time>
      </trkpt>
      <trkpt lat="44.19767" lon="2.78221">
        <ele>878.78</ele>
        <time>2022-07-15T05:44:53Z</time>
      </trkpt>
      <trkpt lat="44.19777" lon="2.78216">
        <ele>879.26</ele>
        <time>2022-07-15T05:45:00Z</time>
      </trkpt>
      <trkpt lat="44.19787" lon="2.78211">
        <ele>878.3</ele>
        <time>2022-07-15T05:45:07Z</time>
      </trkpt>
      <trkpt lat="44.19796" lon="2.78207">
        <ele>878.3</ele>
        <time>2022-07-15T05:45:13Z</time>
      </trkpt>
      <trkpt lat="44.19806" lon="2.78203">
        <ele>878.3</ele>
        <time>2022-07-15T05:45:20Z</time>
      </trkpt>
      <trkpt lat="44.19817" lon="2.78201">
        <ele>878.78</ele>
        <time>2022-07-15T05:45:27Z</time>
      </trkpt>
      <trkpt lat="44.19826" lon="2.78201">
        <ele>879.26</ele>
        <time>2022-07-15T05:45:33Z</time>
      </trkpt>
      <trkpt lat="44.19835" lon="2.782">
        <ele>879.74</ele>
        <time>2022-07-15T05:45:39Z</time>
      </trkpt>
      <trkpt lat="44.19845" lon="2.782">
        <ele>879.74</ele>
        <time>2022-07-15T05:45:45Z</time>
      </trkpt>
      <trkpt lat="44.19855" lon="2.782">
        <ele>880.22</ele>
        <time>2022-07-15T05:45:52Z</time>
      </trkpt>
      <trkpt lat="44.19865" lon="2.78201">
        <ele>879.74</ele>
        <time>2022-07-15T05:45:59Z</time>
      </trkpt>
      <trkpt lat="44.19875" lon="2.78201">
        <ele>879.74</ele>
        <time>2022-07-15T05:46:06Z</time>
      </trkpt>
      <trkpt lat="44.19885" lon="2.78202">
        <ele>879.74</ele>
        <time>2022-07-15T05:46:13Z</time>
      </trkpt>
      <trkpt lat="44.19896" lon="2.78202">
        <ele>880.22</ele>
        <time>2022-07-15T05:46:20Z</time>
      </trkpt>
      <trkpt lat="44.19907" lon="2.78204">
        <ele>880.71</ele>
        <time>2022-07-15T05:46:27Z</time>
      </trkpt>
      <trkpt lat="44.19917" lon="2.78205">
        <ele>881.67</ele>
        <time>2022-07-15T05:46:34Z</time>
      </trkpt>
      <trkpt lat="44.19927" lon="2.78206">
        <ele>882.15</ele>
        <time>2022-07-15T05:46:41Z</time>
      </trkpt>
      <trkpt lat="44.19937" lon="2.78207">
        <ele>882.15</ele>
        <time>2022-07-15T05:46:48Z</time>
      </trkpt>
      <trkpt lat="44.19948" lon="2.7821">
        <ele>883.11</ele>
        <time>2022-07-15T05:46:56Z</time>
      </trkpt>
      <trkpt lat="44.19959" lon="2.78213">
        <ele>883.59</ele>
        <time>2022-07-15T05:47:03Z</time>
      </trkpt>
      <trkpt lat="44.1997" lon="2.78216">
        <ele>883.59</ele>
        <time>2022-07-15T05:47:11Z</time>
      </trkpt>
      <trkpt lat="44.1998" lon="2.7822">
        <ele>884.07</ele>
        <time>2022-07-15T05:47:18Z</time>
      </trkpt>
      <trkpt lat="44.1999" lon="2.78222">
        <ele>884.55</ele>
        <time>2022-07-15T05:47:25Z</time>
      </trkpt>
      <trkpt lat="44.2" lon="2.78225">
        <ele>884.55</ele>
        <time>2022-07-15T05:47:32Z</time>
      </trkpt>
      <trkpt lat="44.20009" lon="2.78228">
        <ele>884.55</ele>
        <time>2022-07-15T05:47:39Z</time>
      </trkpt>
      <trkpt lat="44.20018" lon="2.78231">
        <ele>884.55</ele>
        <time>2022-07-15T05:47:46Z</time>
      </trkpt>
      <trkpt lat="44.20028" lon="2.78234">
        <ele>883.11</ele>
        <time>2022-07-15T05:47:53Z</time>
      </trkpt>
      <trkpt lat="44.20038" lon="2.78236">
        <ele>882.63</ele>
        <time>2022-07-15T05:48:00Z</time>
      </trkpt>
      <trkpt lat="44.20049" lon="2.78239">
        <ele>882.15</ele>
        <time>2022-07-15T05:48:07Z</time>
      </trkpt>
      <trkpt lat="44.20059" lon="2.78242">
        <ele>881.67</ele>
        <time>2022-07-15T05:48:14Z</time>
      </trkpt>
      <trkpt lat="44.2007" lon="2.78246">
        <ele>881.19</ele>
        <time>2022-07-15T05:48:21Z</time>
      </trkpt>
      <trkpt lat="44.20079" lon="2.7825">
        <ele>880.22</ele>
        <time>2022-07-15T05:48:28Z</time>
      </trkpt>
      <trkpt lat="44.2009" lon="2.78254">
        <ele>880.71</ele>
        <time>2022-07-15T05:48:35Z</time>
      </trkpt>
      <trkpt lat="44.201" lon="2.78258">
        <ele>880.22</ele>
        <time>2022-07-15T05:48:42Z</time>
      </trkpt>
      <trkpt lat="44.2011" lon="2.78262">
        <ele>879.74</ele>
        <time>2022-07-15T05:48:49Z</time>
      </trkpt>
      <trkpt lat="44.2012" lon="2.78268">
        <ele>879.74</ele>
        <time>2022-07-15T05:48:56Z</time>
      </trkpt>
      <trkpt lat="44.2013" lon="2.78275">
        <ele>879.74</ele>
        <time>2022-07-15T05:49:03Z</time>
      </trkpt>
      <trkpt lat="44.20139" lon="2.78283">
        <ele>879.74</ele>
        <time>2022-07-15T05:49:10Z</time>
      </trkpt>
      <trkpt lat="44.20146" lon="2.7829">
        <ele>880.71</ele>
        <time>2022-07-15T05:49:16Z</time>
      </trkpt>
      <trkpt lat="44.20155" lon="2.78296">
        <ele>880.71</ele>
        <time>2022-07-15T05:49:23Z</time>
      </trkpt>
      <trkpt lat="44.20165" lon="2.78302">
        <ele>881.67</ele>
        <time>2022-07-15T05:49:30Z</time>
      </trkpt>
      <trkpt lat="44.20174" lon="2.78308">
        <ele>881.67</ele>
        <time>2022-07-15T05:49:37Z</time>
      </trkpt>
      <trkpt lat="44.20183" lon="2.78313">
        <ele>881.67</ele>
        <time>2022-07-15T05:49:44Z</time>
      </trkpt>
      <trkpt lat="44.20193" lon="2.7832">
        <ele>882.15</ele>
        <time>2022-07-15T05:49:51Z</time>
      </trkpt>
      <trkpt lat="44.20203" lon="2.78325">
        <ele>882.63</ele>
        <time>2022-07-15T05:49:58Z</time>
      </trkpt>
      <trkpt lat="44.20213" lon="2.78331">
        <ele>883.11</ele>
        <time>2022-07-15T05:50:05Z</time>
      </trkpt>
      <trkpt lat="44.20223" lon="2.78336">
        <ele>883.59</ele>
        <time>2022-07-15T05:50:12Z</time>
      </trkpt>
      <trkpt lat="44.20233" lon="2.78342">
        <ele>884.07</ele>
        <time>2022-07-15T05:50:20Z</time>
      </trkpt>
      <trkpt lat="44.20243" lon="2.78345">
        <ele>884.55</ele>
        <time>2022-07-15T05:50:27Z</time>
      </trkpt>
      <trkpt lat="44.20253" lon="2.78349">
        <ele>884.55</ele>
        <time>2022-07-15T05:50:34Z</time>
      </trkpt>
      <trkpt lat="44.20264" lon="2.78353">
        <ele>884.55</ele>
        <time>2022-07-15T05:50:41Z</time>
      </trkpt>
      <trkpt lat="44.20273" lon="2.78356">
        <ele>884.55</ele>
        <time>2022-07-15T05:50:47Z</time>
      </trkpt>
      <trkpt lat="44.20283" lon="2.78359">
        <ele>884.07</ele>
        <time>2022-07-15T05:50:54Z</time>
      </trkpt>
      <trkpt lat="44.20293" lon="2.78361">
        <ele>883.59</ele>
        <time>2022-07-15T05:51:01Z</time>
      </trkpt>
      <trkpt lat="44.20303" lon="2.78364">
        <ele>883.11</ele>
        <time>2022-07-15T05:51:08Z</time>
      </trkpt>
      <trkpt lat="44.20312" lon="2.78367">
        <ele>882.15</ele>
        <time>2022-07-15T05:51:15Z</time>
      </trkpt>
      <trkpt lat="44.20323" lon="2.78368">
        <ele>881.67</ele>
        <time>2022-07-15T05:51:22Z</time>
      </trkpt>
      <trkpt lat="44.20334" lon="2.78369">
        <ele>881.67</ele>
        <time>2022-07-15T05:51:29Z</time>
      </trkpt>
      <trkpt lat="44.20344" lon="2.78369">
        <ele>881.19</ele>
        <time>2022-07-15T05:51:36Z</time>
      </trkpt>
      <trkpt lat="44.20354" lon="2.7837">
        <ele>881.67</ele>
        <time>2022-07-15T05:51:43Z</time>
      </trkpt>
      <trkpt lat="44.20365" lon="2.7837">
        <ele>880.71</ele>
        <time>2022-07-15T05:51:50Z</time>
      </trkpt>
      <trkpt lat="44.20374" lon="2.78371">
        <ele>880.22</ele>
        <time>2022-07-15T05:51:57Z</time>
      </trkpt>
      <trkpt lat="44.20384" lon="2.78368">
        <ele>879.26</ele>
        <time>2022-07-15T05:52:04Z</time>
      </trkpt>
      <trkpt lat="44.20394" lon="2.78365">
        <ele>878.78</ele>
        <time>2022-07-15T05:52:11Z</time>
      </trkpt>
      <trkpt lat="44.20403" lon="2.78358">
        <ele>877.82</ele>
        <time>2022-07-15T05:52:18Z</time>
      </trkpt>
      <trkpt lat="44.2041" lon="2.78348">
        <ele>876.86</ele>
        <time>2022-07-15T05:52:25Z</time>
      </trkpt>
      <trkpt lat="44.20416" lon="2.78335">
        <ele>875.9</ele>
        <time>2022-07-15T05:52:33Z</time>
      </trkpt>
      <trkpt lat="44.20422" lon="2.78323">
        <ele>873.5</ele>
        <time>2022-07-15T05:52:41Z</time>
      </trkpt>
      <trkpt lat="44.20428" lon="2.78309">
        <ele>871.09</ele>
        <time>2022-07-15T05:52:50Z</time>
      </trkpt>
      <trkpt lat="44.20436" lon="2.78297">
        <ele>870.61</ele>
        <time>2022-07-15T05:52:58Z</time>
      </trkpt>
      <trkpt lat="44.20444" lon="2.78283">
        <ele>868.69</ele>
        <time>2022-07-15T05:53:08Z</time>
      </trkpt>
      <trkpt lat="44.20452" lon="2.78271">
        <ele>866.77</ele>
        <time>2022-07-15T05:53:18Z</time>
      </trkpt>
      <trkpt lat="44.20461" lon="2.78256">
        <ele>863.4</ele>
        <time>2022-07-15T05:53:28Z</time>
      </trkpt>
      <trkpt lat="44.20471" lon="2.7824">
        <ele>860.04</ele>
        <time>2022-07-15T05:53:39Z</time>
      </trkpt>
      <trkpt lat="44.20482" lon="2.78216">
        <ele>862.44</ele>
        <time>2022-07-15T05:53:49Z</time>
      </trkpt>
      <trkpt lat="44.20492" lon="2.782">
        <ele>863.88</ele>
        <time>2022-07-15T05:53:59Z</time>
      </trkpt>
      <trkpt lat="44.20503" lon="2.78188">
        <ele>862.44</ele>
        <time>2022-07-15T05:54:09Z</time>
      </trkpt>
      <trkpt lat="44.20518" lon="2.78168">
        <ele>859.08</ele>
        <time>2022-07-15T05:54:25Z</time>
      </trkpt>
      <trkpt lat="44.20528" lon="2.78157">
        <ele>858.59</ele>
        <time>2022-07-15T05:54:33Z</time>
      </trkpt>
      <trkpt lat="44.20542" lon="2.78147">
        <ele>859.08</ele>
        <time>2022-07-15T05:54:42Z</time>
      </trkpt>
      <trkpt lat="44.20552" lon="2.78128">
        <ele>858.11</ele>
        <time>2022-07-15T05:54:54Z</time>
      </trkpt>
      <trkpt lat="44.20559" lon="2.78115">
        <ele>856.67</ele>
        <time>2022-07-15T05:55:04Z</time>
      </trkpt>
      <trkpt lat="44.20568" lon="2.781">
        <ele>854.27</ele>
        <time>2022-07-15T05:55:15Z</time>
      </trkpt>
      <trkpt lat="44.20577" lon="2.78092">
        <ele>853.31</ele>
        <time>2022-07-15T05:55:22Z</time>
      </trkpt>
      <trkpt lat="44.20586" lon="2.78084">
        <ele>852.35</ele>
        <time>2022-07-15T05:55:29Z</time>
      </trkpt>
      <trkpt lat="44.20596" lon="2.78078">
        <ele>851.38</ele>
        <time>2022-07-15T05:55:36Z</time>
      </trkpt>
      <trkpt lat="44.20604" lon="2.78072">
        <ele>849.46</ele>
        <time>2022-07-15T05:55:44Z</time>
      </trkpt>
      <trkpt lat="44.20614" lon="2.78063">
        <ele>847.06</ele>
        <time>2022-07-15T05:55:54Z</time>
      </trkpt>
      <trkpt lat="44.20642" lon="2.78029">
        <ele>843.21</ele>
        <time>2022-07-15T05:57:18Z</time>
      </trkpt>
      <trkpt lat="44.2065" lon="2.78003">
        <ele>843.69</ele>
        <time>2022-07-15T05:57:34Z</time>
      </trkpt>
      <trkpt lat="44.20656" lon="2.7799">
        <ele>841.77</ele>
        <time>2022-07-15T05:57:44Z</time>
      </trkpt>
      <trkpt lat="44.20662" lon="2.77977">
        <ele>842.25</ele>
        <time>2022-07-15T05:57:54Z</time>
      </trkpt>
      <trkpt lat="44.20672" lon="2.77966">
        <ele>840.81</ele>
        <time>2022-07-15T05:58:12Z</time>
      </trkpt>
      <trkpt lat="44.20669" lon="2.77955">
        <ele>838.89</ele>
        <time>2022-07-15T05:58:25Z</time>
      </trkpt>
      <trkpt lat="44.20679" lon="2.77954">
        <ele>839.85</ele>
        <time>2022-07-15T05:58:44Z</time>
      </trkpt>
      <trkpt lat="44.20689" lon="2.77951">
        <ele>840.33</ele>
        <time>2022-07-15T05:58:54Z</time>
      </trkpt>
      <trkpt lat="44.20714" lon="2.77955">
        <ele>838.89</ele>
        <time>2022-07-15T05:59:14Z</time>
      </trkpt>
      <trkpt lat="44.20729" lon="2.77957">
        <ele>837.93</ele>
        <time>2022-07-15T05:59:26Z</time>
      </trkpt>
      <trkpt lat="44.20746" lon="2.77958">
        <ele>836.48</ele>
        <time>2022-07-15T05:59:40Z</time>
      </trkpt>
      <trkpt lat="44.20762" lon="2.77959">
        <ele>835.04</ele>
        <time>2022-07-15T05:59:54Z</time>
      </trkpt>
      <trkpt lat="44.20788" lon="2.77956">
        <ele>833.12</ele>
        <time>2022-07-15T06:00:21Z</time>
      </trkpt>
      <trkpt lat="44.20828" lon="2.78005">
        <ele>831.2</ele>
        <time>2022-07-15T06:01:06Z</time>
      </trkpt>
      <trkpt lat="44.20843" lon="2.78037">
        <ele>828.79</ele>
        <time>2022-07-15T06:01:28Z</time>
      </trkpt>
      <trkpt lat="44.20852" lon="2.78047">
        <ele>828.79</ele>
        <time>2022-07-15T06:01:39Z</time>
      </trkpt>
      <trkpt lat="44.20863" lon="2.78056">
        <ele>829.76</ele>
        <time>2022-07-15T06:01:49Z</time>
      </trkpt>
      <trkpt lat="44.20873" lon="2.78064">
        <ele>831.2</ele>
        <time>2022-07-15T06:01:59Z</time>
      </trkpt>
      <trkpt lat="44.20883" lon="2.78075">
        <ele>833.6</ele>
        <time>2022-07-15T06:02:08Z</time>
      </trkpt>
      <trkpt lat="44.20893" lon="2.78084">
        <ele>835.04</ele>
        <time>2022-07-15T06:02:17Z</time>
      </trkpt>
      <trkpt lat="44.20926" lon="2.78088">
        <ele>836</ele>
        <time>2022-07-15T06:02:45Z</time>
      </trkpt>
      <trkpt lat="44.20947" lon="2.78095">
        <ele>836.96</ele>
        <time>2022-07-15T06:03:05Z</time>
      </trkpt>
      <trkpt lat="44.20957" lon="2.78103">
        <ele>837.45</ele>
        <time>2022-07-15T06:03:14Z</time>
      </trkpt>
      <trkpt lat="44.20968" lon="2.78109">
        <ele>835.04</ele>
        <time>2022-07-15T06:03:25Z</time>
      </trkpt>
      <trkpt lat="44.20995" lon="2.78136">
        <ele>830.72</ele>
        <time>2022-07-15T06:03:56Z</time>
      </trkpt>
      <trkpt lat="44.21021" lon="2.78172">
        <ele>833.12</ele>
        <time>2022-07-15T06:04:25Z</time>
      </trkpt>
      <trkpt lat="44.2103" lon="2.78183">
        <ele>832.16</ele>
        <time>2022-07-15T06:04:34Z</time>
      </trkpt>
      <trkpt lat="44.21039" lon="2.78193">
        <ele>832.16</ele>
        <time>2022-07-15T06:04:42Z</time>
      </trkpt>
      <trkpt lat="44.2105" lon="2.78203">
        <ele>832.16</ele>
        <time>2022-07-15T06:04:51Z</time>
      </trkpt>
      <trkpt lat="44.21062" lon="2.78211">
        <ele>832.64</ele>
        <time>2022-07-15T06:05:03Z</time>
      </trkpt>
      <trkpt lat="44.21075" lon="2.78218">
        <ele>831.68</ele>
        <time>2022-07-15T06:05:14Z</time>
      </trkpt>
      <trkpt lat="44.21088" lon="2.78224">
        <ele>830.72</ele>
        <time>2022-07-15T06:05:24Z</time>
      </trkpt>
      <trkpt lat="44.21098" lon="2.7823">
        <ele>829.76</ele>
        <time>2022-07-15T06:05:36Z</time>
      </trkpt>
      <trkpt lat="44.2111" lon="2.78236">
        <ele>829.27</ele>
        <time>2022-07-15T06:05:46Z</time>
      </trkpt>
      <trkpt lat="44.21121" lon="2.78242">
        <ele>826.87</ele>
        <time>2022-07-15T06:05:58Z</time>
      </trkpt>
      <trkpt lat="44.21131" lon="2.78246">
        <ele>824.47</ele>
        <time>2022-07-15T06:06:07Z</time>
      </trkpt>
      <trkpt lat="44.21144" lon="2.78256">
        <ele>822.55</ele>
        <time>2022-07-15T06:06:21Z</time>
      </trkpt>
      <trkpt lat="44.21169" lon="2.78267">
        <ele>819.18</ele>
        <time>2022-07-15T06:06:41Z</time>
      </trkpt>
      <trkpt lat="44.21183" lon="2.78256">
        <ele>816.78</ele>
        <time>2022-07-15T06:06:54Z</time>
      </trkpt>
      <trkpt lat="44.2121" lon="2.78194">
        <ele>810.05</ele>
        <time>2022-07-15T06:07:40Z</time>
      </trkpt>
      <trkpt lat="44.21227" lon="2.78174">
        <ele>809.09</ele>
        <time>2022-07-15T06:07:59Z</time>
      </trkpt>
      <trkpt lat="44.21256" lon="2.78095">
        <ele>803.32</ele>
        <time>2022-07-15T06:09:01Z</time>
      </trkpt>
      <trkpt lat="44.21271" lon="2.78084">
        <ele>807.64</ele>
        <time>2022-07-15T06:10:46Z</time>
      </trkpt>
      <trkpt lat="44.2128" lon="2.78067">
        <ele>807.64</ele>
        <time>2022-07-15T06:11:01Z</time>
      </trkpt>
      <trkpt lat="44.21292" lon="2.78059">
        <ele>808.13</ele>
        <time>2022-07-15T06:11:10Z</time>
      </trkpt>
      <trkpt lat="44.21298" lon="2.78046">
        <ele>807.64</ele>
        <time>2022-07-15T06:11:18Z</time>
      </trkpt>
      <trkpt lat="44.21304" lon="2.78035">
        <ele>807.64</ele>
        <time>2022-07-15T06:11:25Z</time>
      </trkpt>
      <trkpt lat="44.21311" lon="2.78024">
        <ele>807.16</ele>
        <time>2022-07-15T06:11:32Z</time>
      </trkpt>
      <trkpt lat="44.21319" lon="2.78015">
        <ele>807.64</ele>
        <time>2022-07-15T06:11:39Z</time>
      </trkpt>
      <trkpt lat="44.21326" lon="2.78006">
        <ele>807.64</ele>
        <time>2022-07-15T06:11:46Z</time>
      </trkpt>
      <trkpt lat="44.21334" lon="2.77996">
        <ele>808.13</ele>
        <time>2022-07-15T06:11:51Z</time>
      </trkpt>
      <trkpt lat="44.21342" lon="2.77984">
        <ele>808.61</ele>
        <time>2022-07-15T06:11:55Z</time>
      </trkpt>
      <trkpt lat="44.21351" lon="2.77973">
        <ele>809.09</ele>
        <time>2022-07-15T06:11:59Z</time>
      </trkpt>
      <trkpt lat="44.21358" lon="2.77963">
        <ele>809.57</ele>
        <time>2022-07-15T06:12:04Z</time>
      </trkpt>
      <trkpt lat="44.21367" lon="2.77953">
        <ele>809.57</ele>
        <time>2022-07-15T06:12:11Z</time>
      </trkpt>
      <trkpt lat="44.21375" lon="2.77944">
        <ele>810.53</ele>
        <time>2022-07-15T06:12:17Z</time>
      </trkpt>
      <trkpt lat="44.21383" lon="2.77932">
        <ele>810.05</ele>
        <time>2022-07-15T06:12:22Z</time>
      </trkpt>
      <trkpt lat="44.2139" lon="2.77921">
        <ele>809.57</ele>
        <time>2022-07-15T06:12:25Z</time>
      </trkpt>
      <trkpt lat="44.21397" lon="2.77912">
        <ele>808.61</ele>
        <time>2022-07-15T06:12:28Z</time>
      </trkpt>
      <trkpt lat="44.21404" lon="2.77902">
        <ele>808.61</ele>
        <time>2022-07-15T06:12:31Z</time>
      </trkpt>
      <trkpt lat="44.21412" lon="2.77891">
        <ele>808.61</ele>
        <time>2022-07-15T06:12:34Z</time>
      </trkpt>
      <trkpt lat="44.2142" lon="2.7788">
        <ele>808.61</ele>
        <time>2022-07-15T06:12:37Z</time>
      </trkpt>
      <trkpt lat="44.21428" lon="2.77869">
        <ele>808.61</ele>
        <time>2022-07-15T06:12:40Z</time>
      </trkpt>
      <trkpt lat="44.21436" lon="2.77859">
        <ele>808.61</ele>
        <time>2022-07-15T06:12:43Z</time>
      </trkpt>
      <trkpt lat="44.21443" lon="2.77849">
        <ele>808.61</ele>
        <time>2022-07-15T06:12:46Z</time>
      </trkpt>
      <trkpt lat="44.2145" lon="2.7784">
        <ele>808.13</ele>
        <time>2022-07-15T06:12:49Z</time>
      </trkpt>
      <trkpt lat="44.21458" lon="2.77829">
        <ele>808.13</ele>
        <time>2022-07-15T06:12:52Z</time>
      </trkpt>
      <trkpt lat="44.21465" lon="2.7782">
        <ele>808.13</ele>
        <time>2022-07-15T06:12:55Z</time>
      </trkpt>
      <trkpt lat="44.21474" lon="2.77808">
        <ele>807.64</ele>
        <time>2022-07-15T06:12:59Z</time>
      </trkpt>
      <trkpt lat="44.21481" lon="2.77799">
        <ele>807.64</ele>
        <time>2022-07-15T06:13:02Z</time>
      </trkpt>
      <trkpt lat="44.21489" lon="2.77789">
        <ele>807.16</ele>
        <time>2022-07-15T06:13:06Z</time>
      </trkpt>
      <trkpt lat="44.21497" lon="2.77779">
        <ele>807.16</ele>
        <time>2022-07-15T06:13:11Z</time>
      </trkpt>
      <trkpt lat="44.21503" lon="2.77767">
        <ele>805.72</ele>
        <time>2022-07-15T06:13:18Z</time>
      </trkpt>
      <trkpt lat="44.21512" lon="2.77756">
        <ele>803.32</ele>
        <time>2022-07-15T06:13:27Z</time>
      </trkpt>
      <trkpt lat="44.2152" lon="2.77743">
        <ele>799.95</ele>
        <time>2022-07-15T06:13:36Z</time>
      </trkpt>
      <trkpt lat="44.21528" lon="2.7773">
        <ele>798.03</ele>
        <time>2022-07-15T06:13:45Z</time>
      </trkpt>
      <trkpt lat="44.21535" lon="2.77713">
        <ele>794.67</ele>
        <time>2022-07-15T06:13:55Z</time>
      </trkpt>
      <trkpt lat="44.21539" lon="2.77694">
        <ele>793.71</ele>
        <time>2022-07-15T06:14:05Z</time>
      </trkpt>
      <trkpt lat="44.21547" lon="2.77674">
        <ele>794.19</ele>
        <time>2022-07-15T06:14:15Z</time>
      </trkpt>
      <trkpt lat="44.21558" lon="2.77653">
        <ele>792.74</ele>
        <time>2022-07-15T06:14:29Z</time>
      </trkpt>
      <trkpt lat="44.21568" lon="2.7764">
        <ele>794.67</ele>
        <time>2022-07-15T06:14:37Z</time>
      </trkpt>
      <trkpt lat="44.21577" lon="2.77627">
        <ele>798.51</ele>
        <time>2022-07-15T06:14:45Z</time>
      </trkpt>
      <trkpt lat="44.21587" lon="2.77615">
        <ele>800.44</ele>
        <time>2022-07-15T06:14:54Z</time>
      </trkpt>
      <trkpt lat="44.21598" lon="2.77608">
        <ele>802.84</ele>
        <time>2022-07-15T06:15:01Z</time>
      </trkpt>
      <trkpt lat="44.21609" lon="2.77603">
        <ele>803.32</ele>
        <time>2022-07-15T06:15:05Z</time>
      </trkpt>
      <trkpt lat="44.2162" lon="2.77599">
        <ele>803.32</ele>
        <time>2022-07-15T06:15:08Z</time>
      </trkpt>
      <trkpt lat="44.21631" lon="2.77595">
        <ele>803.8</ele>
        <time>2022-07-15T06:15:11Z</time>
      </trkpt>
      <trkpt lat="44.21642" lon="2.77592">
        <ele>804.28</ele>
        <time>2022-07-15T06:15:14Z</time>
      </trkpt>
      <trkpt lat="44.21654" lon="2.77588">
        <ele>804.28</ele>
        <time>2022-07-15T06:15:18Z</time>
      </trkpt>
      <trkpt lat="44.21666" lon="2.77583">
        <ele>804.76</ele>
        <time>2022-07-15T06:15:22Z</time>
      </trkpt>
      <trkpt lat="44.21678" lon="2.77578">
        <ele>805.72</ele>
        <time>2022-07-15T06:15:26Z</time>
      </trkpt>
      <trkpt lat="44.21687" lon="2.77572">
        <ele>806.2</ele>
        <time>2022-07-15T06:15:29Z</time>
      </trkpt>
      <trkpt lat="44.21696" lon="2.77566">
        <ele>806.68</ele>
        <time>2022-07-15T06:15:32Z</time>
      </trkpt>
      <trkpt lat="44.21707" lon="2.77557">
        <ele>806.68</ele>
        <time>2022-07-15T06:15:36Z</time>
      </trkpt>
      <trkpt lat="44.21717" lon="2.77547">
        <ele>806.2</ele>
        <time>2022-07-15T06:15:40Z</time>
      </trkpt>
      <trkpt lat="44.21729" lon="2.7754">
        <ele>805.24</ele>
        <time>2022-07-15T06:15:44Z</time>
      </trkpt>
      <trkpt lat="44.2174" lon="2.77531">
        <ele>805.24</ele>
        <time>2022-07-15T06:15:48Z</time>
      </trkpt>
      <trkpt lat="44.2175" lon="2.77524">
        <ele>805.24</ele>
        <time>2022-07-15T06:15:52Z</time>
      </trkpt>
      <trkpt lat="44.2176" lon="2.77517">
        <ele>805.72</ele>
        <time>2022-07-15T06:15:56Z</time>
      </trkpt>
      <trkpt lat="44.2177" lon="2.77505">
        <ele>805.72</ele>
        <time>2022-07-15T06:16:01Z</time>
      </trkpt>
      <trkpt lat="44.21782" lon="2.77497">
        <ele>804.76</ele>
        <time>2022-07-15T06:16:05Z</time>
      </trkpt>
      <trkpt lat="44.21792" lon="2.77488">
        <ele>804.76</ele>
        <time>2022-07-15T06:16:09Z</time>
      </trkpt>
      <trkpt lat="44.21801" lon="2.7748">
        <ele>804.76</ele>
        <time>2022-07-15T06:16:12Z</time>
      </trkpt>
      <trkpt lat="44.21812" lon="2.77471">
        <ele>803.8</ele>
        <time>2022-07-15T06:16:16Z</time>
      </trkpt>
      <trkpt lat="44.21823" lon="2.77462">
        <ele>803.8</ele>
        <time>2022-07-15T06:16:20Z</time>
      </trkpt>
      <trkpt lat="44.21832" lon="2.77453">
        <ele>803.8</ele>
        <time>2022-07-15T06:16:23Z</time>
      </trkpt>
      <trkpt lat="44.21843" lon="2.77445">
        <ele>804.28</ele>
        <time>2022-07-15T06:16:27Z</time>
      </trkpt>
      <trkpt lat="44.21853" lon="2.77438">
        <ele>804.76</ele>
        <time>2022-07-15T06:16:31Z</time>
      </trkpt>
      <trkpt lat="44.21865" lon="2.77432">
        <ele>805.24</ele>
        <time>2022-07-15T06:16:35Z</time>
      </trkpt>
      <trkpt lat="44.21879" lon="2.77431">
        <ele>805.72</ele>
        <time>2022-07-15T06:16:39Z</time>
      </trkpt>
      <trkpt lat="44.21892" lon="2.77431">
        <ele>806.2</ele>
        <time>2022-07-15T06:16:43Z</time>
      </trkpt>
      <trkpt lat="44.21902" lon="2.77432">
        <ele>806.68</ele>
        <time>2022-07-15T06:16:46Z</time>
      </trkpt>
      <trkpt lat="44.21911" lon="2.77434">
        <ele>806.68</ele>
        <time>2022-07-15T06:16:49Z</time>
      </trkpt>
      <trkpt lat="44.21922" lon="2.77436">
        <ele>806.68</ele>
        <time>2022-07-15T06:16:53Z</time>
      </trkpt>
      <trkpt lat="44.21932" lon="2.77437">
        <ele>807.16</ele>
        <time>2022-07-15T06:16:56Z</time>
      </trkpt>
      <trkpt lat="44.21942" lon="2.77437">
        <ele>807.16</ele>
        <time>2022-07-15T06:17:00Z</time>
      </trkpt>
      <trkpt lat="44.21956" lon="2.77435">
        <ele>809.09</ele>
        <time>2022-07-15T06:17:04Z</time>
      </trkpt>
      <trkpt lat="44.21967" lon="2.77436">
        <ele>809.57</ele>
        <time>2022-07-15T06:17:07Z</time>
      </trkpt>
      <trkpt lat="44.21981" lon="2.77435">
        <ele>811.01</ele>
        <time>2022-07-15T06:17:11Z</time>
      </trkpt>
      <trkpt lat="44.21993" lon="2.77435">
        <ele>811.49</ele>
        <time>2022-07-15T06:17:15Z</time>
      </trkpt>
      <trkpt lat="44.22007" lon="2.77433">
        <ele>811.97</ele>
        <time>2022-07-15T06:17:20Z</time>
      </trkpt>
      <trkpt lat="44.22021" lon="2.77432">
        <ele>811.97</ele>
        <time>2022-07-15T06:17:24Z</time>
      </trkpt>
      <trkpt lat="44.22034" lon="2.7743">
        <ele>812.45</ele>
        <time>2022-07-15T06:17:29Z</time>
      </trkpt>
      <trkpt lat="44.22046" lon="2.77428">
        <ele>812.93</ele>
        <time>2022-07-15T06:17:34Z</time>
      </trkpt>
      <trkpt lat="44.22058" lon="2.77428">
        <ele>812.45</ele>
        <time>2022-07-15T06:17:38Z</time>
      </trkpt>
      <trkpt lat="44.22069" lon="2.77428">
        <ele>811.49</ele>
        <time>2022-07-15T06:17:42Z</time>
      </trkpt>
      <trkpt lat="44.22084" lon="2.77427">
        <ele>810.05</ele>
        <time>2022-07-15T06:17:47Z</time>
      </trkpt>
      <trkpt lat="44.22098" lon="2.77425">
        <ele>809.57</ele>
        <time>2022-07-15T06:17:51Z</time>
      </trkpt>
      <trkpt lat="44.2211" lon="2.77424">
        <ele>808.13</ele>
        <time>2022-07-15T06:17:55Z</time>
      </trkpt>
      <trkpt lat="44.22121" lon="2.77424">
        <ele>806.2</ele>
        <time>2022-07-15T06:18:00Z</time>
      </trkpt>
      <trkpt lat="44.22132" lon="2.77422">
        <ele>805.24</ele>
        <time>2022-07-15T06:18:04Z</time>
      </trkpt>
      <trkpt lat="44.22144" lon="2.77419">
        <ele>803.8</ele>
        <time>2022-07-15T06:18:09Z</time>
      </trkpt>
      <trkpt lat="44.22162" lon="2.77413">
        <ele>804.28</ele>
        <time>2022-07-15T06:18:15Z</time>
      </trkpt>
      <trkpt lat="44.22176" lon="2.77404">
        <ele>803.8</ele>
        <time>2022-07-15T06:18:19Z</time>
      </trkpt>
      <trkpt lat="44.22188" lon="2.77393">
        <ele>802.36</ele>
        <time>2022-07-15T06:18:23Z</time>
      </trkpt>
      <trkpt lat="44.222" lon="2.7738">
        <ele>801.88</ele>
        <time>2022-07-15T06:18:27Z</time>
      </trkpt>
      <trkpt lat="44.2221" lon="2.77367">
        <ele>800.44</ele>
        <time>2022-07-15T06:18:31Z</time>
      </trkpt>
      <trkpt lat="44.22219" lon="2.77355">
        <ele>799.47</ele>
        <time>2022-07-15T06:18:35Z</time>
      </trkpt>
      <trkpt lat="44.2223" lon="2.77344">
        <ele>798.51</ele>
        <time>2022-07-15T06:18:39Z</time>
      </trkpt>
      <trkpt lat="44.22238" lon="2.77338">
        <ele>798.99</ele>
        <time>2022-07-15T06:18:42Z</time>
      </trkpt>
      <trkpt lat="44.22248" lon="2.77329">
        <ele>799.47</ele>
        <time>2022-07-15T06:18:46Z</time>
      </trkpt>
      <trkpt lat="44.2226" lon="2.7732">
        <ele>799.95</ele>
        <time>2022-07-15T06:18:50Z</time>
      </trkpt>
      <trkpt lat="44.22269" lon="2.77311">
        <ele>800.92</ele>
        <time>2022-07-15T06:18:53Z</time>
      </trkpt>
      <trkpt lat="44.22281" lon="2.77301">
        <ele>802.36</ele>
        <time>2022-07-15T06:18:57Z</time>
      </trkpt>
      <trkpt lat="44.2229" lon="2.77294">
        <ele>802.84</ele>
        <time>2022-07-15T06:19:00Z</time>
      </trkpt>
      <trkpt lat="44.22299" lon="2.77289">
        <ele>803.8</ele>
        <time>2022-07-15T06:19:03Z</time>
      </trkpt>
      <trkpt lat="44.22308" lon="2.77282">
        <ele>804.28</ele>
        <time>2022-07-15T06:19:06Z</time>
      </trkpt>
      <trkpt lat="44.2232" lon="2.77273">
        <ele>805.24</ele>
        <time>2022-07-15T06:19:10Z</time>
      </trkpt>
      <trkpt lat="44.22331" lon="2.77265">
        <ele>806.2</ele>
        <time>2022-07-15T06:19:14Z</time>
      </trkpt>
      <trkpt lat="44.22343" lon="2.77262">
        <ele>806.68</ele>
        <time>2022-07-15T06:19:18Z</time>
      </trkpt>
      <trkpt lat="44.22355" lon="2.77262">
        <ele>806.2</ele>
        <time>2022-07-15T06:19:22Z</time>
      </trkpt>
      <trkpt lat="44.22366" lon="2.77264">
        <ele>805.72</ele>
        <time>2022-07-15T06:19:26Z</time>
      </trkpt>
      <trkpt lat="44.22377" lon="2.77267">
        <ele>804.76</ele>
        <time>2022-07-15T06:19:30Z</time>
      </trkpt>
      <trkpt lat="44.2239" lon="2.77271">
        <ele>803.8</ele>
        <time>2022-07-15T06:19:34Z</time>
      </trkpt>
      <trkpt lat="44.22403" lon="2.77275">
        <ele>803.8</ele>
        <time>2022-07-15T06:19:38Z</time>
      </trkpt>
      <trkpt lat="44.22414" lon="2.77279">
        <ele>803.32</ele>
        <time>2022-07-15T06:19:42Z</time>
      </trkpt>
      <trkpt lat="44.22425" lon="2.77281">
        <ele>803.32</ele>
        <time>2022-07-15T06:19:46Z</time>
      </trkpt>
      <trkpt lat="44.22438" lon="2.77282">
        <ele>803.32</ele>
        <time>2022-07-15T06:19:50Z</time>
      </trkpt>
      <trkpt lat="44.22453" lon="2.77281">
        <ele>803.8</ele>
        <time>2022-07-15T06:19:54Z</time>
      </trkpt>
      <trkpt lat="44.22465" lon="2.77276">
        <ele>806.2</ele>
        <time>2022-07-15T06:19:58Z</time>
      </trkpt>
      <trkpt lat="44.22478" lon="2.77268">
        <ele>808.61</ele>
        <time>2022-07-15T06:20:02Z</time>
      </trkpt>
      <trkpt lat="44.2249" lon="2.77262">
        <ele>811.01</ele>
        <time>2022-07-15T06:20:06Z</time>
      </trkpt>
      <trkpt lat="44.22502" lon="2.77256">
        <ele>812.45</ele>
        <time>2022-07-15T06:20:10Z</time>
      </trkpt>
      <trkpt lat="44.22513" lon="2.77251">
        <ele>813.41</ele>
        <time>2022-07-15T06:20:14Z</time>
      </trkpt>
      <trkpt lat="44.22525" lon="2.77246">
        <ele>814.37</ele>
        <time>2022-07-15T06:20:18Z</time>
      </trkpt>
      <trkpt lat="44.22536" lon="2.7724">
        <ele>814.37</ele>
        <time>2022-07-15T06:20:22Z</time>
      </trkpt>
      <trkpt lat="44.22547" lon="2.77236">
        <ele>814.37</ele>
        <time>2022-07-15T06:20:26Z</time>
      </trkpt>
      <trkpt lat="44.22558" lon="2.7723">
        <ele>814.37</ele>
        <time>2022-07-15T06:20:30Z</time>
      </trkpt>
      <trkpt lat="44.22571" lon="2.77225">
        <ele>814.37</ele>
        <time>2022-07-15T06:20:35Z</time>
      </trkpt>
      <trkpt lat="44.22583" lon="2.77218">
        <ele>814.37</ele>
        <time>2022-07-15T06:20:40Z</time>
      </trkpt>
      <trkpt lat="44.22595" lon="2.77214">
        <ele>813.89</ele>
        <time>2022-07-15T06:20:44Z</time>
      </trkpt>
      <trkpt lat="44.22607" lon="2.77208">
        <ele>812.93</ele>
        <time>2022-07-15T06:20:48Z</time>
      </trkpt>
      <trkpt lat="44.22619" lon="2.77202">
        <ele>811.01</ele>
        <time>2022-07-15T06:20:53Z</time>
      </trkpt>
      <trkpt lat="44.22633" lon="2.77197">
        <ele>810.05</ele>
        <time>2022-07-15T06:20:58Z</time>
      </trkpt>
      <trkpt lat="44.22648" lon="2.77193">
        <ele>810.53</ele>
        <time>2022-07-15T06:21:03Z</time>
      </trkpt>
      <trkpt lat="44.22662" lon="2.77188">
        <ele>810.53</ele>
        <time>2022-07-15T06:21:08Z</time>
      </trkpt>
      <trkpt lat="44.22675" lon="2.77184">
        <ele>810.53</ele>
        <time>2022-07-15T06:21:12Z</time>
      </trkpt>
      <trkpt lat="44.22688" lon="2.77183">
        <ele>810.05</ele>
        <time>2022-07-15T06:21:16Z</time>
      </trkpt>
      <trkpt lat="44.22703" lon="2.77183">
        <ele>810.05</ele>
        <time>2022-07-15T06:21:20Z</time>
      </trkpt>
      <trkpt lat="44.22715" lon="2.77182">
        <ele>810.05</ele>
        <time>2022-07-15T06:21:24Z</time>
      </trkpt>
      <trkpt lat="44.22726" lon="2.77182">
        <ele>810.05</ele>
        <time>2022-07-15T06:21:28Z</time>
      </trkpt>
      <trkpt lat="44.22737" lon="2.77182">
        <ele>810.05</ele>
        <time>2022-07-15T06:21:32Z</time>
      </trkpt>
      <trkpt lat="44.22748" lon="2.77181">
        <ele>809.57</ele>
        <time>2022-07-15T06:21:36Z</time>
      </trkpt>
      <trkpt lat="44.22761" lon="2.77178">
        <ele>809.57</ele>
        <time>2022-07-15T06:21:40Z</time>
      </trkpt>
      <trkpt lat="44.22774" lon="2.77173">
        <ele>808.61</ele>
        <time>2022-07-15T06:21:44Z</time>
      </trkpt>
      <trkpt lat="44.22788" lon="2.77166">
        <ele>808.13</ele>
        <time>2022-07-15T06:21:48Z</time>
      </trkpt>
      <trkpt lat="44.228" lon="2.7716">
        <ele>808.13</ele>
        <time>2022-07-15T06:21:52Z</time>
      </trkpt>
      <trkpt lat="44.2281" lon="2.77151">
        <ele>807.64</ele>
        <time>2022-07-15T06:21:56Z</time>
      </trkpt>
      <trkpt lat="44.22819" lon="2.77141">
        <ele>807.64</ele>
        <time>2022-07-15T06:22:00Z</time>
      </trkpt>
      <trkpt lat="44.22827" lon="2.77129">
        <ele>807.64</ele>
        <time>2022-07-15T06:22:04Z</time>
      </trkpt>
      <trkpt lat="44.22835" lon="2.77117">
        <ele>807.16</ele>
        <time>2022-07-15T06:22:08Z</time>
      </trkpt>
      <trkpt lat="44.22843" lon="2.77103">
        <ele>806.68</ele>
        <time>2022-07-15T06:22:12Z</time>
      </trkpt>
      <trkpt lat="44.22848" lon="2.77091">
        <ele>805.72</ele>
        <time>2022-07-15T06:22:16Z</time>
      </trkpt>
      <trkpt lat="44.22853" lon="2.77075">
        <ele>806.2</ele>
        <time>2022-07-15T06:22:23Z</time>
      </trkpt>
      <trkpt lat="44.22858" lon="2.77062">
        <ele>805.72</ele>
        <time>2022-07-15T06:22:27Z</time>
      </trkpt>
      <trkpt lat="44.22863" lon="2.7705">
        <ele>806.2</ele>
        <time>2022-07-15T06:22:31Z</time>
      </trkpt>
      <trkpt lat="44.22867" lon="2.77032">
        <ele>806.2</ele>
        <time>2022-07-15T06:22:35Z</time>
      </trkpt>
      <trkpt lat="44.2287" lon="2.77013">
        <ele>806.68</ele>
        <time>2022-07-15T06:22:39Z</time>
      </trkpt>
      <trkpt lat="44.22875" lon="2.7699">
        <ele>808.13</ele>
        <time>2022-07-15T06:22:43Z</time>
      </trkpt>
      <trkpt lat="44.22881" lon="2.76972">
        <ele>810.05</ele>
        <time>2022-07-15T06:22:47Z</time>
      </trkpt>
      <trkpt lat="44.22886" lon="2.76952">
        <ele>811.49</ele>
        <time>2022-07-15T06:22:55Z</time>
      </trkpt>
      <trkpt lat="44.22884" lon="2.76934">
        <ele>812.45</ele>
        <time>2022-07-15T06:23:07Z</time>
      </trkpt>
      <trkpt lat="44.22887" lon="2.76875">
        <ele>812.93</ele>
        <time>2022-07-15T06:23:40Z</time>
      </trkpt>
      <trkpt lat="44.22887" lon="2.76856">
        <ele>815.34</ele>
        <time>2022-07-15T06:23:50Z</time>
      </trkpt>
      <trkpt lat="44.22893" lon="2.76541">
        <ele>811.97</ele>
        <time>2022-07-15T06:26:33Z</time>
      </trkpt>
      <trkpt lat="44.22893" lon="2.76524">
        <ele>810.53</ele>
        <time>2022-07-15T06:26:42Z</time>
      </trkpt>
      <trkpt lat="44.22894" lon="2.76501">
        <ele>838.89</ele>
        <time>2022-07-15T06:27:27Z</time>
      </trkpt>
      <trkpt lat="44.22903" lon="2.76487">
        <ele>838.89</ele>
        <time>2022-07-15T06:27:39Z</time>
      </trkpt>
      <trkpt lat="44.22911" lon="2.76474">
        <ele>842.73</ele>
        <time>2022-07-15T06:27:56Z</time>
      </trkpt>
      <trkpt lat="44.22916" lon="2.76462">
        <ele>842.73</ele>
        <time>2022-07-15T06:28:12Z</time>
      </trkpt>
      <trkpt lat="44.22911" lon="2.7645">
        <ele>842.73</ele>
        <time>2022-07-15T06:28:22Z</time>
      </trkpt>
      <trkpt lat="44.22905" lon="2.76438">
        <ele>842.25</ele>
        <time>2022-07-15T06:28:30Z</time>
      </trkpt>
      <trkpt lat="44.22902" lon="2.76426">
        <ele>842.73</ele>
        <time>2022-07-15T06:28:37Z</time>
      </trkpt>
      <trkpt lat="44.22899" lon="2.76414">
        <ele>843.69</ele>
        <time>2022-07-15T06:28:44Z</time>
      </trkpt>
      <trkpt lat="44.22898" lon="2.764">
        <ele>844.18</ele>
        <time>2022-07-15T06:28:51Z</time>
      </trkpt>
      <trkpt lat="44.22896" lon="2.76386">
        <ele>844.66</ele>
        <time>2022-07-15T06:28:58Z</time>
      </trkpt>
      <trkpt lat="44.22897" lon="2.76372">
        <ele>845.14</ele>
        <time>2022-07-15T06:29:05Z</time>
      </trkpt>
      <trkpt lat="44.22898" lon="2.76355">
        <ele>846.58</ele>
        <time>2022-07-15T06:29:13Z</time>
      </trkpt>
      <trkpt lat="44.22901" lon="2.76339">
        <ele>847.54</ele>
        <time>2022-07-15T06:29:21Z</time>
      </trkpt>
      <trkpt lat="44.22905" lon="2.76323">
        <ele>847.54</ele>
        <time>2022-07-15T06:29:29Z</time>
      </trkpt>
      <trkpt lat="44.22909" lon="2.76311">
        <ele>847.54</ele>
        <time>2022-07-15T06:29:36Z</time>
      </trkpt>
      <trkpt lat="44.22914" lon="2.76299">
        <ele>847.54</ele>
        <time>2022-07-15T06:29:43Z</time>
      </trkpt>
      <trkpt lat="44.22919" lon="2.76286">
        <ele>847.54</ele>
        <time>2022-07-15T06:29:50Z</time>
      </trkpt>
      <trkpt lat="44.22924" lon="2.76273">
        <ele>847.06</ele>
        <time>2022-07-15T06:29:57Z</time>
      </trkpt>
      <trkpt lat="44.22928" lon="2.7626">
        <ele>847.06</ele>
        <time>2022-07-15T06:30:04Z</time>
      </trkpt>
      <trkpt lat="44.22932" lon="2.76248">
        <ele>846.58</ele>
        <time>2022-07-15T06:30:11Z</time>
      </trkpt>
      <trkpt lat="44.22937" lon="2.76234">
        <ele>846.58</ele>
        <time>2022-07-15T06:30:18Z</time>
      </trkpt>
      <trkpt lat="44.22942" lon="2.76222">
        <ele>846.1</ele>
        <time>2022-07-15T06:30:25Z</time>
      </trkpt>
      <trkpt lat="44.22947" lon="2.76209">
        <ele>846.1</ele>
        <time>2022-07-15T06:30:32Z</time>
      </trkpt>
      <trkpt lat="44.22952" lon="2.76196">
        <ele>846.1</ele>
        <time>2022-07-15T06:30:39Z</time>
      </trkpt>
      <trkpt lat="44.22957" lon="2.76183">
        <ele>846.1</ele>
        <time>2022-07-15T06:30:46Z</time>
      </trkpt>
      <trkpt lat="44.22963" lon="2.76171">
        <ele>846.1</ele>
        <time>2022-07-15T06:30:53Z</time>
      </trkpt>
      <trkpt lat="44.22968" lon="2.76159">
        <ele>846.1</ele>
        <time>2022-07-15T06:31:00Z</time>
      </trkpt>
      <trkpt lat="44.22974" lon="2.76147">
        <ele>845.62</ele>
        <time>2022-07-15T06:31:07Z</time>
      </trkpt>
      <trkpt lat="44.22981" lon="2.76136">
        <ele>844.66</ele>
        <time>2022-07-15T06:31:14Z</time>
      </trkpt>
      <trkpt lat="44.22989" lon="2.76125">
        <ele>844.18</ele>
        <time>2022-07-15T06:31:22Z</time>
      </trkpt>
      <trkpt lat="44.22997" lon="2.76113">
        <ele>843.69</ele>
        <time>2022-07-15T06:31:30Z</time>
      </trkpt>
      <trkpt lat="44.22997" lon="2.76102">
        <ele>847.06</ele>
        <time>2022-07-15T06:33:22Z</time>
      </trkpt>
      <trkpt lat="44.23008" lon="2.76096">
        <ele>846.58</ele>
        <time>2022-07-15T06:33:30Z</time>
      </trkpt>
      <trkpt lat="44.23016" lon="2.76088">
        <ele>846.1</ele>
        <time>2022-07-15T06:33:38Z</time>
      </trkpt>
      <trkpt lat="44.23024" lon="2.76079">
        <ele>846.1</ele>
        <time>2022-07-15T06:33:45Z</time>
      </trkpt>
      <trkpt lat="44.23032" lon="2.76078">
        <ele>846.58</ele>
        <time>2022-07-15T06:33:52Z</time>
      </trkpt>
      <trkpt lat="44.23027" lon="2.76064">
        <ele>848.02</ele>
        <time>2022-07-15T06:34:20Z</time>
      </trkpt>
      <trkpt lat="44.23026" lon="2.75991">
        <ele>836.48</ele>
        <time>2022-07-15T06:35:04Z</time>
      </trkpt>
      <trkpt lat="44.23025" lon="2.75944">
        <ele>837.93</ele>
        <time>2022-07-15T06:35:32Z</time>
      </trkpt>
      <trkpt lat="44.23022" lon="2.7587">
        <ele>832.64</ele>
        <time>2022-07-15T06:36:09Z</time>
      </trkpt>
      <trkpt lat="44.23019" lon="2.7587">
        <ele>840.33</ele>
        <time>2022-07-15T06:37:01Z</time>
      </trkpt>
      <trkpt lat="44.23016" lon="2.75858">
        <ele>841.77</ele>
        <time>2022-07-15T06:37:09Z</time>
      </trkpt>
      <trkpt lat="44.23017" lon="2.75843">
        <ele>839.37</ele>
        <time>2022-07-15T06:37:17Z</time>
      </trkpt>
      <trkpt lat="44.23011" lon="2.75792">
        <ele>827.83</ele>
        <time>2022-07-15T06:38:08Z</time>
      </trkpt>
      <trkpt lat="44.23008" lon="2.75774">
        <ele>820.14</ele>
        <time>2022-07-15T06:38:19Z</time>
      </trkpt>
      <trkpt lat="44.23026" lon="2.75695">
        <ele>823.99</ele>
        <time>2022-07-15T06:39:27Z</time>
      </trkpt>
      <trkpt lat="44.23046" lon="2.75674">
        <ele>832.64</ele>
        <time>2022-07-15T06:39:45Z</time>
      </trkpt>
      <trkpt lat="44.23055" lon="2.75657">
        <ele>833.6</ele>
        <time>2022-07-15T06:39:58Z</time>
      </trkpt>
      <trkpt lat="44.23069" lon="2.75638">
        <ele>834.08</ele>
        <time>2022-07-15T06:40:16Z</time>
      </trkpt>
      <trkpt lat="44.23174" lon="2.75559">
        <ele>844.66</ele>
        <time>2022-07-15T06:41:59Z</time>
      </trkpt>
      <trkpt lat="44.23186" lon="2.75556">
        <ele>846.1</ele>
        <time>2022-07-15T06:42:09Z</time>
      </trkpt>
      <trkpt lat="44.23196" lon="2.75559">
        <ele>846.1</ele>
        <time>2022-07-15T06:42:18Z</time>
      </trkpt>
      <trkpt lat="44.23208" lon="2.75562">
        <ele>846.58</ele>
        <time>2022-07-15T06:42:29Z</time>
      </trkpt>
      <trkpt lat="44.23217" lon="2.75567">
        <ele>846.58</ele>
        <time>2022-07-15T06:42:39Z</time>
      </trkpt>
      <trkpt lat="44.23228" lon="2.75571">
        <ele>845.62</ele>
        <time>2022-07-15T06:42:49Z</time>
      </trkpt>
      <trkpt lat="44.23239" lon="2.75578">
        <ele>843.69</ele>
        <time>2022-07-15T06:43:00Z</time>
      </trkpt>
      <trkpt lat="44.23251" lon="2.75583">
        <ele>843.21</ele>
        <time>2022-07-15T06:43:11Z</time>
      </trkpt>
      <trkpt lat="44.23267" lon="2.75588">
        <ele>842.73</ele>
        <time>2022-07-15T06:43:21Z</time>
      </trkpt>
      <trkpt lat="44.23345" lon="2.75544">
        <ele>836.96</ele>
        <time>2022-07-15T06:44:45Z</time>
      </trkpt>
      <trkpt lat="44.23358" lon="2.75512">
        <ele>832.64</ele>
        <time>2022-07-15T06:45:08Z</time>
      </trkpt>
      <trkpt lat="44.2337" lon="2.75493">
        <ele>837.45</ele>
        <time>2022-07-15T06:45:19Z</time>
      </trkpt>
      <trkpt lat="44.2338" lon="2.75479">
        <ele>837.93</ele>
        <time>2022-07-15T06:45:31Z</time>
      </trkpt>
      <trkpt lat="44.23387" lon="2.75464">
        <ele>838.41</ele>
        <time>2022-07-15T06:45:41Z</time>
      </trkpt>
      <trkpt lat="44.23392" lon="2.75446">
        <ele>841.29</ele>
        <time>2022-07-15T06:45:50Z</time>
      </trkpt>
      <trkpt lat="44.23398" lon="2.75433">
        <ele>838.89</ele>
        <time>2022-07-15T06:46:02Z</time>
      </trkpt>
      <trkpt lat="44.23408" lon="2.75422">
        <ele>836.96</ele>
        <time>2022-07-15T06:46:13Z</time>
      </trkpt>
      <trkpt lat="44.23423" lon="2.7539">
        <ele>836.96</ele>
        <time>2022-07-15T06:46:38Z</time>
      </trkpt>
      <trkpt lat="44.23444" lon="2.75387">
        <ele>839.37</ele>
        <time>2022-07-15T06:46:50Z</time>
      </trkpt>
      <trkpt lat="44.23457" lon="2.75384">
        <ele>848.98</ele>
        <time>2022-07-15T06:46:59Z</time>
      </trkpt>
      <trkpt lat="44.23466" lon="2.7538">
        <ele>851.87</ele>
        <time>2022-07-15T06:47:08Z</time>
      </trkpt>
      <trkpt lat="44.23483" lon="2.75373">
        <ele>855.71</ele>
        <time>2022-07-15T06:47:20Z</time>
      </trkpt>
      <trkpt lat="44.235" lon="2.75374">
        <ele>857.63</ele>
        <time>2022-07-15T06:47:33Z</time>
      </trkpt>
      <trkpt lat="44.2351" lon="2.75383">
        <ele>857.63</ele>
        <time>2022-07-15T06:47:49Z</time>
      </trkpt>
      <trkpt lat="44.23518" lon="2.75392">
        <ele>856.67</ele>
        <time>2022-07-15T06:48:01Z</time>
      </trkpt>
      <trkpt lat="44.23522" lon="2.75406">
        <ele>856.67</ele>
        <time>2022-07-15T06:48:12Z</time>
      </trkpt>
      <trkpt lat="44.23521" lon="2.7542">
        <ele>856.67</ele>
        <time>2022-07-15T06:48:22Z</time>
      </trkpt>
      <trkpt lat="44.23521" lon="2.75434">
        <ele>855.71</ele>
        <time>2022-07-15T06:48:32Z</time>
      </trkpt>
      <trkpt lat="44.23522" lon="2.7545">
        <ele>855.71</ele>
        <time>2022-07-15T06:48:42Z</time>
      </trkpt>
      <trkpt lat="44.23522" lon="2.75467">
        <ele>854.27</ele>
        <time>2022-07-15T06:48:53Z</time>
      </trkpt>
      <trkpt lat="44.23535" lon="2.75489">
        <ele>857.63</ele>
        <time>2022-07-15T06:49:25Z</time>
      </trkpt>
      <trkpt lat="44.23537" lon="2.75505">
        <ele>856.67</ele>
        <time>2022-07-15T06:49:35Z</time>
      </trkpt>
      <trkpt lat="44.23541" lon="2.75519">
        <ele>856.67</ele>
        <time>2022-07-15T06:49:44Z</time>
      </trkpt>
      <trkpt lat="44.23545" lon="2.75534">
        <ele>856.19</ele>
        <time>2022-07-15T06:49:54Z</time>
      </trkpt>
      <trkpt lat="44.23542" lon="2.75547">
        <ele>854.75</ele>
        <time>2022-07-15T06:50:03Z</time>
      </trkpt>
      <trkpt lat="44.23537" lon="2.75558">
        <ele>855.23</ele>
        <time>2022-07-15T06:50:13Z</time>
      </trkpt>
      <trkpt lat="44.23531" lon="2.75569">
        <ele>854.27</ele>
        <time>2022-07-15T06:50:30Z</time>
      </trkpt>
      <trkpt lat="44.23516" lon="2.75576">
        <ele>852.83</ele>
        <time>2022-07-15T06:50:57Z</time>
      </trkpt>
      <trkpt lat="44.2351" lon="2.75566">
        <ele>853.31</ele>
        <time>2022-07-15T06:51:06Z</time>
      </trkpt>
      <trkpt lat="44.23511" lon="2.75551">
        <ele>853.31</ele>
        <time>2022-07-15T06:51:16Z</time>
      </trkpt>
      <trkpt lat="44.23514" lon="2.75538">
        <ele>852.35</ele>
        <time>2022-07-15T06:51:26Z</time>
      </trkpt>
      <trkpt lat="44.23518" lon="2.75524">
        <ele>850.42</ele>
        <time>2022-07-15T06:51:37Z</time>
      </trkpt>
      <trkpt lat="44.23517" lon="2.75507">
        <ele>848.5</ele>
        <time>2022-07-15T06:51:45Z</time>
      </trkpt>
      <trkpt lat="44.23521" lon="2.7549">
        <ele>847.06</ele>
        <time>2022-07-15T06:51:57Z</time>
      </trkpt>
      <trkpt lat="44.23521" lon="2.75475">
        <ele>848.02</ele>
        <time>2022-07-15T06:52:05Z</time>
      </trkpt>
      <trkpt lat="44.2352" lon="2.7546">
        <ele>848.5</ele>
        <time>2022-07-15T06:52:14Z</time>
      </trkpt>
      <trkpt lat="44.23522" lon="2.75445">
        <ele>848.02</ele>
        <time>2022-07-15T06:52:23Z</time>
      </trkpt>
      <trkpt lat="44.23524" lon="2.75431">
        <ele>847.06</ele>
        <time>2022-07-15T06:52:32Z</time>
      </trkpt>
      <trkpt lat="44.23524" lon="2.75413">
        <ele>848.98</ele>
        <time>2022-07-15T06:52:40Z</time>
      </trkpt>
      <trkpt lat="44.23526" lon="2.75397">
        <ele>850.42</ele>
        <time>2022-07-15T06:52:48Z</time>
      </trkpt>
      <trkpt lat="44.23526" lon="2.75383">
        <ele>851.87</ele>
        <time>2022-07-15T06:52:56Z</time>
      </trkpt>
      <trkpt lat="44.23526" lon="2.75368">
        <ele>851.87</ele>
        <time>2022-07-15T06:53:05Z</time>
      </trkpt>
      <trkpt lat="44.23527" lon="2.75351">
        <ele>853.79</ele>
        <time>2022-07-15T06:53:14Z</time>
      </trkpt>
      <trkpt lat="44.23529" lon="2.75338">
        <ele>854.27</ele>
        <time>2022-07-15T06:53:22Z</time>
      </trkpt>
      <trkpt lat="44.23529" lon="2.75323">
        <ele>854.75</ele>
        <time>2022-07-15T06:53:31Z</time>
      </trkpt>
      <trkpt lat="44.2353" lon="2.75307">
        <ele>854.27</ele>
        <time>2022-07-15T06:53:40Z</time>
      </trkpt>
      <trkpt lat="44.23534" lon="2.75293">
        <ele>851.87</ele>
        <time>2022-07-15T06:53:50Z</time>
      </trkpt>
      <trkpt lat="44.2354" lon="2.75282">
        <ele>848.98</ele>
        <time>2022-07-15T06:54:00Z</time>
      </trkpt>
      <trkpt lat="44.23548" lon="2.75272">
        <ele>845.14</ele>
        <time>2022-07-15T06:54:11Z</time>
      </trkpt>
      <trkpt lat="44.23555" lon="2.75261">
        <ele>843.69</ele>
        <time>2022-07-15T06:54:20Z</time>
      </trkpt>
      <trkpt lat="44.23558" lon="2.75242">
        <ele>845.14</ele>
        <time>2022-07-15T06:54:30Z</time>
      </trkpt>
      <trkpt lat="44.23556" lon="2.75223">
        <ele>848.98</ele>
        <time>2022-07-15T06:54:38Z</time>
      </trkpt>
      <trkpt lat="44.23552" lon="2.75206">
        <ele>851.87</ele>
        <time>2022-07-15T06:54:46Z</time>
      </trkpt>
      <trkpt lat="44.23547" lon="2.75191">
        <ele>854.27</ele>
        <time>2022-07-15T06:54:54Z</time>
      </trkpt>
      <trkpt lat="44.23543" lon="2.75177">
        <ele>856.19</ele>
        <time>2022-07-15T06:55:02Z</time>
      </trkpt>
      <trkpt lat="44.23538" lon="2.75165">
        <ele>856.67</ele>
        <time>2022-07-15T06:55:10Z</time>
      </trkpt>
      <trkpt lat="44.23533" lon="2.75152">
        <ele>857.15</ele>
        <time>2022-07-15T06:55:18Z</time>
      </trkpt>
      <trkpt lat="44.23526" lon="2.7514">
        <ele>856.67</ele>
        <time>2022-07-15T06:55:27Z</time>
      </trkpt>
      <trkpt lat="44.23515" lon="2.7512">
        <ele>858.11</ele>
        <time>2022-07-15T06:56:20Z</time>
      </trkpt>
      <trkpt lat="44.2351" lon="2.75108">
        <ele>857.15</ele>
        <time>2022-07-15T06:56:31Z</time>
      </trkpt>
      <trkpt lat="44.23506" lon="2.75094">
        <ele>857.15</ele>
        <time>2022-07-15T06:56:42Z</time>
      </trkpt>
      <trkpt lat="44.23508" lon="2.75074">
        <ele>861</ele>
        <time>2022-07-15T06:56:52Z</time>
      </trkpt>
      <trkpt lat="44.23504" lon="2.75061">
        <ele>860.04</ele>
        <time>2022-07-15T06:57:01Z</time>
      </trkpt>
      <trkpt lat="44.23501" lon="2.75048">
        <ele>859.56</ele>
        <time>2022-07-15T06:57:08Z</time>
      </trkpt>
      <trkpt lat="44.235" lon="2.75033">
        <ele>859.56</ele>
        <time>2022-07-15T06:57:16Z</time>
      </trkpt>
      <trkpt lat="44.23497" lon="2.75014">
        <ele>863.4</ele>
        <time>2022-07-15T06:57:24Z</time>
      </trkpt>
      <trkpt lat="44.23497" lon="2.75">
        <ele>862.44</ele>
        <time>2022-07-15T06:57:32Z</time>
      </trkpt>
      <trkpt lat="44.23496" lon="2.74985">
        <ele>860.52</ele>
        <time>2022-07-15T06:57:41Z</time>
      </trkpt>
      <trkpt lat="44.23496" lon="2.7497">
        <ele>859.56</ele>
        <time>2022-07-15T06:57:49Z</time>
      </trkpt>
      <trkpt lat="44.23497" lon="2.74956">
        <ele>857.15</ele>
        <time>2022-07-15T06:57:58Z</time>
      </trkpt>
      <trkpt lat="44.23498" lon="2.74941">
        <ele>857.15</ele>
        <time>2022-07-15T06:58:05Z</time>
      </trkpt>
      <trkpt lat="44.23498" lon="2.74926">
        <ele>856.67</ele>
        <time>2022-07-15T06:58:12Z</time>
      </trkpt>
      <trkpt lat="44.23498" lon="2.7491">
        <ele>857.15</ele>
        <time>2022-07-15T06:58:20Z</time>
      </trkpt>
      <trkpt lat="44.235" lon="2.74895">
        <ele>856.19</ele>
        <time>2022-07-15T06:58:28Z</time>
      </trkpt>
      <trkpt lat="44.23501" lon="2.74876">
        <ele>856.67</ele>
        <time>2022-07-15T06:58:36Z</time>
      </trkpt>
      <trkpt lat="44.23502" lon="2.74859">
        <ele>856.67</ele>
        <time>2022-07-15T06:58:45Z</time>
      </trkpt>
      <trkpt lat="44.23502" lon="2.74845">
        <ele>854.75</ele>
        <time>2022-07-15T06:58:53Z</time>
      </trkpt>
      <trkpt lat="44.23503" lon="2.74829">
        <ele>854.27</ele>
        <time>2022-07-15T06:59:01Z</time>
      </trkpt>
      <trkpt lat="44.23503" lon="2.7481">
        <ele>855.23</ele>
        <time>2022-07-15T06:59:09Z</time>
      </trkpt>
      <trkpt lat="44.23503" lon="2.74788">
        <ele>857.15</ele>
        <time>2022-07-15T06:59:19Z</time>
      </trkpt>
      <trkpt lat="44.23504" lon="2.74771">
        <ele>855.71</ele>
        <time>2022-07-15T06:59:28Z</time>
      </trkpt>
      <trkpt lat="44.23508" lon="2.74754">
        <ele>853.31</ele>
        <time>2022-07-15T06:59:37Z</time>
      </trkpt>
      <trkpt lat="44.23511" lon="2.74738">
        <ele>850.42</ele>
        <time>2022-07-15T06:59:46Z</time>
      </trkpt>
      <trkpt lat="44.23514" lon="2.74721">
        <ele>849.46</ele>
        <time>2022-07-15T06:59:55Z</time>
      </trkpt>
      <trkpt lat="44.23517" lon="2.74703">
        <ele>849.46</ele>
        <time>2022-07-15T07:00:04Z</time>
      </trkpt>
      <trkpt lat="44.2352" lon="2.74685">
        <ele>849.46</ele>
        <time>2022-07-15T07:00:13Z</time>
      </trkpt>
      <trkpt lat="44.23523" lon="2.74664">
        <ele>849.46</ele>
        <time>2022-07-15T07:00:23Z</time>
      </trkpt>
      <trkpt lat="44.23527" lon="2.74645">
        <ele>847.54</ele>
        <time>2022-07-15T07:00:33Z</time>
      </trkpt>
      <trkpt lat="44.23532" lon="2.74629">
        <ele>844.66</ele>
        <time>2022-07-15T07:00:43Z</time>
      </trkpt>
      <trkpt lat="44.23536" lon="2.7461">
        <ele>844.66</ele>
        <time>2022-07-15T07:00:51Z</time>
      </trkpt>
      <trkpt lat="44.23539" lon="2.74593">
        <ele>847.06</ele>
        <time>2022-07-15T07:00:59Z</time>
      </trkpt>
      <trkpt lat="44.23541" lon="2.74575">
        <ele>849.94</ele>
        <time>2022-07-15T07:01:07Z</time>
      </trkpt>
      <trkpt lat="44.23545" lon="2.74557">
        <ele>850.42</ele>
        <time>2022-07-15T07:01:16Z</time>
      </trkpt>
      <trkpt lat="44.23549" lon="2.74539">
        <ele>848.5</ele>
        <time>2022-07-15T07:01:26Z</time>
      </trkpt>
      <trkpt lat="44.23552" lon="2.74524">
        <ele>848.02</ele>
        <time>2022-07-15T07:01:34Z</time>
      </trkpt>
      <trkpt lat="44.23552" lon="2.74497">
        <ele>855.23</ele>
        <time>2022-07-15T07:01:41Z</time>
      </trkpt>
      <trkpt lat="44.23556" lon="2.7448">
        <ele>858.59</ele>
        <time>2022-07-15T07:01:48Z</time>
      </trkpt>
      <trkpt lat="44.23557" lon="2.74462">
        <ele>861.96</ele>
        <time>2022-07-15T07:01:55Z</time>
      </trkpt>
      <trkpt lat="44.2356" lon="2.74449">
        <ele>863.4</ele>
        <time>2022-07-15T07:02:01Z</time>
      </trkpt>
      <trkpt lat="44.23562" lon="2.74435">
        <ele>863.88</ele>
        <time>2022-07-15T07:02:07Z</time>
      </trkpt>
      <trkpt lat="44.23564" lon="2.74423">
        <ele>863.88</ele>
        <time>2022-07-15T07:02:13Z</time>
      </trkpt>
      <trkpt lat="44.23568" lon="2.74411">
        <ele>864.36</ele>
        <time>2022-07-15T07:02:19Z</time>
      </trkpt>
      <trkpt lat="44.23571" lon="2.74397">
        <ele>864.36</ele>
        <time>2022-07-15T07:02:26Z</time>
      </trkpt>
      <trkpt lat="44.23573" lon="2.74385">
        <ele>863.88</ele>
        <time>2022-07-15T07:02:32Z</time>
      </trkpt>
      <trkpt lat="44.23575" lon="2.7437">
        <ele>863.88</ele>
        <time>2022-07-15T07:02:39Z</time>
      </trkpt>
      <trkpt lat="44.23576" lon="2.74356">
        <ele>863.4</ele>
        <time>2022-07-15T07:02:46Z</time>
      </trkpt>
      <trkpt lat="44.23576" lon="2.74342">
        <ele>861.96</ele>
        <time>2022-07-15T07:02:53Z</time>
      </trkpt>
      <trkpt lat="44.23576" lon="2.74328">
        <ele>862.44</ele>
        <time>2022-07-15T07:02:59Z</time>
      </trkpt>
      <trkpt lat="44.23574" lon="2.74314">
        <ele>862.92</ele>
        <time>2022-07-15T07:03:05Z</time>
      </trkpt>
      <trkpt lat="44.23572" lon="2.74298">
        <ele>862.92</ele>
        <time>2022-07-15T07:03:12Z</time>
      </trkpt>
      <trkpt lat="44.2357" lon="2.74285">
        <ele>863.4</ele>
        <time>2022-07-15T07:03:18Z</time>
      </trkpt>
      <trkpt lat="44.23567" lon="2.74271">
        <ele>863.88</ele>
        <time>2022-07-15T07:03:24Z</time>
      </trkpt>
      <trkpt lat="44.23564" lon="2.74257">
        <ele>863.88</ele>
        <time>2022-07-15T07:03:31Z</time>
      </trkpt>
      <trkpt lat="44.23561" lon="2.74242">
        <ele>864.84</ele>
        <time>2022-07-15T07:03:38Z</time>
      </trkpt>
      <trkpt lat="44.23557" lon="2.7423">
        <ele>865.32</ele>
        <time>2022-07-15T07:03:44Z</time>
      </trkpt>
      <trkpt lat="44.23555" lon="2.74217">
        <ele>865.8</ele>
        <time>2022-07-15T07:03:50Z</time>
      </trkpt>
      <trkpt lat="44.23551" lon="2.74203">
        <ele>865.8</ele>
        <time>2022-07-15T07:03:57Z</time>
      </trkpt>
      <trkpt lat="44.23549" lon="2.7419">
        <ele>866.77</ele>
        <time>2022-07-15T07:04:03Z</time>
      </trkpt>
      <trkpt lat="44.23546" lon="2.74177">
        <ele>868.21</ele>
        <time>2022-07-15T07:04:09Z</time>
      </trkpt>
      <trkpt lat="44.23544" lon="2.74164">
        <ele>868.69</ele>
        <time>2022-07-15T07:04:15Z</time>
      </trkpt>
      <trkpt lat="44.23541" lon="2.7415">
        <ele>868.69</ele>
        <time>2022-07-15T07:04:22Z</time>
      </trkpt>
      <trkpt lat="44.23539" lon="2.74137">
        <ele>868.69</ele>
        <time>2022-07-15T07:04:28Z</time>
      </trkpt>
      <trkpt lat="44.23538" lon="2.74123">
        <ele>868.69</ele>
        <time>2022-07-15T07:04:35Z</time>
      </trkpt>
      <trkpt lat="44.23536" lon="2.74109">
        <ele>868.21</ele>
        <time>2022-07-15T07:04:42Z</time>
      </trkpt>
      <trkpt lat="44.23534" lon="2.74097">
        <ele>868.21</ele>
        <time>2022-07-15T07:04:48Z</time>
      </trkpt>
      <trkpt lat="44.23533" lon="2.74084">
        <ele>868.21</ele>
        <time>2022-07-15T07:04:54Z</time>
      </trkpt>
      <trkpt lat="44.23532" lon="2.74071">
        <ele>868.69</ele>
        <time>2022-07-15T07:05:00Z</time>
      </trkpt>
      <trkpt lat="44.23531" lon="2.74058">
        <ele>868.69</ele>
        <time>2022-07-15T07:05:06Z</time>
      </trkpt>
      <trkpt lat="44.2353" lon="2.74045">
        <ele>868.21</ele>
        <time>2022-07-15T07:05:12Z</time>
      </trkpt>
      <trkpt lat="44.2353" lon="2.74032">
        <ele>867.73</ele>
        <time>2022-07-15T07:05:18Z</time>
      </trkpt>
      <trkpt lat="44.23529" lon="2.74017">
        <ele>867.25</ele>
        <time>2022-07-15T07:05:25Z</time>
      </trkpt>
      <trkpt lat="44.2353" lon="2.74004">
        <ele>866.77</ele>
        <time>2022-07-15T07:05:31Z</time>
      </trkpt>
      <trkpt lat="44.23528" lon="2.7399">
        <ele>865.8</ele>
        <time>2022-07-15T07:05:38Z</time>
      </trkpt>
      <trkpt lat="44.23527" lon="2.73975">
        <ele>863.88</ele>
        <time>2022-07-15T07:05:46Z</time>
      </trkpt>
      <trkpt lat="44.23522" lon="2.73962">
        <ele>862.44</ele>
        <time>2022-07-15T07:05:53Z</time>
      </trkpt>
      <trkpt lat="44.23519" lon="2.73948">
        <ele>861.96</ele>
        <time>2022-07-15T07:06:00Z</time>
      </trkpt>
      <trkpt lat="44.23516" lon="2.73934">
        <ele>861.48</ele>
        <time>2022-07-15T07:06:07Z</time>
      </trkpt>
      <trkpt lat="44.23514" lon="2.7392">
        <ele>861.48</ele>
        <time>2022-07-15T07:06:14Z</time>
      </trkpt>
      <trkpt lat="44.23512" lon="2.73906">
        <ele>861</ele>
        <time>2022-07-15T07:06:21Z</time>
      </trkpt>
      <trkpt lat="44.23509" lon="2.73891">
        <ele>861</ele>
        <time>2022-07-15T07:06:28Z</time>
      </trkpt>
      <trkpt lat="44.23505" lon="2.73877">
        <ele>860.52</ele>
        <time>2022-07-15T07:06:35Z</time>
      </trkpt>
      <trkpt lat="44.23501" lon="2.73863">
        <ele>860.04</ele>
        <time>2022-07-15T07:06:42Z</time>
      </trkpt>
      <trkpt lat="44.23497" lon="2.73851">
        <ele>859.56</ele>
        <time>2022-07-15T07:06:48Z</time>
      </trkpt>
      <trkpt lat="44.23492" lon="2.73838">
        <ele>858.59</ele>
        <time>2022-07-15T07:06:55Z</time>
      </trkpt>
      <trkpt lat="44.23488" lon="2.73825">
        <ele>857.63</ele>
        <time>2022-07-15T07:07:02Z</time>
      </trkpt>
      <trkpt lat="44.23483" lon="2.73812">
        <ele>858.11</ele>
        <time>2022-07-15T07:07:09Z</time>
      </trkpt>
      <trkpt lat="44.23478" lon="2.73799">
        <ele>858.59</ele>
        <time>2022-07-15T07:07:17Z</time>
      </trkpt>
      <trkpt lat="44.2347" lon="2.73787">
        <ele>859.08</ele>
        <time>2022-07-15T07:07:24Z</time>
      </trkpt>
      <trkpt lat="44.23462" lon="2.73777">
        <ele>859.56</ele>
        <time>2022-07-15T07:07:31Z</time>
      </trkpt>
      <trkpt lat="44.23453" lon="2.73768">
        <ele>859.56</ele>
        <time>2022-07-15T07:07:38Z</time>
      </trkpt>
      <trkpt lat="44.23444" lon="2.73761">
        <ele>859.08</ele>
        <time>2022-07-15T07:07:45Z</time>
      </trkpt>
      <trkpt lat="44.23434" lon="2.73755">
        <ele>857.63</ele>
        <time>2022-07-15T07:07:53Z</time>
      </trkpt>
      <trkpt lat="44.23423" lon="2.73751">
        <ele>856.67</ele>
        <time>2022-07-15T07:08:00Z</time>
      </trkpt>
      <trkpt lat="44.23413" lon="2.73749">
        <ele>856.19</ele>
        <time>2022-07-15T07:08:07Z</time>
      </trkpt>
      <trkpt lat="44.23403" lon="2.73746">
        <ele>855.71</ele>
        <time>2022-07-15T07:08:14Z</time>
      </trkpt>
      <trkpt lat="44.23393" lon="2.73743">
        <ele>855.23</ele>
        <time>2022-07-15T07:08:21Z</time>
      </trkpt>
      <trkpt lat="44.23383" lon="2.73741">
        <ele>855.23</ele>
        <time>2022-07-15T07:08:28Z</time>
      </trkpt>
      <trkpt lat="44.23372" lon="2.73738">
        <ele>855.23</ele>
        <time>2022-07-15T07:08:35Z</time>
      </trkpt>
      <trkpt lat="44.23362" lon="2.73733">
        <ele>856.19</ele>
        <time>2022-07-15T07:08:42Z</time>
      </trkpt>
      <trkpt lat="44.23354" lon="2.73726">
        <ele>857.15</ele>
        <time>2022-07-15T07:08:48Z</time>
      </trkpt>
      <trkpt lat="44.23347" lon="2.73717">
        <ele>857.15</ele>
        <time>2022-07-15T07:08:54Z</time>
      </trkpt>
      <trkpt lat="44.23339" lon="2.73708">
        <ele>857.15</ele>
        <time>2022-07-15T07:09:01Z</time>
      </trkpt>
      <trkpt lat="44.23332" lon="2.73699">
        <ele>856.67</ele>
        <time>2022-07-15T07:09:07Z</time>
      </trkpt>
      <trkpt lat="44.23324" lon="2.73691">
        <ele>856.19</ele>
        <time>2022-07-15T07:09:14Z</time>
      </trkpt>
      <trkpt lat="44.23316" lon="2.73683">
        <ele>855.23</ele>
        <time>2022-07-15T07:09:21Z</time>
      </trkpt>
      <trkpt lat="44.23308" lon="2.73674">
        <ele>854.75</ele>
        <time>2022-07-15T07:09:28Z</time>
      </trkpt>
      <trkpt lat="44.23299" lon="2.73666">
        <ele>853.79</ele>
        <time>2022-07-15T07:09:35Z</time>
      </trkpt>
      <trkpt lat="44.23291" lon="2.73658">
        <ele>852.83</ele>
        <time>2022-07-15T07:09:42Z</time>
      </trkpt>
      <trkpt lat="44.23284" lon="2.73651">
        <ele>852.35</ele>
        <time>2022-07-15T07:09:48Z</time>
      </trkpt>
      <trkpt lat="44.23275" lon="2.73642">
        <ele>851.87</ele>
        <time>2022-07-15T07:09:55Z</time>
      </trkpt>
      <trkpt lat="44.23267" lon="2.73635">
        <ele>851.87</ele>
        <time>2022-07-15T07:10:01Z</time>
      </trkpt>
      <trkpt lat="44.23258" lon="2.73626">
        <ele>851.38</ele>
        <time>2022-07-15T07:10:08Z</time>
      </trkpt>
      <trkpt lat="44.2325" lon="2.73617">
        <ele>851.38</ele>
        <time>2022-07-15T07:10:15Z</time>
      </trkpt>
      <trkpt lat="44.23241" lon="2.73609">
        <ele>851.38</ele>
        <time>2022-07-15T07:10:22Z</time>
      </trkpt>
      <trkpt lat="44.23233" lon="2.736">
        <ele>851.38</ele>
        <time>2022-07-15T07:10:29Z</time>
      </trkpt>
      <trkpt lat="44.23225" lon="2.7359">
        <ele>851.38</ele>
        <time>2022-07-15T07:10:36Z</time>
      </trkpt>
      <trkpt lat="44.23218" lon="2.73581">
        <ele>850.9</ele>
        <time>2022-07-15T07:10:42Z</time>
      </trkpt>
      <trkpt lat="44.23211" lon="2.73571">
        <ele>851.87</ele>
        <time>2022-07-15T07:10:49Z</time>
      </trkpt>
      <trkpt lat="44.23204" lon="2.73561">
        <ele>851.38</ele>
        <time>2022-07-15T07:10:56Z</time>
      </trkpt>
      <trkpt lat="44.23197" lon="2.73549">
        <ele>851.87</ele>
        <time>2022-07-15T07:11:03Z</time>
      </trkpt>
      <trkpt lat="44.23191" lon="2.73539">
        <ele>851.87</ele>
        <time>2022-07-15T07:11:10Z</time>
      </trkpt>
      <trkpt lat="44.23185" lon="2.73528">
        <ele>851.38</ele>
        <time>2022-07-15T07:11:17Z</time>
      </trkpt>
      <trkpt lat="44.23178" lon="2.73518">
        <ele>851.38</ele>
        <time>2022-07-15T07:11:24Z</time>
      </trkpt>
      <trkpt lat="44.2317" lon="2.73507">
        <ele>851.87</ele>
        <time>2022-07-15T07:11:31Z</time>
      </trkpt>
      <trkpt lat="44.23163" lon="2.73499">
        <ele>851.38</ele>
        <time>2022-07-15T07:11:37Z</time>
      </trkpt>
      <trkpt lat="44.23155" lon="2.73489">
        <ele>851.38</ele>
        <time>2022-07-15T07:11:44Z</time>
      </trkpt>
      <trkpt lat="44.23147" lon="2.73479">
        <ele>850.9</ele>
        <time>2022-07-15T07:11:51Z</time>
      </trkpt>
      <trkpt lat="44.23139" lon="2.73469">
        <ele>850.42</ele>
        <time>2022-07-15T07:11:58Z</time>
      </trkpt>
      <trkpt lat="44.23131" lon="2.73461">
        <ele>849.94</ele>
        <time>2022-07-15T07:12:05Z</time>
      </trkpt>
      <trkpt lat="44.23123" lon="2.73453">
        <ele>849.46</ele>
        <time>2022-07-15T07:12:12Z</time>
      </trkpt>
      <trkpt lat="44.23114" lon="2.73446">
        <ele>848.5</ele>
        <time>2022-07-15T07:12:19Z</time>
      </trkpt>
      <trkpt lat="44.23107" lon="2.73438">
        <ele>847.54</ele>
        <time>2022-07-15T07:12:26Z</time>
      </trkpt>
      <trkpt lat="44.23097" lon="2.7343">
        <ele>845.62</ele>
        <time>2022-07-15T07:12:34Z</time>
      </trkpt>
      <trkpt lat="44.23089" lon="2.73424">
        <ele>845.14</ele>
        <time>2022-07-15T07:12:41Z</time>
      </trkpt>
      <trkpt lat="44.2308" lon="2.73418">
        <ele>844.18</ele>
        <time>2022-07-15T07:12:48Z</time>
      </trkpt>
      <trkpt lat="44.23071" lon="2.73411">
        <ele>842.25</ele>
        <time>2022-07-15T07:12:56Z</time>
      </trkpt>
      <trkpt lat="44.23062" lon="2.73402">
        <ele>839.85</ele>
        <time>2022-07-15T07:13:05Z</time>
      </trkpt>
      <trkpt lat="44.23052" lon="2.73394">
        <ele>838.41</ele>
        <time>2022-07-15T07:13:15Z</time>
      </trkpt>
      <trkpt lat="44.2304" lon="2.73386">
        <ele>836.96</ele>
        <time>2022-07-15T07:13:23Z</time>
      </trkpt>
      <trkpt lat="44.23029" lon="2.73377">
        <ele>836</ele>
        <time>2022-07-15T07:13:31Z</time>
      </trkpt>
      <trkpt lat="44.23019" lon="2.7337">
        <ele>834.08</ele>
        <time>2022-07-15T07:13:39Z</time>
      </trkpt>
      <trkpt lat="44.23009" lon="2.73361">
        <ele>833.12</ele>
        <time>2022-07-15T07:13:48Z</time>
      </trkpt>
      <trkpt lat="44.22998" lon="2.73352">
        <ele>832.16</ele>
        <time>2022-07-15T07:13:57Z</time>
      </trkpt>
      <trkpt lat="44.22987" lon="2.73345">
        <ele>832.64</ele>
        <time>2022-07-15T07:14:05Z</time>
      </trkpt>
      <trkpt lat="44.22976" lon="2.73337">
        <ele>832.64</ele>
        <time>2022-07-15T07:14:12Z</time>
      </trkpt>
      <trkpt lat="44.22971" lon="2.73324">
        <ele>833.6</ele>
        <time>2022-07-15T07:14:19Z</time>
      </trkpt>
      <trkpt lat="44.2297" lon="2.7331">
        <ele>832.64</ele>
        <time>2022-07-15T07:14:26Z</time>
      </trkpt>
      <trkpt lat="44.2297" lon="2.73296">
        <ele>831.2</ele>
        <time>2022-07-15T07:14:34Z</time>
      </trkpt>
      <trkpt lat="44.2297" lon="2.73281">
        <ele>829.76</ele>
        <time>2022-07-15T07:14:43Z</time>
      </trkpt>
      <trkpt lat="44.2297" lon="2.73266">
        <ele>826.87</ele>
        <time>2022-07-15T07:14:52Z</time>
      </trkpt>
      <trkpt lat="44.22969" lon="2.73249">
        <ele>825.43</ele>
        <time>2022-07-15T07:15:00Z</time>
      </trkpt>
      <trkpt lat="44.22968" lon="2.73234">
        <ele>825.43</ele>
        <time>2022-07-15T07:15:07Z</time>
      </trkpt>
      <trkpt lat="44.22968" lon="2.73218">
        <ele>825.91</ele>
        <time>2022-07-15T07:15:14Z</time>
      </trkpt>
      <trkpt lat="44.22967" lon="2.73202">
        <ele>826.39</ele>
        <time>2022-07-15T07:15:21Z</time>
      </trkpt>
      <trkpt lat="44.22966" lon="2.73187">
        <ele>825.91</ele>
        <time>2022-07-15T07:15:29Z</time>
      </trkpt>
      <trkpt lat="44.22966" lon="2.73173">
        <ele>825.43</ele>
        <time>2022-07-15T07:15:36Z</time>
      </trkpt>
      <trkpt lat="44.22965" lon="2.73158">
        <ele>824.95</ele>
        <time>2022-07-15T07:15:43Z</time>
      </trkpt>
      <trkpt lat="44.22965" lon="2.73142">
        <ele>823.03</ele>
        <time>2022-07-15T07:15:51Z</time>
      </trkpt>
      <trkpt lat="44.22965" lon="2.73127">
        <ele>821.58</ele>
        <time>2022-07-15T07:15:58Z</time>
      </trkpt>
      <trkpt lat="44.22964" lon="2.7311">
        <ele>821.1</ele>
        <time>2022-07-15T07:16:06Z</time>
      </trkpt>
      <trkpt lat="44.22964" lon="2.73094">
        <ele>820.62</ele>
        <time>2022-07-15T07:16:14Z</time>
      </trkpt>
      <trkpt lat="44.22963" lon="2.7308">
        <ele>821.1</ele>
        <time>2022-07-15T07:16:21Z</time>
      </trkpt>
      <trkpt lat="44.22962" lon="2.73065">
        <ele>821.58</ele>
        <time>2022-07-15T07:16:29Z</time>
      </trkpt>
      <trkpt lat="44.22961" lon="2.73049">
        <ele>821.1</ele>
        <time>2022-07-15T07:16:37Z</time>
      </trkpt>
      <trkpt lat="44.22959" lon="2.73033">
        <ele>821.1</ele>
        <time>2022-07-15T07:16:45Z</time>
      </trkpt>
      <trkpt lat="44.22955" lon="2.73018">
        <ele>819.18</ele>
        <time>2022-07-15T07:16:54Z</time>
      </trkpt>
      <trkpt lat="44.22952" lon="2.72996">
        <ele>819.66</ele>
        <time>2022-07-15T07:17:04Z</time>
      </trkpt>
      <trkpt lat="44.22949" lon="2.7298">
        <ele>821.1</ele>
        <time>2022-07-15T07:17:11Z</time>
      </trkpt>
      <trkpt lat="44.22946" lon="2.72965">
        <ele>820.62</ele>
        <time>2022-07-15T07:17:18Z</time>
      </trkpt>
      <trkpt lat="44.22944" lon="2.7295">
        <ele>820.14</ele>
        <time>2022-07-15T07:17:26Z</time>
      </trkpt>
      <trkpt lat="44.22943" lon="2.72933">
        <ele>819.18</ele>
        <time>2022-07-15T07:17:35Z</time>
      </trkpt>
      <trkpt lat="44.2294" lon="2.72917">
        <ele>819.18</ele>
        <time>2022-07-15T07:17:43Z</time>
      </trkpt>
      <trkpt lat="44.22937" lon="2.72901">
        <ele>819.18</ele>
        <time>2022-07-15T07:17:51Z</time>
      </trkpt>
      <trkpt lat="44.22934" lon="2.72885">
        <ele>819.18</ele>
        <time>2022-07-15T07:17:59Z</time>
      </trkpt>
      <trkpt lat="44.22931" lon="2.7287">
        <ele>819.18</ele>
        <time>2022-07-15T07:18:06Z</time>
      </trkpt>
      <trkpt lat="44.22928" lon="2.72855">
        <ele>818.7</ele>
        <time>2022-07-15T07:18:14Z</time>
      </trkpt>
      <trkpt lat="44.22924" lon="2.72839">
        <ele>818.22</ele>
        <time>2022-07-15T07:18:21Z</time>
      </trkpt>
      <trkpt lat="44.22923" lon="2.72825">
        <ele>817.26</ele>
        <time>2022-07-15T07:18:28Z</time>
      </trkpt>
      <trkpt lat="44.22921" lon="2.7281">
        <ele>816.78</ele>
        <time>2022-07-15T07:18:35Z</time>
      </trkpt>
      <trkpt lat="44.2292" lon="2.72796">
        <ele>815.82</ele>
        <time>2022-07-15T07:18:42Z</time>
      </trkpt>
      <trkpt lat="44.22918" lon="2.72781">
        <ele>815.82</ele>
        <time>2022-07-15T07:18:49Z</time>
      </trkpt>
      <trkpt lat="44.22917" lon="2.72767">
        <ele>815.34</ele>
        <time>2022-07-15T07:18:56Z</time>
      </trkpt>
      <trkpt lat="44.22915" lon="2.72753">
        <ele>814.85</ele>
        <time>2022-07-15T07:19:03Z</time>
      </trkpt>
      <trkpt lat="44.22914" lon="2.72739">
        <ele>813.41</ele>
        <time>2022-07-15T07:19:11Z</time>
      </trkpt>
      <trkpt lat="44.22913" lon="2.72723">
        <ele>811.49</ele>
        <time>2022-07-15T07:19:19Z</time>
      </trkpt>
      <trkpt lat="44.22912" lon="2.72706">
        <ele>810.53</ele>
        <time>2022-07-15T07:19:27Z</time>
      </trkpt>
      <trkpt lat="44.22909" lon="2.72691">
        <ele>810.05</ele>
        <time>2022-07-15T07:19:34Z</time>
      </trkpt>
      <trkpt lat="44.22905" lon="2.72676">
        <ele>810.53</ele>
        <time>2022-07-15T07:19:41Z</time>
      </trkpt>
      <trkpt lat="44.229" lon="2.72661">
        <ele>811.97</ele>
        <time>2022-07-15T07:19:48Z</time>
      </trkpt>
      <trkpt lat="44.22895" lon="2.72647">
        <ele>813.89</ele>
        <time>2022-07-15T07:19:55Z</time>
      </trkpt>
      <trkpt lat="44.22892" lon="2.72632">
        <ele>815.82</ele>
        <time>2022-07-15T07:20:02Z</time>
      </trkpt>
      <trkpt lat="44.2289" lon="2.72617">
        <ele>816.78</ele>
        <time>2022-07-15T07:20:09Z</time>
      </trkpt>
      <trkpt lat="44.22892" lon="2.72603">
        <ele>818.22</ele>
        <time>2022-07-15T07:20:15Z</time>
      </trkpt>
      <trkpt lat="44.22897" lon="2.72588">
        <ele>820.62</ele>
        <time>2022-07-15T07:20:23Z</time>
      </trkpt>
      <trkpt lat="44.22905" lon="2.72579">
        <ele>823.99</ele>
        <time>2022-07-15T07:20:30Z</time>
      </trkpt>
      <trkpt lat="44.22915" lon="2.72569">
        <ele>825.43</ele>
        <time>2022-07-15T07:20:39Z</time>
      </trkpt>
      <trkpt lat="44.22925" lon="2.7256">
        <ele>825.91</ele>
        <time>2022-07-15T07:20:47Z</time>
      </trkpt>
      <trkpt lat="44.22933" lon="2.7255">
        <ele>825.43</ele>
        <time>2022-07-15T07:20:55Z</time>
      </trkpt>
      <trkpt lat="44.22939" lon="2.72537">
        <ele>824.47</ele>
        <time>2022-07-15T07:21:04Z</time>
      </trkpt>
      <trkpt lat="44.22942" lon="2.72523">
        <ele>823.99</ele>
        <time>2022-07-15T07:21:11Z</time>
      </trkpt>
      <trkpt lat="44.22944" lon="2.72509">
        <ele>823.99</ele>
        <time>2022-07-15T07:21:18Z</time>
      </trkpt>
      <trkpt lat="44.22944" lon="2.72493">
        <ele>825.43</ele>
        <time>2022-07-15T07:21:25Z</time>
      </trkpt>
      <trkpt lat="44.22944" lon="2.72476">
        <ele>825.91</ele>
        <time>2022-07-15T07:21:33Z</time>
      </trkpt>
      <trkpt lat="44.22942" lon="2.72462">
        <ele>826.87</ele>
        <time>2022-07-15T07:21:40Z</time>
      </trkpt>
      <trkpt lat="44.22938" lon="2.72448">
        <ele>827.35</ele>
        <time>2022-07-15T07:21:47Z</time>
      </trkpt>
      <trkpt lat="44.22933" lon="2.72435">
        <ele>828.31</ele>
        <time>2022-07-15T07:21:54Z</time>
      </trkpt>
      <trkpt lat="44.22929" lon="2.72421">
        <ele>828.79</ele>
        <time>2022-07-15T07:22:00Z</time>
      </trkpt>
      <trkpt lat="44.22925" lon="2.72408">
        <ele>828.79</ele>
        <time>2022-07-15T07:22:06Z</time>
      </trkpt>
      <trkpt lat="44.22921" lon="2.72395">
        <ele>828.79</ele>
        <time>2022-07-15T07:22:13Z</time>
      </trkpt>
      <trkpt lat="44.22916" lon="2.7238">
        <ele>826.39</ele>
        <time>2022-07-15T07:22:22Z</time>
      </trkpt>
      <trkpt lat="44.22912" lon="2.72364">
        <ele>821.1</ele>
        <time>2022-07-15T07:22:32Z</time>
      </trkpt>
      <trkpt lat="44.22907" lon="2.72347">
        <ele>814.85</ele>
        <time>2022-07-15T07:22:42Z</time>
      </trkpt>
      <trkpt lat="44.22899" lon="2.72328">
        <ele>809.57</ele>
        <time>2022-07-15T07:22:54Z</time>
      </trkpt>
      <trkpt lat="44.22893" lon="2.72307">
        <ele>806.2</ele>
        <time>2022-07-15T07:23:04Z</time>
      </trkpt>
      <trkpt lat="44.22887" lon="2.72285">
        <ele>805.24</ele>
        <time>2022-07-15T07:23:14Z</time>
      </trkpt>
      <trkpt lat="44.22881" lon="2.72265">
        <ele>806.2</ele>
        <time>2022-07-15T07:23:23Z</time>
      </trkpt>
      <trkpt lat="44.22874" lon="2.72247">
        <ele>808.13</ele>
        <time>2022-07-15T07:23:32Z</time>
      </trkpt>
      <trkpt lat="44.22868" lon="2.72232">
        <ele>810.05</ele>
        <time>2022-07-15T07:23:41Z</time>
      </trkpt>
      <trkpt lat="44.22861" lon="2.72216">
        <ele>811.49</ele>
        <time>2022-07-15T07:23:49Z</time>
      </trkpt>
      <trkpt lat="44.22853" lon="2.722">
        <ele>811.97</ele>
        <time>2022-07-15T07:23:57Z</time>
      </trkpt>
      <trkpt lat="44.22847" lon="2.72185">
        <ele>813.41</ele>
        <time>2022-07-15T07:24:04Z</time>
      </trkpt>
      <trkpt lat="44.22841" lon="2.72171">
        <ele>814.37</ele>
        <time>2022-07-15T07:24:11Z</time>
      </trkpt>
      <trkpt lat="44.22835" lon="2.72157">
        <ele>813.89</ele>
        <time>2022-07-15T07:24:19Z</time>
      </trkpt>
      <trkpt lat="44.22828" lon="2.72141">
        <ele>813.41</ele>
        <time>2022-07-15T07:24:27Z</time>
      </trkpt>
      <trkpt lat="44.22822" lon="2.72126">
        <ele>812.93</ele>
        <time>2022-07-15T07:24:35Z</time>
      </trkpt>
      <trkpt lat="44.22815" lon="2.7211">
        <ele>811.49</ele>
        <time>2022-07-15T07:24:44Z</time>
      </trkpt>
      <trkpt lat="44.2281" lon="2.72093">
        <ele>809.09</ele>
        <time>2022-07-15T07:24:53Z</time>
      </trkpt>
      <trkpt lat="44.22804" lon="2.72052">
        <ele>797.07</ele>
        <time>2022-07-15T07:25:18Z</time>
      </trkpt>
      <trkpt lat="44.228" lon="2.72028">
        <ele>799.47</ele>
        <time>2022-07-15T07:25:26Z</time>
      </trkpt>
      <trkpt lat="44.22796" lon="2.72012">
        <ele>802.36</ele>
        <time>2022-07-15T07:25:33Z</time>
      </trkpt>
      <trkpt lat="44.22792" lon="2.72">
        <ele>802.84</ele>
        <time>2022-07-15T07:25:40Z</time>
      </trkpt>
      <trkpt lat="44.22789" lon="2.71984">
        <ele>802.84</ele>
        <time>2022-07-15T07:25:48Z</time>
      </trkpt>
      <trkpt lat="44.22783" lon="2.71957">
        <ele>811.97</ele>
        <time>2022-07-15T07:26:02Z</time>
      </trkpt>
      <trkpt lat="44.22778" lon="2.71938">
        <ele>815.34</ele>
        <time>2022-07-15T07:26:16Z</time>
      </trkpt>
      <trkpt lat="44.22774" lon="2.71918">
        <ele>817.74</ele>
        <time>2022-07-15T07:26:24Z</time>
      </trkpt>
      <trkpt lat="44.22771" lon="2.719">
        <ele>821.58</ele>
        <time>2022-07-15T07:26:32Z</time>
      </trkpt>
      <trkpt lat="44.22769" lon="2.71875">
        <ele>831.68</ele>
        <time>2022-07-15T07:30:10Z</time>
      </trkpt>
      <trkpt lat="44.22769" lon="2.7186">
        <ele>831.68</ele>
        <time>2022-07-15T07:30:22Z</time>
      </trkpt>
      <trkpt lat="44.22769" lon="2.71844">
        <ele>831.68</ele>
        <time>2022-07-15T07:30:29Z</time>
      </trkpt>
      <trkpt lat="44.2277" lon="2.71829">
        <ele>831.68</ele>
        <time>2022-07-15T07:30:36Z</time>
      </trkpt>
      <trkpt lat="44.22771" lon="2.71815">
        <ele>831.68</ele>
        <time>2022-07-15T07:30:43Z</time>
      </trkpt>
      <trkpt lat="44.22771" lon="2.718">
        <ele>832.16</ele>
        <time>2022-07-15T07:30:50Z</time>
      </trkpt>
      <trkpt lat="44.22772" lon="2.71785">
        <ele>832.16</ele>
        <time>2022-07-15T07:30:57Z</time>
      </trkpt>
      <trkpt lat="44.22773" lon="2.7177">
        <ele>832.16</ele>
        <time>2022-07-15T07:31:04Z</time>
      </trkpt>
      <trkpt lat="44.22773" lon="2.71755">
        <ele>832.16</ele>
        <time>2022-07-15T07:31:11Z</time>
      </trkpt>
      <trkpt lat="44.22774" lon="2.71742">
        <ele>832.16</ele>
        <time>2022-07-15T07:31:17Z</time>
      </trkpt>
      <trkpt lat="44.22775" lon="2.71727">
        <ele>832.16</ele>
        <time>2022-07-15T07:31:24Z</time>
      </trkpt>
      <trkpt lat="44.22776" lon="2.71713">
        <ele>832.16</ele>
        <time>2022-07-15T07:31:31Z</time>
      </trkpt>
      <trkpt lat="44.22776" lon="2.71699">
        <ele>832.16</ele>
        <time>2022-07-15T07:31:38Z</time>
      </trkpt>
      <trkpt lat="44.22775" lon="2.71683">
        <ele>831.68</ele>
        <time>2022-07-15T07:31:45Z</time>
      </trkpt>
      <trkpt lat="44.22773" lon="2.71671">
        <ele>832.16</ele>
        <time>2022-07-15T07:31:51Z</time>
      </trkpt>
      <trkpt lat="44.22771" lon="2.71657">
        <ele>832.64</ele>
        <time>2022-07-15T07:31:58Z</time>
      </trkpt>
      <trkpt lat="44.22769" lon="2.71644">
        <ele>833.12</ele>
        <time>2022-07-15T07:32:04Z</time>
      </trkpt>
      <trkpt lat="44.22767" lon="2.71629">
        <ele>834.08</ele>
        <time>2022-07-15T07:32:11Z</time>
      </trkpt>
      <trkpt lat="44.22764" lon="2.71615">
        <ele>835.04</ele>
        <time>2022-07-15T07:32:18Z</time>
      </trkpt>
      <trkpt lat="44.22762" lon="2.716">
        <ele>835.52</ele>
        <time>2022-07-15T07:32:25Z</time>
      </trkpt>
      <trkpt lat="44.2276" lon="2.71586">
        <ele>835.52</ele>
        <time>2022-07-15T07:32:32Z</time>
      </trkpt>
      <trkpt lat="44.22757" lon="2.71571">
        <ele>836</ele>
        <time>2022-07-15T07:32:39Z</time>
      </trkpt>
      <trkpt lat="44.22755" lon="2.71556">
        <ele>836.48</ele>
        <time>2022-07-15T07:32:46Z</time>
      </trkpt>
      <trkpt lat="44.22752" lon="2.71542">
        <ele>836.96</ele>
        <time>2022-07-15T07:32:53Z</time>
      </trkpt>
      <trkpt lat="44.2275" lon="2.71527">
        <ele>837.45</ele>
        <time>2022-07-15T07:33:00Z</time>
      </trkpt>
      <trkpt lat="44.22747" lon="2.71514">
        <ele>837.93</ele>
        <time>2022-07-15T07:33:07Z</time>
      </trkpt>
      <trkpt lat="44.22747" lon="2.715">
        <ele>833.6</ele>
        <time>2022-07-15T07:33:17Z</time>
      </trkpt>
      <trkpt lat="44.22745" lon="2.71483">
        <ele>826.39</ele>
        <time>2022-07-15T07:33:27Z</time>
      </trkpt>
      <trkpt lat="44.22743" lon="2.71464">
        <ele>821.58</ele>
        <time>2022-07-15T07:33:37Z</time>
      </trkpt>
      <trkpt lat="44.22741" lon="2.71445">
        <ele>820.62</ele>
        <time>2022-07-15T07:33:46Z</time>
      </trkpt>
      <trkpt lat="44.22734" lon="2.71429">
        <ele>821.58</ele>
        <time>2022-07-15T07:33:54Z</time>
      </trkpt>
      <trkpt lat="44.22727" lon="2.71414">
        <ele>822.55</ele>
        <time>2022-07-15T07:34:01Z</time>
      </trkpt>
      <trkpt lat="44.22722" lon="2.714">
        <ele>823.99</ele>
        <time>2022-07-15T07:34:07Z</time>
      </trkpt>
      <trkpt lat="44.22717" lon="2.71384">
        <ele>826.39</ele>
        <time>2022-07-15T07:34:14Z</time>
      </trkpt>
      <trkpt lat="44.22712" lon="2.71371">
        <ele>828.31</ele>
        <time>2022-07-15T07:34:20Z</time>
      </trkpt>
      <trkpt lat="44.22707" lon="2.71357">
        <ele>830.72</ele>
        <time>2022-07-15T07:34:27Z</time>
      </trkpt>
      <trkpt lat="44.22703" lon="2.71344">
        <ele>832.16</ele>
        <time>2022-07-15T07:34:34Z</time>
      </trkpt>
      <trkpt lat="44.22698" lon="2.71332">
        <ele>832.16</ele>
        <time>2022-07-15T07:34:40Z</time>
      </trkpt>
      <trkpt lat="44.22694" lon="2.71319">
        <ele>832.64</ele>
        <time>2022-07-15T07:34:46Z</time>
      </trkpt>
      <trkpt lat="44.22691" lon="2.71306">
        <ele>832.64</ele>
        <time>2022-07-15T07:34:52Z</time>
      </trkpt>
      <trkpt lat="44.22687" lon="2.71294">
        <ele>832.64</ele>
        <time>2022-07-15T07:34:58Z</time>
      </trkpt>
      <trkpt lat="44.22682" lon="2.7128">
        <ele>833.12</ele>
        <time>2022-07-15T07:35:05Z</time>
      </trkpt>
      <trkpt lat="44.22678" lon="2.71268">
        <ele>833.12</ele>
        <time>2022-07-15T07:35:11Z</time>
      </trkpt>
      <trkpt lat="44.22674" lon="2.71254">
        <ele>833.12</ele>
        <time>2022-07-15T07:35:18Z</time>
      </trkpt>
      <trkpt lat="44.22669" lon="2.7124">
        <ele>833.6</ele>
        <time>2022-07-15T07:35:25Z</time>
      </trkpt>
      <trkpt lat="44.2266" lon="2.71238">
        <ele>834.08</ele>
        <time>2022-07-15T07:35:32Z</time>
      </trkpt>
      <trkpt lat="44.2265" lon="2.71242">
        <ele>835.04</ele>
        <time>2022-07-15T07:35:39Z</time>
      </trkpt>
      <trkpt lat="44.22642" lon="2.71247">
        <ele>835.52</ele>
        <time>2022-07-15T07:35:45Z</time>
      </trkpt>
      <trkpt lat="44.22633" lon="2.71252">
        <ele>835.52</ele>
        <time>2022-07-15T07:35:51Z</time>
      </trkpt>
      <trkpt lat="44.22623" lon="2.71257">
        <ele>836</ele>
        <time>2022-07-15T07:35:58Z</time>
      </trkpt>
      <trkpt lat="44.22615" lon="2.71261">
        <ele>836.48</ele>
        <time>2022-07-15T07:36:04Z</time>
      </trkpt>
      <trkpt lat="44.22605" lon="2.71266">
        <ele>836.48</ele>
        <time>2022-07-15T07:36:11Z</time>
      </trkpt>
      <trkpt lat="44.22596" lon="2.71271">
        <ele>836</ele>
        <time>2022-07-15T07:36:18Z</time>
      </trkpt>
      <trkpt lat="44.22587" lon="2.71275">
        <ele>835.52</ele>
        <time>2022-07-15T07:36:24Z</time>
      </trkpt>
      <trkpt lat="44.22578" lon="2.7128">
        <ele>835.52</ele>
        <time>2022-07-15T07:36:31Z</time>
      </trkpt>
      <trkpt lat="44.22568" lon="2.71284">
        <ele>836</ele>
        <time>2022-07-15T07:36:38Z</time>
      </trkpt>
      <trkpt lat="44.22558" lon="2.71289">
        <ele>836.96</ele>
        <time>2022-07-15T07:36:45Z</time>
      </trkpt>
      <trkpt lat="44.22549" lon="2.71293">
        <ele>836.48</ele>
        <time>2022-07-15T07:36:52Z</time>
      </trkpt>
      <trkpt lat="44.22539" lon="2.71298">
        <ele>836</ele>
        <time>2022-07-15T07:36:59Z</time>
      </trkpt>
      <trkpt lat="44.2253" lon="2.71302">
        <ele>835.52</ele>
        <time>2022-07-15T07:37:05Z</time>
      </trkpt>
      <trkpt lat="44.22521" lon="2.71307">
        <ele>835.04</ele>
        <time>2022-07-15T07:37:11Z</time>
      </trkpt>
      <trkpt lat="44.22511" lon="2.71312">
        <ele>834.56</ele>
        <time>2022-07-15T07:37:18Z</time>
      </trkpt>
      <trkpt lat="44.22502" lon="2.71318">
        <ele>833.6</ele>
        <time>2022-07-15T07:37:25Z</time>
      </trkpt>
      <trkpt lat="44.22493" lon="2.71322">
        <ele>833.6</ele>
        <time>2022-07-15T07:37:32Z</time>
      </trkpt>
      <trkpt lat="44.22483" lon="2.71326">
        <ele>833.6</ele>
        <time>2022-07-15T07:37:39Z</time>
      </trkpt>
      <trkpt lat="44.22473" lon="2.71332">
        <ele>834.08</ele>
        <time>2022-07-15T07:37:46Z</time>
      </trkpt>
      <trkpt lat="44.22464" lon="2.71336">
        <ele>834.08</ele>
        <time>2022-07-15T07:37:52Z</time>
      </trkpt>
      <trkpt lat="44.22455" lon="2.7134">
        <ele>833.6</ele>
        <time>2022-07-15T07:37:58Z</time>
      </trkpt>
      <trkpt lat="44.22446" lon="2.71345">
        <ele>833.6</ele>
        <time>2022-07-15T07:38:04Z</time>
      </trkpt>
      <trkpt lat="44.22436" lon="2.7135">
        <ele>832.64</ele>
        <time>2022-07-15T07:38:11Z</time>
      </trkpt>
      <trkpt lat="44.22426" lon="2.71355">
        <ele>832.16</ele>
        <time>2022-07-15T07:38:18Z</time>
      </trkpt>
      <trkpt lat="44.22416" lon="2.7136">
        <ele>831.2</ele>
        <time>2022-07-15T07:38:25Z</time>
      </trkpt>
      <trkpt lat="44.22407" lon="2.71364">
        <ele>830.72</ele>
        <time>2022-07-15T07:38:32Z</time>
      </trkpt>
      <trkpt lat="44.22397" lon="2.7137">
        <ele>830.24</ele>
        <time>2022-07-15T07:38:39Z</time>
      </trkpt>
      <trkpt lat="44.22391" lon="2.7138">
        <ele>829.76</ele>
        <time>2022-07-15T07:38:46Z</time>
      </trkpt>
      <trkpt lat="44.22385" lon="2.7139">
        <ele>829.27</ele>
        <time>2022-07-15T07:38:54Z</time>
      </trkpt>
      <trkpt lat="44.22375" lon="2.71384">
        <ele>825.43</ele>
        <time>2022-07-15T07:39:03Z</time>
      </trkpt>
      <trkpt lat="44.22361" lon="2.71373">
        <ele>820.14</ele>
        <time>2022-07-15T07:39:17Z</time>
      </trkpt>
      <trkpt lat="44.22341" lon="2.7138">
        <ele>815.82</ele>
        <time>2022-07-15T07:39:31Z</time>
      </trkpt>
      <trkpt lat="44.22321" lon="2.71393">
        <ele>812.93</ele>
        <time>2022-07-15T07:39:47Z</time>
      </trkpt>
      <trkpt lat="44.22308" lon="2.71402">
        <ele>813.41</ele>
        <time>2022-07-15T07:39:56Z</time>
      </trkpt>
      <trkpt lat="44.2229" lon="2.71413">
        <ele>811.97</ele>
        <time>2022-07-15T07:40:10Z</time>
      </trkpt>
      <trkpt lat="44.22272" lon="2.71419">
        <ele>813.41</ele>
        <time>2022-07-15T07:40:19Z</time>
      </trkpt>
      <trkpt lat="44.22258" lon="2.71424">
        <ele>812.93</ele>
        <time>2022-07-15T07:40:27Z</time>
      </trkpt>
      <trkpt lat="44.22246" lon="2.71429">
        <ele>813.89</ele>
        <time>2022-07-15T07:40:34Z</time>
      </trkpt>
      <trkpt lat="44.22234" lon="2.71433">
        <ele>812.93</ele>
        <time>2022-07-15T07:40:42Z</time>
      </trkpt>
      <trkpt lat="44.22222" lon="2.71439">
        <ele>811.49</ele>
        <time>2022-07-15T07:40:50Z</time>
      </trkpt>
      <trkpt lat="44.22211" lon="2.7144">
        <ele>808.61</ele>
        <time>2022-07-15T07:40:58Z</time>
      </trkpt>
      <trkpt lat="44.22195" lon="2.71443">
        <ele>805.24</ele>
        <time>2022-07-15T07:41:09Z</time>
      </trkpt>
      <trkpt lat="44.22182" lon="2.71393">
        <ele>797.07</ele>
        <time>2022-07-15T07:41:40Z</time>
      </trkpt>
      <trkpt lat="44.22177" lon="2.71366">
        <ele>801.4</ele>
        <time>2022-07-15T07:41:53Z</time>
      </trkpt>
      <trkpt lat="44.22169" lon="2.71338">
        <ele>802.84</ele>
        <time>2022-07-15T07:42:19Z</time>
      </trkpt>
      <trkpt lat="44.22158" lon="2.71309">
        <ele>807.64</ele>
        <time>2022-07-15T07:42:36Z</time>
      </trkpt>
      <trkpt lat="44.22154" lon="2.71284">
        <ele>808.61</ele>
        <time>2022-07-15T07:42:48Z</time>
      </trkpt>
      <trkpt lat="44.22144" lon="2.71247">
        <ele>810.05</ele>
        <time>2022-07-15T07:43:04Z</time>
      </trkpt>
      <trkpt lat="44.2214" lon="2.71216">
        <ele>810.05</ele>
        <time>2022-07-15T07:43:18Z</time>
      </trkpt>
      <trkpt lat="44.22137" lon="2.71196">
        <ele>814.37</ele>
        <time>2022-07-15T07:43:27Z</time>
      </trkpt>
      <trkpt lat="44.22136" lon="2.71176">
        <ele>814.37</ele>
        <time>2022-07-15T07:43:38Z</time>
      </trkpt>
      <trkpt lat="44.22139" lon="2.71158">
        <ele>814.37</ele>
        <time>2022-07-15T07:43:46Z</time>
      </trkpt>
      <trkpt lat="44.22139" lon="2.71141">
        <ele>815.34</ele>
        <time>2022-07-15T07:43:54Z</time>
      </trkpt>
      <trkpt lat="44.22137" lon="2.7109">
        <ele>814.37</ele>
        <time>2022-07-15T07:44:19Z</time>
      </trkpt>
      <trkpt lat="44.2213" lon="2.71072">
        <ele>812.93</ele>
        <time>2022-07-15T07:44:29Z</time>
      </trkpt>
      <trkpt lat="44.22124" lon="2.71057">
        <ele>811.97</ele>
        <time>2022-07-15T07:44:38Z</time>
      </trkpt>
      <trkpt lat="44.22114" lon="2.71042">
        <ele>812.93</ele>
        <time>2022-07-15T07:44:49Z</time>
      </trkpt>
      <trkpt lat="44.22104" lon="2.71032">
        <ele>814.37</ele>
        <time>2022-07-15T07:44:58Z</time>
      </trkpt>
      <trkpt lat="44.22087" lon="2.71011">
        <ele>814.37</ele>
        <time>2022-07-15T07:45:44Z</time>
      </trkpt>
      <trkpt lat="44.22079" lon="2.71016">
        <ele>814.85</ele>
        <time>2022-07-15T07:46:11Z</time>
      </trkpt>
      <trkpt lat="44.22072" lon="2.71022">
        <ele>811.97</ele>
        <time>2022-07-15T07:46:26Z</time>
      </trkpt>
      <trkpt lat="44.2206" lon="2.71022">
        <ele>809.57</ele>
        <time>2022-07-15T07:46:36Z</time>
      </trkpt>
      <trkpt lat="44.2205" lon="2.71028">
        <ele>805.24</ele>
        <time>2022-07-15T07:46:46Z</time>
      </trkpt>
      <trkpt lat="44.22038" lon="2.7103">
        <ele>811.01</ele>
        <time>2022-07-15T08:06:02Z</time>
      </trkpt>
      <trkpt lat="44.22023" lon="2.70987">
        <ele>807.16</ele>
        <time>2022-07-15T08:06:54Z</time>
      </trkpt>
      <trkpt lat="44.21982" lon="2.70996">
        <ele>811.01</ele>
        <time>2022-07-15T08:07:49Z</time>
      </trkpt>
      <trkpt lat="44.21977" lon="2.71014">
        <ele>814.85</ele>
        <time>2022-07-15T08:07:59Z</time>
      </trkpt>
      <trkpt lat="44.21967" lon="2.71031">
        <ele>814.37</ele>
        <time>2022-07-15T08:08:11Z</time>
      </trkpt>
      <trkpt lat="44.21948" lon="2.7104">
        <ele>808.13</ele>
        <time>2022-07-15T08:08:32Z</time>
      </trkpt>
      <trkpt lat="44.21916" lon="2.71068">
        <ele>788.42</ele>
        <time>2022-07-15T08:09:08Z</time>
      </trkpt>
      <trkpt lat="44.219" lon="2.71101">
        <ele>788.9</ele>
        <time>2022-07-15T08:09:27Z</time>
      </trkpt>
      <trkpt lat="44.21874" lon="2.71125">
        <ele>797.07</ele>
        <time>2022-07-15T08:09:51Z</time>
      </trkpt>
      <trkpt lat="44.21813" lon="2.71107">
        <ele>811.49</ele>
        <time>2022-07-15T08:10:42Z</time>
      </trkpt>
      <trkpt lat="44.21724" lon="2.7108">
        <ele>809.09</ele>
        <time>2022-07-15T08:11:52Z</time>
      </trkpt>
      <trkpt lat="44.21701" lon="2.71078">
        <ele>807.64</ele>
        <time>2022-07-15T08:12:06Z</time>
      </trkpt>
      <trkpt lat="44.2168" lon="2.71077">
        <ele>810.05</ele>
        <time>2022-07-15T08:12:22Z</time>
      </trkpt>
      <trkpt lat="44.21652" lon="2.71077">
        <ele>820.62</ele>
        <time>2022-07-15T08:12:37Z</time>
      </trkpt>
      <trkpt lat="44.21614" lon="2.71086">
        <ele>824.95</ele>
        <time>2022-07-15T08:13:09Z</time>
      </trkpt>
      <trkpt lat="44.21599" lon="2.71089">
        <ele>830.24</ele>
        <time>2022-07-15T08:13:36Z</time>
      </trkpt>
      <trkpt lat="44.21588" lon="2.71089">
        <ele>830.72</ele>
        <time>2022-07-15T08:13:45Z</time>
      </trkpt>
      <trkpt lat="44.21574" lon="2.71087">
        <ele>830.72</ele>
        <time>2022-07-15T08:13:53Z</time>
      </trkpt>
      <trkpt lat="44.21563" lon="2.71086">
        <ele>828.31</ele>
        <time>2022-07-15T08:14:01Z</time>
      </trkpt>
      <trkpt lat="44.21552" lon="2.71084">
        <ele>827.35</ele>
        <time>2022-07-15T08:14:09Z</time>
      </trkpt>
      <trkpt lat="44.21541" lon="2.71084">
        <ele>825.43</ele>
        <time>2022-07-15T08:14:17Z</time>
      </trkpt>
      <trkpt lat="44.2153" lon="2.71088">
        <ele>824.95</ele>
        <time>2022-07-15T08:14:25Z</time>
      </trkpt>
      <trkpt lat="44.21518" lon="2.71085">
        <ele>823.03</ele>
        <time>2022-07-15T08:14:34Z</time>
      </trkpt>
      <trkpt lat="44.21509" lon="2.7108">
        <ele>821.58</ele>
        <time>2022-07-15T08:14:42Z</time>
      </trkpt>
      <trkpt lat="44.21498" lon="2.71076">
        <ele>819.18</ele>
        <time>2022-07-15T08:14:50Z</time>
      </trkpt>
      <trkpt lat="44.21487" lon="2.71078">
        <ele>819.18</ele>
        <time>2022-07-15T08:14:57Z</time>
      </trkpt>
      <trkpt lat="44.21478" lon="2.71085">
        <ele>819.18</ele>
        <time>2022-07-15T08:15:03Z</time>
      </trkpt>
      <trkpt lat="44.2147" lon="2.71094">
        <ele>819.66</ele>
        <time>2022-07-15T08:15:10Z</time>
      </trkpt>
      <trkpt lat="44.21462" lon="2.71105">
        <ele>819.66</ele>
        <time>2022-07-15T08:15:17Z</time>
      </trkpt>
      <trkpt lat="44.21455" lon="2.71115">
        <ele>820.14</ele>
        <time>2022-07-15T08:15:24Z</time>
      </trkpt>
      <trkpt lat="44.21447" lon="2.71124">
        <ele>820.62</ele>
        <time>2022-07-15T08:15:31Z</time>
      </trkpt>
      <trkpt lat="44.2144" lon="2.71133">
        <ele>820.62</ele>
        <time>2022-07-15T08:15:38Z</time>
      </trkpt>
      <trkpt lat="44.21432" lon="2.71141">
        <ele>819.18</ele>
        <time>2022-07-15T08:15:46Z</time>
      </trkpt>
      <trkpt lat="44.21421" lon="2.71151">
        <ele>818.22</ele>
        <time>2022-07-15T08:15:58Z</time>
      </trkpt>
      <trkpt lat="44.21408" lon="2.71158">
        <ele>815.82</ele>
        <time>2022-07-15T08:16:09Z</time>
      </trkpt>
      <trkpt lat="44.21395" lon="2.71162">
        <ele>813.41</ele>
        <time>2022-07-15T08:16:20Z</time>
      </trkpt>
      <trkpt lat="44.21383" lon="2.71167">
        <ele>811.01</ele>
        <time>2022-07-15T08:16:29Z</time>
      </trkpt>
      <trkpt lat="44.21369" lon="2.71173">
        <ele>809.09</ele>
        <time>2022-07-15T08:16:39Z</time>
      </trkpt>
      <trkpt lat="44.21358" lon="2.71179">
        <ele>809.09</ele>
        <time>2022-07-15T08:16:48Z</time>
      </trkpt>
      <trkpt lat="44.21335" lon="2.7118">
        <ele>811.97</ele>
        <time>2022-07-15T08:17:17Z</time>
      </trkpt>
      <trkpt lat="44.21324" lon="2.71176">
        <ele>811.01</ele>
        <time>2022-07-15T08:17:26Z</time>
      </trkpt>
      <trkpt lat="44.21314" lon="2.71167">
        <ele>809.57</ele>
        <time>2022-07-15T08:17:35Z</time>
      </trkpt>
      <trkpt lat="44.21301" lon="2.7116">
        <ele>808.61</ele>
        <time>2022-07-15T08:17:51Z</time>
      </trkpt>
      <trkpt lat="44.21291" lon="2.71151">
        <ele>806.68</ele>
        <time>2022-07-15T08:18:01Z</time>
      </trkpt>
      <trkpt lat="44.21281" lon="2.71145">
        <ele>804.28</ele>
        <time>2022-07-15T08:18:12Z</time>
      </trkpt>
      <trkpt lat="44.2127" lon="2.71143">
        <ele>804.76</ele>
        <time>2022-07-15T08:18:20Z</time>
      </trkpt>
      <trkpt lat="44.2126" lon="2.71142">
        <ele>805.72</ele>
        <time>2022-07-15T08:18:28Z</time>
      </trkpt>
      <trkpt lat="44.21244" lon="2.71148">
        <ele>807.16</ele>
        <time>2022-07-15T08:19:38Z</time>
      </trkpt>
      <trkpt lat="44.21234" lon="2.71149">
        <ele>807.16</ele>
        <time>2022-07-15T08:19:47Z</time>
      </trkpt>
      <trkpt lat="44.21223" lon="2.71151">
        <ele>807.16</ele>
        <time>2022-07-15T08:19:55Z</time>
      </trkpt>
      <trkpt lat="44.21214" lon="2.71152">
        <ele>807.16</ele>
        <time>2022-07-15T08:20:01Z</time>
      </trkpt>
      <trkpt lat="44.21204" lon="2.71152">
        <ele>807.16</ele>
        <time>2022-07-15T08:20:08Z</time>
      </trkpt>
      <trkpt lat="44.21194" lon="2.7115">
        <ele>807.64</ele>
        <time>2022-07-15T08:20:15Z</time>
      </trkpt>
      <trkpt lat="44.21184" lon="2.71145">
        <ele>807.64</ele>
        <time>2022-07-15T08:20:22Z</time>
      </trkpt>
      <trkpt lat="44.21174" lon="2.71139">
        <ele>807.64</ele>
        <time>2022-07-15T08:20:29Z</time>
      </trkpt>
      <trkpt lat="44.21166" lon="2.71133">
        <ele>807.64</ele>
        <time>2022-07-15T08:20:35Z</time>
      </trkpt>
      <trkpt lat="44.21158" lon="2.71125">
        <ele>807.64</ele>
        <time>2022-07-15T08:20:41Z</time>
      </trkpt>
      <trkpt lat="44.21151" lon="2.71117">
        <ele>807.64</ele>
        <time>2022-07-15T08:20:47Z</time>
      </trkpt>
      <trkpt lat="44.21144" lon="2.71105">
        <ele>807.64</ele>
        <time>2022-07-15T08:20:54Z</time>
      </trkpt>
      <trkpt lat="44.21138" lon="2.71094">
        <ele>807.16</ele>
        <time>2022-07-15T08:21:01Z</time>
      </trkpt>
      <trkpt lat="44.21132" lon="2.7108">
        <ele>806.68</ele>
        <time>2022-07-15T08:21:08Z</time>
      </trkpt>
      <trkpt lat="44.21129" lon="2.71068">
        <ele>805.72</ele>
        <time>2022-07-15T08:21:15Z</time>
      </trkpt>
      <trkpt lat="44.21126" lon="2.71054">
        <ele>804.76</ele>
        <time>2022-07-15T08:21:22Z</time>
      </trkpt>
      <trkpt lat="44.21125" lon="2.7104">
        <ele>803.32</ele>
        <time>2022-07-15T08:21:29Z</time>
      </trkpt>
      <trkpt lat="44.21126" lon="2.71025">
        <ele>802.84</ele>
        <time>2022-07-15T08:21:37Z</time>
      </trkpt>
      <trkpt lat="44.2113" lon="2.71012">
        <ele>801.4</ele>
        <time>2022-07-15T08:21:44Z</time>
      </trkpt>
      <trkpt lat="44.21133" lon="2.70998">
        <ele>800.44</ele>
        <time>2022-07-15T08:21:49Z</time>
      </trkpt>
      <trkpt lat="44.21135" lon="2.70981">
        <ele>798.51</ele>
        <time>2022-07-15T08:21:57Z</time>
      </trkpt>
      <trkpt lat="44.21138" lon="2.70965">
        <ele>798.03</ele>
        <time>2022-07-15T08:22:04Z</time>
      </trkpt>
      <trkpt lat="44.2114" lon="2.70948">
        <ele>798.03</ele>
        <time>2022-07-15T08:22:11Z</time>
      </trkpt>
      <trkpt lat="44.21142" lon="2.70932">
        <ele>799.95</ele>
        <time>2022-07-15T08:22:18Z</time>
      </trkpt>
      <trkpt lat="44.21147" lon="2.70917">
        <ele>802.84</ele>
        <time>2022-07-15T08:22:25Z</time>
      </trkpt>
      <trkpt lat="44.21149" lon="2.70904">
        <ele>806.68</ele>
        <time>2022-07-15T08:22:32Z</time>
      </trkpt>
      <trkpt lat="44.21149" lon="2.70891">
        <ele>810.05</ele>
        <time>2022-07-15T08:22:39Z</time>
      </trkpt>
      <trkpt lat="44.21146" lon="2.70879">
        <ele>811.97</ele>
        <time>2022-07-15T08:22:46Z</time>
      </trkpt>
      <trkpt lat="44.2114" lon="2.70867">
        <ele>814.37</ele>
        <time>2022-07-15T08:22:53Z</time>
      </trkpt>
      <trkpt lat="44.21133" lon="2.7086">
        <ele>815.82</ele>
        <time>2022-07-15T08:23:01Z</time>
      </trkpt>
      <trkpt lat="44.21122" lon="2.70851">
        <ele>816.78</ele>
        <time>2022-07-15T08:23:09Z</time>
      </trkpt>
      <trkpt lat="44.21111" lon="2.70849">
        <ele>817.26</ele>
        <time>2022-07-15T08:23:17Z</time>
      </trkpt>
      <trkpt lat="44.21101" lon="2.70854">
        <ele>817.74</ele>
        <time>2022-07-15T08:23:25Z</time>
      </trkpt>
      <trkpt lat="44.21091" lon="2.70862">
        <ele>819.66</ele>
        <time>2022-07-15T08:23:32Z</time>
      </trkpt>
      <trkpt lat="44.21084" lon="2.70873">
        <ele>820.14</ele>
        <time>2022-07-15T08:23:39Z</time>
      </trkpt>
      <trkpt lat="44.21078" lon="2.70886">
        <ele>821.1</ele>
        <time>2022-07-15T08:23:46Z</time>
      </trkpt>
      <trkpt lat="44.2107" lon="2.70896">
        <ele>822.06</ele>
        <time>2022-07-15T08:23:53Z</time>
      </trkpt>
      <trkpt lat="44.21061" lon="2.70904">
        <ele>822.55</ele>
        <time>2022-07-15T08:24:00Z</time>
      </trkpt>
      <trkpt lat="44.21051" lon="2.70908">
        <ele>822.55</ele>
        <time>2022-07-15T08:24:07Z</time>
      </trkpt>
      <trkpt lat="44.21041" lon="2.70905">
        <ele>822.06</ele>
        <time>2022-07-15T08:24:13Z</time>
      </trkpt>
      <trkpt lat="44.21032" lon="2.70901">
        <ele>822.06</ele>
        <time>2022-07-15T08:24:20Z</time>
      </trkpt>
      <trkpt lat="44.21022" lon="2.70895">
        <ele>821.58</ele>
        <time>2022-07-15T08:24:27Z</time>
      </trkpt>
      <trkpt lat="44.21011" lon="2.7089">
        <ele>822.06</ele>
        <time>2022-07-15T08:24:34Z</time>
      </trkpt>
      <trkpt lat="44.21" lon="2.70887">
        <ele>823.03</ele>
        <time>2022-07-15T08:24:41Z</time>
      </trkpt>
      <trkpt lat="44.20989" lon="2.70886">
        <ele>823.51</ele>
        <time>2022-07-15T08:24:48Z</time>
      </trkpt>
      <trkpt lat="44.2098" lon="2.70886">
        <ele>823.51</ele>
        <time>2022-07-15T08:24:54Z</time>
      </trkpt>
      <trkpt lat="44.20969" lon="2.70884">
        <ele>823.03</ele>
        <time>2022-07-15T08:25:01Z</time>
      </trkpt>
      <trkpt lat="44.20958" lon="2.70883">
        <ele>822.06</ele>
        <time>2022-07-15T08:25:08Z</time>
      </trkpt>
      <trkpt lat="44.20947" lon="2.70881">
        <ele>822.06</ele>
        <time>2022-07-15T08:25:15Z</time>
      </trkpt>
      <trkpt lat="44.20937" lon="2.70879">
        <ele>822.06</ele>
        <time>2022-07-15T08:25:22Z</time>
      </trkpt>
      <trkpt lat="44.20926" lon="2.70876">
        <ele>823.51</ele>
        <time>2022-07-15T08:25:29Z</time>
      </trkpt>
      <trkpt lat="44.20917" lon="2.70871">
        <ele>823.99</ele>
        <time>2022-07-15T08:25:36Z</time>
      </trkpt>
      <trkpt lat="44.20907" lon="2.70863">
        <ele>825.43</ele>
        <time>2022-07-15T08:25:43Z</time>
      </trkpt>
      <trkpt lat="44.20897" lon="2.70853">
        <ele>827.35</ele>
        <time>2022-07-15T08:25:51Z</time>
      </trkpt>
      <trkpt lat="44.20889" lon="2.70843">
        <ele>829.76</ele>
        <time>2022-07-15T08:25:59Z</time>
      </trkpt>
      <trkpt lat="44.2088" lon="2.70832">
        <ele>830.72</ele>
        <time>2022-07-15T08:26:07Z</time>
      </trkpt>
      <trkpt lat="44.20871" lon="2.70822">
        <ele>831.68</ele>
        <time>2022-07-15T08:26:14Z</time>
      </trkpt>
      <trkpt lat="44.20864" lon="2.70812">
        <ele>832.16</ele>
        <time>2022-07-15T08:26:21Z</time>
      </trkpt>
      <trkpt lat="44.20856" lon="2.708">
        <ele>833.6</ele>
        <time>2022-07-15T08:26:29Z</time>
      </trkpt>
      <trkpt lat="44.20846" lon="2.7079">
        <ele>835.52</ele>
        <time>2022-07-15T08:26:37Z</time>
      </trkpt>
      <trkpt lat="44.20837" lon="2.70782">
        <ele>836</ele>
        <time>2022-07-15T08:26:45Z</time>
      </trkpt>
      <trkpt lat="44.20826" lon="2.70776">
        <ele>836</ele>
        <time>2022-07-15T08:26:53Z</time>
      </trkpt>
      <trkpt lat="44.20816" lon="2.70769">
        <ele>836.48</ele>
        <time>2022-07-15T08:27:01Z</time>
      </trkpt>
      <trkpt lat="44.20807" lon="2.70762">
        <ele>836.96</ele>
        <time>2022-07-15T08:27:08Z</time>
      </trkpt>
      <trkpt lat="44.208" lon="2.70753">
        <ele>837.45</ele>
        <time>2022-07-15T08:27:15Z</time>
      </trkpt>
      <trkpt lat="44.20793" lon="2.70743">
        <ele>838.89</ele>
        <time>2022-07-15T08:27:22Z</time>
      </trkpt>
      <trkpt lat="44.20787" lon="2.70731">
        <ele>839.37</ele>
        <time>2022-07-15T08:27:29Z</time>
      </trkpt>
      <trkpt lat="44.20781" lon="2.70718">
        <ele>839.85</ele>
        <time>2022-07-15T08:27:36Z</time>
      </trkpt>
      <trkpt lat="44.20777" lon="2.70704">
        <ele>839.85</ele>
        <time>2022-07-15T08:27:43Z</time>
      </trkpt>
      <trkpt lat="44.20771" lon="2.70691">
        <ele>839.85</ele>
        <time>2022-07-15T08:27:50Z</time>
      </trkpt>
      <trkpt lat="44.20766" lon="2.70678">
        <ele>839.85</ele>
        <time>2022-07-15T08:27:57Z</time>
      </trkpt>
      <trkpt lat="44.20762" lon="2.70667">
        <ele>840.33</ele>
        <time>2022-07-15T08:28:03Z</time>
      </trkpt>
      <trkpt lat="44.20757" lon="2.70654">
        <ele>840.33</ele>
        <time>2022-07-15T08:28:10Z</time>
      </trkpt>
      <trkpt lat="44.20751" lon="2.70641">
        <ele>840.81</ele>
        <time>2022-07-15T08:28:17Z</time>
      </trkpt>
      <trkpt lat="44.20744" lon="2.70629">
        <ele>841.29</ele>
        <time>2022-07-15T08:28:24Z</time>
      </trkpt>
      <trkpt lat="44.20736" lon="2.70619">
        <ele>841.29</ele>
        <time>2022-07-15T08:28:34Z</time>
      </trkpt>
      <trkpt lat="44.20728" lon="2.70608">
        <ele>847.06</ele>
        <time>2022-07-15T08:29:27Z</time>
      </trkpt>
      <trkpt lat="44.2072" lon="2.70599">
        <ele>847.54</ele>
        <time>2022-07-15T08:29:34Z</time>
      </trkpt>
      <trkpt lat="44.20714" lon="2.7059">
        <ele>847.54</ele>
        <time>2022-07-15T08:29:41Z</time>
      </trkpt>
      <trkpt lat="44.20706" lon="2.70581">
        <ele>847.54</ele>
        <time>2022-07-15T08:29:48Z</time>
      </trkpt>
      <trkpt lat="44.20698" lon="2.70574">
        <ele>848.5</ele>
        <time>2022-07-15T08:29:55Z</time>
      </trkpt>
      <trkpt lat="44.2069" lon="2.70567">
        <ele>848.5</ele>
        <time>2022-07-15T08:30:01Z</time>
      </trkpt>
      <trkpt lat="44.20681" lon="2.7056">
        <ele>848.02</ele>
        <time>2022-07-15T08:30:08Z</time>
      </trkpt>
      <trkpt lat="44.20672" lon="2.70553">
        <ele>848.5</ele>
        <time>2022-07-15T08:30:16Z</time>
      </trkpt>
      <trkpt lat="44.20661" lon="2.70548">
        <ele>848.5</ele>
        <time>2022-07-15T08:30:23Z</time>
      </trkpt>
      <trkpt lat="44.20653" lon="2.70544">
        <ele>847.54</ele>
        <time>2022-07-15T08:30:29Z</time>
      </trkpt>
      <trkpt lat="44.20643" lon="2.70539">
        <ele>846.58</ele>
        <time>2022-07-15T08:30:36Z</time>
      </trkpt>
      <trkpt lat="44.20634" lon="2.70531">
        <ele>846.1</ele>
        <time>2022-07-15T08:30:43Z</time>
      </trkpt>
      <trkpt lat="44.20629" lon="2.7052">
        <ele>845.62</ele>
        <time>2022-07-15T08:30:49Z</time>
      </trkpt>
      <trkpt lat="44.20624" lon="2.70506">
        <ele>846.1</ele>
        <time>2022-07-15T08:30:56Z</time>
      </trkpt>
      <trkpt lat="44.2062" lon="2.70494">
        <ele>846.58</ele>
        <time>2022-07-15T08:31:02Z</time>
      </trkpt>
      <trkpt lat="44.20615" lon="2.70481">
        <ele>846.1</ele>
        <time>2022-07-15T08:31:09Z</time>
      </trkpt>
      <trkpt lat="44.20611" lon="2.70466">
        <ele>846.1</ele>
        <time>2022-07-15T08:31:16Z</time>
      </trkpt>
      <trkpt lat="44.20606" lon="2.70453">
        <ele>846.1</ele>
        <time>2022-07-15T08:31:23Z</time>
      </trkpt>
      <trkpt lat="44.20603" lon="2.70436">
        <ele>843.69</ele>
        <time>2022-07-15T08:31:30Z</time>
      </trkpt>
      <trkpt lat="44.20605" lon="2.70422">
        <ele>843.69</ele>
        <time>2022-07-15T08:31:38Z</time>
      </trkpt>
      <trkpt lat="44.20609" lon="2.70407">
        <ele>843.21</ele>
        <time>2022-07-15T08:31:46Z</time>
      </trkpt>
      <trkpt lat="44.20616" lon="2.70396">
        <ele>842.73</ele>
        <time>2022-07-15T08:31:53Z</time>
      </trkpt>
      <trkpt lat="44.20622" lon="2.70383">
        <ele>840.81</ele>
        <time>2022-07-15T08:32:01Z</time>
      </trkpt>
      <trkpt lat="44.20627" lon="2.70369">
        <ele>840.33</ele>
        <time>2022-07-15T08:32:09Z</time>
      </trkpt>
      <trkpt lat="44.20632" lon="2.70356">
        <ele>840.33</ele>
        <time>2022-07-15T08:32:16Z</time>
      </trkpt>
      <trkpt lat="44.20638" lon="2.70341">
        <ele>840.33</ele>
        <time>2022-07-15T08:32:20Z</time>
      </trkpt>
      <trkpt lat="44.20644" lon="2.70328">
        <ele>840.33</ele>
        <time>2022-07-15T08:32:23Z</time>
      </trkpt>
      <trkpt lat="44.20649" lon="2.70315">
        <ele>840.33</ele>
        <time>2022-07-15T08:32:26Z</time>
      </trkpt>
      <trkpt lat="44.20653" lon="2.70301">
        <ele>840.81</ele>
        <time>2022-07-15T08:32:29Z</time>
      </trkpt>
      <trkpt lat="44.20658" lon="2.70285">
        <ele>841.77</ele>
        <time>2022-07-15T08:32:33Z</time>
      </trkpt>
      <trkpt lat="44.20662" lon="2.7027">
        <ele>841.77</ele>
        <time>2022-07-15T08:32:37Z</time>
      </trkpt>
      <trkpt lat="44.20663" lon="2.70257">
        <ele>842.25</ele>
        <time>2022-07-15T08:32:41Z</time>
      </trkpt>
      <trkpt lat="44.20657" lon="2.70245">
        <ele>843.21</ele>
        <time>2022-07-15T08:32:45Z</time>
      </trkpt>
      <trkpt lat="44.20642" lon="2.70233">
        <ele>843.69</ele>
        <time>2022-07-15T08:33:01Z</time>
      </trkpt>
      <trkpt lat="44.20623" lon="2.70229">
        <ele>842.73</ele>
        <time>2022-07-15T08:33:13Z</time>
      </trkpt>
      <trkpt lat="44.20611" lon="2.70236">
        <ele>844.18</ele>
        <time>2022-07-15T08:33:21Z</time>
      </trkpt>
      <trkpt lat="44.20601" lon="2.70239">
        <ele>846.58</ele>
        <time>2022-07-15T08:33:28Z</time>
      </trkpt>
      <trkpt lat="44.20592" lon="2.70235">
        <ele>848.02</ele>
        <time>2022-07-15T08:33:35Z</time>
      </trkpt>
      <trkpt lat="44.20581" lon="2.70232">
        <ele>849.94</ele>
        <time>2022-07-15T08:33:43Z</time>
      </trkpt>
      <trkpt lat="44.20562" lon="2.70226">
        <ele>852.83</ele>
        <time>2022-07-15T08:33:54Z</time>
      </trkpt>
      <trkpt lat="44.20546" lon="2.70221">
        <ele>852.35</ele>
        <time>2022-07-15T08:34:07Z</time>
      </trkpt>
      <trkpt lat="44.20533" lon="2.70222">
        <ele>853.79</ele>
        <time>2022-07-15T08:34:17Z</time>
      </trkpt>
      <trkpt lat="44.20521" lon="2.70223">
        <ele>853.79</ele>
        <time>2022-07-15T08:34:26Z</time>
      </trkpt>
      <trkpt lat="44.2051" lon="2.7022">
        <ele>852.35</ele>
        <time>2022-07-15T08:34:34Z</time>
      </trkpt>
      <trkpt lat="44.20497" lon="2.70218">
        <ele>851.38</ele>
        <time>2022-07-15T08:34:42Z</time>
      </trkpt>
      <trkpt lat="44.20484" lon="2.70216">
        <ele>849.94</ele>
        <time>2022-07-15T08:34:53Z</time>
      </trkpt>
      <trkpt lat="44.20467" lon="2.70215">
        <ele>848.98</ele>
        <time>2022-07-15T08:35:05Z</time>
      </trkpt>
      <trkpt lat="44.20452" lon="2.70215">
        <ele>849.94</ele>
        <time>2022-07-15T08:35:14Z</time>
      </trkpt>
      <trkpt lat="44.20441" lon="2.70213">
        <ele>851.87</ele>
        <time>2022-07-15T08:35:21Z</time>
      </trkpt>
      <trkpt lat="44.20429" lon="2.70211">
        <ele>852.83</ele>
        <time>2022-07-15T08:35:28Z</time>
      </trkpt>
      <trkpt lat="44.20418" lon="2.7021">
        <ele>854.27</ele>
        <time>2022-07-15T08:35:35Z</time>
      </trkpt>
      <trkpt lat="44.20408" lon="2.70209">
        <ele>855.71</ele>
        <time>2022-07-15T08:35:41Z</time>
      </trkpt>
      <trkpt lat="44.20398" lon="2.70207">
        <ele>855.23</ele>
        <time>2022-07-15T08:35:48Z</time>
      </trkpt>
      <trkpt lat="44.20388" lon="2.70204">
        <ele>854.75</ele>
        <time>2022-07-15T08:35:54Z</time>
      </trkpt>
      <trkpt lat="44.20379" lon="2.70202">
        <ele>854.27</ele>
        <time>2022-07-15T08:36:00Z</time>
      </trkpt>
      <trkpt lat="44.2037" lon="2.702">
        <ele>853.31</ele>
        <time>2022-07-15T08:36:06Z</time>
      </trkpt>
      <trkpt lat="44.20359" lon="2.70197">
        <ele>852.83</ele>
        <time>2022-07-15T08:36:13Z</time>
      </trkpt>
      <trkpt lat="44.2035" lon="2.70195">
        <ele>852.83</ele>
        <time>2022-07-15T08:36:19Z</time>
      </trkpt>
      <trkpt lat="44.2034" lon="2.70192">
        <ele>852.35</ele>
        <time>2022-07-15T08:36:25Z</time>
      </trkpt>
      <trkpt lat="44.2033" lon="2.70189">
        <ele>850.42</ele>
        <time>2022-07-15T08:36:32Z</time>
      </trkpt>
      <trkpt lat="44.20321" lon="2.70186">
        <ele>849.94</ele>
        <time>2022-07-15T08:36:39Z</time>
      </trkpt>
      <trkpt lat="44.2031" lon="2.70182">
        <ele>850.42</ele>
        <time>2022-07-15T08:36:46Z</time>
      </trkpt>
      <trkpt lat="44.20299" lon="2.70178">
        <ele>850.9</ele>
        <time>2022-07-15T08:36:53Z</time>
      </trkpt>
      <trkpt lat="44.20288" lon="2.70173">
        <ele>851.38</ele>
        <time>2022-07-15T08:37:00Z</time>
      </trkpt>
      <trkpt lat="44.20279" lon="2.70168">
        <ele>851.87</ele>
        <time>2022-07-15T08:37:07Z</time>
      </trkpt>
      <trkpt lat="44.20268" lon="2.70163">
        <ele>852.35</ele>
        <time>2022-07-15T08:37:15Z</time>
      </trkpt>
      <trkpt lat="44.20258" lon="2.70156">
        <ele>851.87</ele>
        <time>2022-07-15T08:37:23Z</time>
      </trkpt>
      <trkpt lat="44.2025" lon="2.70149">
        <ele>850.42</ele>
        <time>2022-07-15T08:37:30Z</time>
      </trkpt>
      <trkpt lat="44.2024" lon="2.70143">
        <ele>850.42</ele>
        <time>2022-07-15T08:37:37Z</time>
      </trkpt>
      <trkpt lat="44.20231" lon="2.70137">
        <ele>849.94</ele>
        <time>2022-07-15T08:37:44Z</time>
      </trkpt>
      <trkpt lat="44.2022" lon="2.70133">
        <ele>854.27</ele>
        <time>2022-07-15T08:37:52Z</time>
      </trkpt>
      <trkpt lat="44.20211" lon="2.70128">
        <ele>855.71</ele>
        <time>2022-07-15T08:37:59Z</time>
      </trkpt>
      <trkpt lat="44.20202" lon="2.70119">
        <ele>855.71</ele>
        <time>2022-07-15T08:38:06Z</time>
      </trkpt>
      <trkpt lat="44.20194" lon="2.7011">
        <ele>855.71</ele>
        <time>2022-07-15T08:38:13Z</time>
      </trkpt>
      <trkpt lat="44.20185" lon="2.701">
        <ele>855.71</ele>
        <time>2022-07-15T08:38:20Z</time>
      </trkpt>
      <trkpt lat="44.20178" lon="2.70089">
        <ele>855.23</ele>
        <time>2022-07-15T08:38:27Z</time>
      </trkpt>
      <trkpt lat="44.2017" lon="2.70081">
        <ele>855.23</ele>
        <time>2022-07-15T08:38:34Z</time>
      </trkpt>
      <trkpt lat="44.20162" lon="2.70072">
        <ele>854.75</ele>
        <time>2022-07-15T08:38:41Z</time>
      </trkpt>
      <trkpt lat="44.20151" lon="2.70068">
        <ele>856.67</ele>
        <time>2022-07-15T08:38:49Z</time>
      </trkpt>
      <trkpt lat="44.20142" lon="2.70062">
        <ele>858.59</ele>
        <time>2022-07-15T08:38:56Z</time>
      </trkpt>
      <trkpt lat="44.20134" lon="2.70054">
        <ele>858.59</ele>
        <time>2022-07-15T08:39:03Z</time>
      </trkpt>
      <trkpt lat="44.20126" lon="2.70042">
        <ele>857.63</ele>
        <time>2022-07-15T08:39:12Z</time>
      </trkpt>
      <trkpt lat="44.20114" lon="2.70036">
        <ele>857.15</ele>
        <time>2022-07-15T08:39:21Z</time>
      </trkpt>
      <trkpt lat="44.20102" lon="2.7004">
        <ele>858.59</ele>
        <time>2022-07-15T08:39:48Z</time>
      </trkpt>
      <trkpt lat="44.20091" lon="2.70037">
        <ele>858.59</ele>
        <time>2022-07-15T08:39:55Z</time>
      </trkpt>
      <trkpt lat="44.20079" lon="2.70036">
        <ele>859.08</ele>
        <time>2022-07-15T08:40:02Z</time>
      </trkpt>
      <trkpt lat="44.20068" lon="2.70035">
        <ele>859.56</ele>
        <time>2022-07-15T08:40:10Z</time>
      </trkpt>
      <trkpt lat="44.20057" lon="2.70033">
        <ele>860.04</ele>
        <time>2022-07-15T08:40:18Z</time>
      </trkpt>
      <trkpt lat="44.20046" lon="2.70033">
        <ele>861</ele>
        <time>2022-07-15T08:40:25Z</time>
      </trkpt>
      <trkpt lat="44.20034" lon="2.70032">
        <ele>861.96</ele>
        <time>2022-07-15T08:40:35Z</time>
      </trkpt>
      <trkpt lat="44.20021" lon="2.70029">
        <ele>861</ele>
        <time>2022-07-15T08:40:45Z</time>
      </trkpt>
      <trkpt lat="44.20008" lon="2.70027">
        <ele>860.04</ele>
        <time>2022-07-15T08:40:53Z</time>
      </trkpt>
      <trkpt lat="44.19997" lon="2.70026">
        <ele>860.04</ele>
        <time>2022-07-15T08:41:00Z</time>
      </trkpt>
      <trkpt lat="44.19986" lon="2.70024">
        <ele>860.04</ele>
        <time>2022-07-15T08:41:07Z</time>
      </trkpt>
      <trkpt lat="44.19974" lon="2.70024">
        <ele>860.52</ele>
        <time>2022-07-15T08:41:14Z</time>
      </trkpt>
      <trkpt lat="44.19953" lon="2.70028">
        <ele>860.52</ele>
        <time>2022-07-15T08:41:32Z</time>
      </trkpt>
      <trkpt lat="44.19926" lon="2.7002">
        <ele>855.23</ele>
        <time>2022-07-15T08:41:51Z</time>
      </trkpt>
      <trkpt lat="44.19911" lon="2.70016">
        <ele>853.79</ele>
        <time>2022-07-15T08:41:59Z</time>
      </trkpt>
      <trkpt lat="44.19897" lon="2.70011">
        <ele>853.31</ele>
        <time>2022-07-15T08:42:09Z</time>
      </trkpt>
      <trkpt lat="44.19883" lon="2.70005">
        <ele>850.9</ele>
        <time>2022-07-15T08:42:20Z</time>
      </trkpt>
      <trkpt lat="44.19869" lon="2.7">
        <ele>849.46</ele>
        <time>2022-07-15T08:42:29Z</time>
      </trkpt>
      <trkpt lat="44.19857" lon="2.69996">
        <ele>848.5</ele>
        <time>2022-07-15T08:42:37Z</time>
      </trkpt>
      <trkpt lat="44.19844" lon="2.69994">
        <ele>846.58</ele>
        <time>2022-07-15T08:42:46Z</time>
      </trkpt>
      <trkpt lat="44.1983" lon="2.69996">
        <ele>847.54</ele>
        <time>2022-07-15T08:42:55Z</time>
      </trkpt>
      <trkpt lat="44.19816" lon="2.69992">
        <ele>848.98</ele>
        <time>2022-07-15T08:43:07Z</time>
      </trkpt>
      <trkpt lat="44.19801" lon="2.69985">
        <ele>849.94</ele>
        <time>2022-07-15T08:43:14Z</time>
      </trkpt>
      <trkpt lat="44.19786" lon="2.6998">
        <ele>849.94</ele>
        <time>2022-07-15T08:43:22Z</time>
      </trkpt>
      <trkpt lat="44.19774" lon="2.69978">
        <ele>851.38</ele>
        <time>2022-07-15T08:43:31Z</time>
      </trkpt>
      <trkpt lat="44.19763" lon="2.69971">
        <ele>852.83</ele>
        <time>2022-07-15T08:43:39Z</time>
      </trkpt>
      <trkpt lat="44.19753" lon="2.6996">
        <ele>854.27</ele>
        <time>2022-07-15T08:43:46Z</time>
      </trkpt>
      <trkpt lat="44.19743" lon="2.6995">
        <ele>857.15</ele>
        <time>2022-07-15T08:43:53Z</time>
      </trkpt>
      <trkpt lat="44.19737" lon="2.69938">
        <ele>860.52</ele>
        <time>2022-07-15T08:44:00Z</time>
      </trkpt>
      <trkpt lat="44.1974" lon="2.69926">
        <ele>862.92</ele>
        <time>2022-07-15T08:44:06Z</time>
      </trkpt>
      <trkpt lat="44.19745" lon="2.69913">
        <ele>863.4</ele>
        <time>2022-07-15T08:44:13Z</time>
      </trkpt>
      <trkpt lat="44.1975" lon="2.69902">
        <ele>863.4</ele>
        <time>2022-07-15T08:44:19Z</time>
      </trkpt>
      <trkpt lat="44.19755" lon="2.6989">
        <ele>863.4</ele>
        <time>2022-07-15T08:44:25Z</time>
      </trkpt>
      <trkpt lat="44.19761" lon="2.69877">
        <ele>863.88</ele>
        <time>2022-07-15T08:44:32Z</time>
      </trkpt>
      <trkpt lat="44.19766" lon="2.69866">
        <ele>863.4</ele>
        <time>2022-07-15T08:44:38Z</time>
      </trkpt>
      <trkpt lat="44.19771" lon="2.69854">
        <ele>863.4</ele>
        <time>2022-07-15T08:44:44Z</time>
      </trkpt>
      <trkpt lat="44.19775" lon="2.69842">
        <ele>863.4</ele>
        <time>2022-07-15T08:44:50Z</time>
      </trkpt>
      <trkpt lat="44.19781" lon="2.6983">
        <ele>862.44</ele>
        <time>2022-07-15T08:44:56Z</time>
      </trkpt>
      <trkpt lat="44.19785" lon="2.69818">
        <ele>862.44</ele>
        <time>2022-07-15T08:45:02Z</time>
      </trkpt>
      <trkpt lat="44.1979" lon="2.69806">
        <ele>861.48</ele>
        <time>2022-07-15T08:45:08Z</time>
      </trkpt>
      <trkpt lat="44.19795" lon="2.69794">
        <ele>861</ele>
        <time>2022-07-15T08:45:14Z</time>
      </trkpt>
      <trkpt lat="44.19799" lon="2.69781">
        <ele>861.48</ele>
        <time>2022-07-15T08:45:21Z</time>
      </trkpt>
      <trkpt lat="44.19804" lon="2.69768">
        <ele>862.44</ele>
        <time>2022-07-15T08:45:29Z</time>
      </trkpt>
      <trkpt lat="44.19809" lon="2.69756">
        <ele>862.44</ele>
        <time>2022-07-15T08:45:36Z</time>
      </trkpt>
      <trkpt lat="44.19813" lon="2.69742">
        <ele>861.48</ele>
        <time>2022-07-15T08:45:43Z</time>
      </trkpt>
      <trkpt lat="44.19813" lon="2.69728">
        <ele>861.48</ele>
        <time>2022-07-15T08:45:51Z</time>
      </trkpt>
      <trkpt lat="44.19811" lon="2.69708">
        <ele>861.96</ele>
        <time>2022-07-15T08:46:00Z</time>
      </trkpt>
      <trkpt lat="44.19809" lon="2.69691">
        <ele>862.44</ele>
        <time>2022-07-15T08:46:08Z</time>
      </trkpt>
      <trkpt lat="44.19809" lon="2.69673">
        <ele>863.4</ele>
        <time>2022-07-15T08:46:17Z</time>
      </trkpt>
      <trkpt lat="44.19808" lon="2.69656">
        <ele>862.44</ele>
        <time>2022-07-15T08:46:24Z</time>
      </trkpt>
      <trkpt lat="44.19808" lon="2.69641">
        <ele>861.48</ele>
        <time>2022-07-15T08:46:31Z</time>
      </trkpt>
      <trkpt lat="44.19807" lon="2.69627">
        <ele>861</ele>
        <time>2022-07-15T08:46:37Z</time>
      </trkpt>
      <trkpt lat="44.19806" lon="2.69611">
        <ele>860.52</ele>
        <time>2022-07-15T08:46:44Z</time>
      </trkpt>
      <trkpt lat="44.19806" lon="2.69597">
        <ele>859.56</ele>
        <time>2022-07-15T08:46:52Z</time>
      </trkpt>
      <trkpt lat="44.19804" lon="2.69581">
        <ele>859.08</ele>
        <time>2022-07-15T08:47:00Z</time>
      </trkpt>
      <trkpt lat="44.19803" lon="2.69566">
        <ele>859.56</ele>
        <time>2022-07-15T08:47:07Z</time>
      </trkpt>
      <trkpt lat="44.19801" lon="2.69552">
        <ele>859.56</ele>
        <time>2022-07-15T08:47:13Z</time>
      </trkpt>
      <trkpt lat="44.19799" lon="2.69537">
        <ele>860.04</ele>
        <time>2022-07-15T08:47:20Z</time>
      </trkpt>
      <trkpt lat="44.19796" lon="2.69522">
        <ele>860.52</ele>
        <time>2022-07-15T08:47:27Z</time>
      </trkpt>
      <trkpt lat="44.19795" lon="2.69508">
        <ele>861</ele>
        <time>2022-07-15T08:47:33Z</time>
      </trkpt>
      <trkpt lat="44.19794" lon="2.69493">
        <ele>861.48</ele>
        <time>2022-07-15T08:47:40Z</time>
      </trkpt>
      <trkpt lat="44.19794" lon="2.69478">
        <ele>861.48</ele>
        <time>2022-07-15T08:47:47Z</time>
      </trkpt>
      <trkpt lat="44.19794" lon="2.69462">
        <ele>862.44</ele>
        <time>2022-07-15T08:47:54Z</time>
      </trkpt>
      <trkpt lat="44.19794" lon="2.69445">
        <ele>864.36</ele>
        <time>2022-07-15T08:48:01Z</time>
      </trkpt>
      <trkpt lat="44.19792" lon="2.69431">
        <ele>864.36</ele>
        <time>2022-07-15T08:48:09Z</time>
      </trkpt>
      <trkpt lat="44.1979" lon="2.69416">
        <ele>863.88</ele>
        <time>2022-07-15T08:48:16Z</time>
      </trkpt>
      <trkpt lat="44.19787" lon="2.69402">
        <ele>863.88</ele>
        <time>2022-07-15T08:48:23Z</time>
      </trkpt>
      <trkpt lat="44.19785" lon="2.69388">
        <ele>864.84</ele>
        <time>2022-07-15T08:48:29Z</time>
      </trkpt>
      <trkpt lat="44.19783" lon="2.69375">
        <ele>864.84</ele>
        <time>2022-07-15T08:48:35Z</time>
      </trkpt>
      <trkpt lat="44.1978" lon="2.69362">
        <ele>864.84</ele>
        <time>2022-07-15T08:48:41Z</time>
      </trkpt>
      <trkpt lat="44.19777" lon="2.6935">
        <ele>864.84</ele>
        <time>2022-07-15T08:48:47Z</time>
      </trkpt>
      <trkpt lat="44.19772" lon="2.69337">
        <ele>865.32</ele>
        <time>2022-07-15T08:48:54Z</time>
      </trkpt>
      <trkpt lat="44.19767" lon="2.69325">
        <ele>864.84</ele>
        <time>2022-07-15T08:49:00Z</time>
      </trkpt>
      <trkpt lat="44.19761" lon="2.69308">
        <ele>864.84</ele>
        <time>2022-07-15T08:49:04Z</time>
      </trkpt>
      <trkpt lat="44.19758" lon="2.69296">
        <ele>864.84</ele>
        <time>2022-07-15T08:49:06Z</time>
      </trkpt>
      <trkpt lat="44.19755" lon="2.69282">
        <ele>865.32</ele>
        <time>2022-07-15T08:49:08Z</time>
      </trkpt>
      <trkpt lat="44.19754" lon="2.69267">
        <ele>865.32</ele>
        <time>2022-07-15T08:49:10Z</time>
      </trkpt>
      <trkpt lat="44.19753" lon="2.69252">
        <ele>865.32</ele>
        <time>2022-07-15T08:49:12Z</time>
      </trkpt>
      <trkpt lat="44.19754" lon="2.69237">
        <ele>866.29</ele>
        <time>2022-07-15T08:49:14Z</time>
      </trkpt>
      <trkpt lat="44.19757" lon="2.69222">
        <ele>866.29</ele>
        <time>2022-07-15T08:49:16Z</time>
      </trkpt>
      <trkpt lat="44.19759" lon="2.69206">
        <ele>866.29</ele>
        <time>2022-07-15T08:49:18Z</time>
      </trkpt>
      <trkpt lat="44.19762" lon="2.6919">
        <ele>866.77</ele>
        <time>2022-07-15T08:49:20Z</time>
      </trkpt>
      <trkpt lat="44.19763" lon="2.69175">
        <ele>867.25</ele>
        <time>2022-07-15T08:49:22Z</time>
      </trkpt>
      <trkpt lat="44.19765" lon="2.69163">
        <ele>867.25</ele>
        <time>2022-07-15T08:49:24Z</time>
      </trkpt>
      <trkpt lat="44.19766" lon="2.6915">
        <ele>867.73</ele>
        <time>2022-07-15T08:49:27Z</time>
      </trkpt>
      <trkpt lat="44.19767" lon="2.69137">
        <ele>869.17</ele>
        <time>2022-07-15T08:49:33Z</time>
      </trkpt>
      <trkpt lat="44.19767" lon="2.69125">
        <ele>870.13</ele>
        <time>2022-07-15T08:49:41Z</time>
      </trkpt>
      <trkpt lat="44.19764" lon="2.69126">
        <ele>870.61</ele>
        <time>2022-07-15T08:49:52Z</time>
      </trkpt>
      <trkpt lat="44.19767" lon="2.69121">
        <ele>871.09</ele>
        <time>2022-07-15T08:50:07Z</time>
      </trkpt>
      <trkpt lat="44.19766" lon="2.69107">
        <ele>871.57</ele>
        <time>2022-07-15T08:50:14Z</time>
      </trkpt>
      <trkpt lat="44.19769" lon="2.69093">
        <ele>871.57</ele>
        <time>2022-07-15T08:50:21Z</time>
      </trkpt>
      <trkpt lat="44.19772" lon="2.69078">
        <ele>870.61</ele>
        <time>2022-07-15T08:50:28Z</time>
      </trkpt>
      <trkpt lat="44.19776" lon="2.69064">
        <ele>869.65</ele>
        <time>2022-07-15T08:50:35Z</time>
      </trkpt>
      <trkpt lat="44.19779" lon="2.69051">
        <ele>868.21</ele>
        <time>2022-07-15T08:50:42Z</time>
      </trkpt>
      <trkpt lat="44.19783" lon="2.69037">
        <ele>868.21</ele>
        <time>2022-07-15T08:50:49Z</time>
      </trkpt>
      <trkpt lat="44.19787" lon="2.69022">
        <ele>867.73</ele>
        <time>2022-07-15T08:50:56Z</time>
      </trkpt>
      <trkpt lat="44.19791" lon="2.69008">
        <ele>866.77</ele>
        <time>2022-07-15T08:51:03Z</time>
      </trkpt>
      <trkpt lat="44.19796" lon="2.68996">
        <ele>865.8</ele>
        <time>2022-07-15T08:51:10Z</time>
      </trkpt>
      <trkpt lat="44.198" lon="2.68982">
        <ele>864.36</ele>
        <time>2022-07-15T08:51:17Z</time>
      </trkpt>
      <trkpt lat="44.19804" lon="2.68969">
        <ele>864.36</ele>
        <time>2022-07-15T08:51:24Z</time>
      </trkpt>
      <trkpt lat="44.19808" lon="2.68956">
        <ele>863.4</ele>
        <time>2022-07-15T08:51:31Z</time>
      </trkpt>
      <trkpt lat="44.19812" lon="2.68942">
        <ele>862.44</ele>
        <time>2022-07-15T08:51:38Z</time>
      </trkpt>
      <trkpt lat="44.19817" lon="2.68929">
        <ele>861</ele>
        <time>2022-07-15T08:51:45Z</time>
      </trkpt>
      <trkpt lat="44.1982" lon="2.68915">
        <ele>861.48</ele>
        <time>2022-07-15T08:51:52Z</time>
      </trkpt>
      <trkpt lat="44.19827" lon="2.68903">
        <ele>861</ele>
        <time>2022-07-15T08:52:00Z</time>
      </trkpt>
      <trkpt lat="44.19835" lon="2.68894">
        <ele>862.44</ele>
        <time>2022-07-15T08:52:08Z</time>
      </trkpt>
      <trkpt lat="44.19829" lon="2.68832">
        <ele>863.4</ele>
        <time>2022-07-15T08:52:34Z</time>
      </trkpt>
      <trkpt lat="44.19846" lon="2.68712">
        <ele>863.4</ele>
        <time>2022-07-15T08:53:51Z</time>
      </trkpt>
      <trkpt lat="44.19855" lon="2.68699">
        <ele>859.08</ele>
        <time>2022-07-15T08:54:01Z</time>
      </trkpt>
      <trkpt lat="44.19863" lon="2.68688">
        <ele>855.23</ele>
        <time>2022-07-15T08:54:11Z</time>
      </trkpt>
      <trkpt lat="44.19867" lon="2.68671">
        <ele>854.27</ele>
        <time>2022-07-15T08:54:19Z</time>
      </trkpt>
      <trkpt lat="44.19819" lon="2.68566">
        <ele>856.67</ele>
        <time>2022-07-15T08:55:19Z</time>
      </trkpt>
      <trkpt lat="44.19784" lon="2.68536">
        <ele>859.08</ele>
        <time>2022-07-15T08:55:49Z</time>
      </trkpt>
      <trkpt lat="44.19763" lon="2.68531">
        <ele>859.08</ele>
        <time>2022-07-15T08:56:05Z</time>
      </trkpt>
      <trkpt lat="44.19752" lon="2.68532">
        <ele>858.59</ele>
        <time>2022-07-15T08:56:13Z</time>
      </trkpt>
      <trkpt lat="44.1974" lon="2.68534">
        <ele>859.56</ele>
        <time>2022-07-15T08:56:22Z</time>
      </trkpt>
      <trkpt lat="44.19727" lon="2.68526">
        <ele>861.48</ele>
        <time>2022-07-15T08:56:35Z</time>
      </trkpt>
      <trkpt lat="44.19723" lon="2.68508">
        <ele>859.08</ele>
        <time>2022-07-15T08:56:49Z</time>
      </trkpt>
      <trkpt lat="44.19729" lon="2.68495">
        <ele>856.67</ele>
        <time>2022-07-15T08:56:56Z</time>
      </trkpt>
      <trkpt lat="44.19736" lon="2.68482">
        <ele>855.23</ele>
        <time>2022-07-15T08:57:04Z</time>
      </trkpt>
      <trkpt lat="44.19742" lon="2.68468">
        <ele>854.27</ele>
        <time>2022-07-15T08:57:12Z</time>
      </trkpt>
      <trkpt lat="44.19749" lon="2.68455">
        <ele>851.87</ele>
        <time>2022-07-15T08:57:21Z</time>
      </trkpt>
      <trkpt lat="44.19756" lon="2.68441">
        <ele>848.02</ele>
        <time>2022-07-15T08:57:30Z</time>
      </trkpt>
      <trkpt lat="44.19762" lon="2.68427">
        <ele>845.62</ele>
        <time>2022-07-15T08:57:38Z</time>
      </trkpt>
      <trkpt lat="44.19768" lon="2.68411">
        <ele>844.66</ele>
        <time>2022-07-15T08:57:46Z</time>
      </trkpt>
      <trkpt lat="44.19772" lon="2.68397">
        <ele>844.18</ele>
        <time>2022-07-15T08:57:54Z</time>
      </trkpt>
      <trkpt lat="44.1978" lon="2.68385">
        <ele>839.85</ele>
        <time>2022-07-15T08:58:05Z</time>
      </trkpt>
      <trkpt lat="44.19787" lon="2.68373">
        <ele>834.08</ele>
        <time>2022-07-15T08:58:16Z</time>
      </trkpt>
      <trkpt lat="44.19795" lon="2.68337">
        <ele>824.47</ele>
        <time>2022-07-15T08:58:38Z</time>
      </trkpt>
      <trkpt lat="44.19787" lon="2.68311">
        <ele>827.35</ele>
        <time>2022-07-15T08:58:46Z</time>
      </trkpt>
      <trkpt lat="44.19781" lon="2.68297">
        <ele>826.87</ele>
        <time>2022-07-15T08:58:55Z</time>
      </trkpt>
      <trkpt lat="44.19803" lon="2.68248">
        <ele>815.34</ele>
        <time>2022-07-15T08:59:36Z</time>
      </trkpt>
      <trkpt lat="44.19855" lon="2.68198">
        <ele>803.8</ele>
        <time>2022-07-15T09:00:23Z</time>
      </trkpt>
      <trkpt lat="44.19872" lon="2.68081">
        <ele>773.04</ele>
        <time>2022-07-15T09:03:48Z</time>
      </trkpt>
      <trkpt lat="44.19776" lon="2.67965">
        <ele>751.41</ele>
        <time>2022-07-15T09:05:54Z</time>
      </trkpt>
      <trkpt lat="44.19697" lon="2.67916">
        <ele>746.6</ele>
        <time>2022-07-15T09:07:07Z</time>
      </trkpt>
      <trkpt lat="44.19674" lon="2.67927">
        <ele>746.12</ele>
        <time>2022-07-15T09:07:26Z</time>
      </trkpt>
      <trkpt lat="44.19657" lon="2.6794">
        <ele>744.68</ele>
        <time>2022-07-15T09:07:38Z</time>
      </trkpt>
      <trkpt lat="44.19631" lon="2.67949">
        <ele>745.64</ele>
        <time>2022-07-15T09:08:01Z</time>
      </trkpt>
      <trkpt lat="44.1962" lon="2.679">
        <ele>748.04</ele>
        <time>2022-07-15T09:09:11Z</time>
      </trkpt>
      <trkpt lat="44.19622" lon="2.67886">
        <ele>746.12</ele>
        <time>2022-07-15T09:09:19Z</time>
      </trkpt>
      <trkpt lat="44.19622" lon="2.67872">
        <ele>744.68</ele>
        <time>2022-07-15T09:09:26Z</time>
      </trkpt>
      <trkpt lat="44.19622" lon="2.67857">
        <ele>743.72</ele>
        <time>2022-07-15T09:09:33Z</time>
      </trkpt>
      <trkpt lat="44.19622" lon="2.67843">
        <ele>742.28</ele>
        <time>2022-07-15T09:09:40Z</time>
      </trkpt>
      <trkpt lat="44.19624" lon="2.67829">
        <ele>741.79</ele>
        <time>2022-07-15T09:09:46Z</time>
      </trkpt>
      <trkpt lat="44.19625" lon="2.67814">
        <ele>740.83</ele>
        <time>2022-07-15T09:09:53Z</time>
      </trkpt>
      <trkpt lat="44.19625" lon="2.67798">
        <ele>740.83</ele>
        <time>2022-07-15T09:10:00Z</time>
      </trkpt>
      <trkpt lat="44.19625" lon="2.67785">
        <ele>740.83</ele>
        <time>2022-07-15T09:10:06Z</time>
      </trkpt>
      <trkpt lat="44.19625" lon="2.6777">
        <ele>740.35</ele>
        <time>2022-07-15T09:10:13Z</time>
      </trkpt>
      <trkpt lat="44.19625" lon="2.67754">
        <ele>739.87</ele>
        <time>2022-07-15T09:10:21Z</time>
      </trkpt>
      <trkpt lat="44.1962" lon="2.67738">
        <ele>740.35</ele>
        <time>2022-07-15T09:10:29Z</time>
      </trkpt>
      <trkpt lat="44.19613" lon="2.67725">
        <ele>740.83</ele>
        <time>2022-07-15T09:10:37Z</time>
      </trkpt>
      <trkpt lat="44.19603" lon="2.6772">
        <ele>740.35</ele>
        <time>2022-07-15T09:10:44Z</time>
      </trkpt>
      <trkpt lat="44.19593" lon="2.67717">
        <ele>739.39</ele>
        <time>2022-07-15T09:10:51Z</time>
      </trkpt>
      <trkpt lat="44.19582" lon="2.67715">
        <ele>737.95</ele>
        <time>2022-07-15T09:10:58Z</time>
      </trkpt>
      <trkpt lat="44.19571" lon="2.67713">
        <ele>736.99</ele>
        <time>2022-07-15T09:11:05Z</time>
      </trkpt>
      <trkpt lat="44.19561" lon="2.67708">
        <ele>735.55</ele>
        <time>2022-07-15T09:11:12Z</time>
      </trkpt>
      <trkpt lat="44.19554" lon="2.677">
        <ele>732.66</ele>
        <time>2022-07-15T09:11:22Z</time>
      </trkpt>
      <trkpt lat="44.19549" lon="2.67711">
        <ele>733.14</ele>
        <time>2022-07-15T09:11:31Z</time>
      </trkpt>
      <trkpt lat="44.19543" lon="2.67727">
        <ele>735.55</ele>
        <time>2022-07-15T09:11:43Z</time>
      </trkpt>
      <trkpt lat="44.19553" lon="2.67717">
        <ele>735.55</ele>
        <time>2022-07-15T09:12:21Z</time>
      </trkpt>
      <trkpt lat="44.19553" lon="2.67697">
        <ele>733.62</ele>
        <time>2022-07-15T09:12:31Z</time>
      </trkpt>
      <trkpt lat="44.1953" lon="2.67649">
        <ele>730.74</ele>
        <time>2022-07-15T09:13:03Z</time>
      </trkpt>
      <trkpt lat="44.1953" lon="2.67627">
        <ele>729.78</ele>
        <time>2022-07-15T09:13:13Z</time>
      </trkpt>
      <trkpt lat="44.19524" lon="2.67587">
        <ele>732.18</ele>
        <time>2022-07-15T09:13:33Z</time>
      </trkpt>
      <trkpt lat="44.19516" lon="2.67575">
        <ele>732.66</ele>
        <time>2022-07-15T09:13:41Z</time>
      </trkpt>
      <trkpt lat="44.19505" lon="2.67563">
        <ele>733.62</ele>
        <time>2022-07-15T09:13:48Z</time>
      </trkpt>
      <trkpt lat="44.19498" lon="2.67553">
        <ele>734.1</ele>
        <time>2022-07-15T09:13:54Z</time>
      </trkpt>
      <trkpt lat="44.19487" lon="2.67543">
        <ele>734.1</ele>
        <time>2022-07-15T09:14:02Z</time>
      </trkpt>
      <trkpt lat="44.19476" lon="2.67539">
        <ele>733.14</ele>
        <time>2022-07-15T09:14:09Z</time>
      </trkpt>
      <trkpt lat="44.19466" lon="2.67536">
        <ele>733.14</ele>
        <time>2022-07-15T09:14:15Z</time>
      </trkpt>
      <trkpt lat="44.19457" lon="2.6753">
        <ele>733.62</ele>
        <time>2022-07-15T09:14:21Z</time>
      </trkpt>
      <trkpt lat="44.19453" lon="2.67517">
        <ele>734.1</ele>
        <time>2022-07-15T09:14:29Z</time>
      </trkpt>
      <trkpt lat="44.19454" lon="2.675">
        <ele>732.66</ele>
        <time>2022-07-15T09:14:38Z</time>
      </trkpt>
      <trkpt lat="44.19423" lon="2.67423">
        <ele>726.41</ele>
        <time>2022-07-15T09:15:26Z</time>
      </trkpt>
      <trkpt lat="44.19414" lon="2.67395">
        <ele>727.86</ele>
        <time>2022-07-15T09:15:40Z</time>
      </trkpt>
      <trkpt lat="44.19406" lon="2.67379">
        <ele>728.34</ele>
        <time>2022-07-15T09:15:49Z</time>
      </trkpt>
      <trkpt lat="44.19395" lon="2.67367">
        <ele>727.37</ele>
        <time>2022-07-15T09:15:59Z</time>
      </trkpt>
      <trkpt lat="44.19387" lon="2.67353">
        <ele>728.34</ele>
        <time>2022-07-15T09:16:08Z</time>
      </trkpt>
      <trkpt lat="44.19379" lon="2.67336">
        <ele>729.78</ele>
        <time>2022-07-15T09:16:18Z</time>
      </trkpt>
      <trkpt lat="44.19376" lon="2.67318">
        <ele>731.22</ele>
        <time>2022-07-15T09:16:25Z</time>
      </trkpt>
      <trkpt lat="44.19373" lon="2.67302">
        <ele>731.22</ele>
        <time>2022-07-15T09:16:33Z</time>
      </trkpt>
      <trkpt lat="44.1937" lon="2.67281">
        <ele>732.66</ele>
        <time>2022-07-15T09:16:43Z</time>
      </trkpt>
      <trkpt lat="44.19366" lon="2.67265">
        <ele>734.1</ele>
        <time>2022-07-15T09:16:51Z</time>
      </trkpt>
      <trkpt lat="44.19362" lon="2.67251">
        <ele>735.55</ele>
        <time>2022-07-15T09:16:58Z</time>
      </trkpt>
      <trkpt lat="44.1936" lon="2.67237">
        <ele>735.07</ele>
        <time>2022-07-15T09:17:05Z</time>
      </trkpt>
      <trkpt lat="44.19356" lon="2.67223">
        <ele>735.55</ele>
        <time>2022-07-15T09:17:13Z</time>
      </trkpt>
      <trkpt lat="44.1935" lon="2.67204">
        <ele>735.07</ele>
        <time>2022-07-15T09:17:24Z</time>
      </trkpt>
      <trkpt lat="44.19347" lon="2.67189">
        <ele>735.07</ele>
        <time>2022-07-15T09:17:32Z</time>
      </trkpt>
      <trkpt lat="44.19343" lon="2.67174">
        <ele>734.1</ele>
        <time>2022-07-15T09:17:41Z</time>
      </trkpt>
      <trkpt lat="44.19341" lon="2.67157">
        <ele>732.18</ele>
        <time>2022-07-15T09:17:49Z</time>
      </trkpt>
      <trkpt lat="44.19338" lon="2.6713">
        <ele>729.3</ele>
        <time>2022-07-15T09:18:09Z</time>
      </trkpt>
      <trkpt lat="44.19328" lon="2.67115">
        <ele>725.45</ele>
        <time>2022-07-15T09:18:25Z</time>
      </trkpt>
      <trkpt lat="44.19311" lon="2.67104">
        <ele>720.65</ele>
        <time>2022-07-15T09:18:46Z</time>
      </trkpt>
      <trkpt lat="44.19301" lon="2.67096">
        <ele>719.2</ele>
        <time>2022-07-15T09:18:56Z</time>
      </trkpt>
      <trkpt lat="44.19288" lon="2.67063">
        <ele>719.68</ele>
        <time>2022-07-15T09:19:23Z</time>
      </trkpt>
      <trkpt lat="44.19262" lon="2.67005">
        <ele>718.72</ele>
        <time>2022-07-15T09:19:58Z</time>
      </trkpt>
      <trkpt lat="44.19216" lon="2.66921">
        <ele>711.51</ele>
        <time>2022-07-15T09:20:49Z</time>
      </trkpt>
      <trkpt lat="44.192" lon="2.66799">
        <ele>700.94</ele>
        <time>2022-07-15T09:22:09Z</time>
      </trkpt>
      <trkpt lat="44.19209" lon="2.66776">
        <ele>711.99</ele>
        <time>2022-07-15T09:22:20Z</time>
      </trkpt>
      <trkpt lat="44.19213" lon="2.66767">
        <ele>713.92</ele>
        <time>2022-07-15T09:22:51Z</time>
      </trkpt>
      <trkpt lat="44.19206" lon="2.66753">
        <ele>714.4</ele>
        <time>2022-07-15T09:22:59Z</time>
      </trkpt>
      <trkpt lat="44.19202" lon="2.66741">
        <ele>713.44</ele>
        <time>2022-07-15T09:23:06Z</time>
      </trkpt>
      <trkpt lat="44.19196" lon="2.66728">
        <ele>713.44</ele>
        <time>2022-07-15T09:23:13Z</time>
      </trkpt>
      <trkpt lat="44.1919" lon="2.66716">
        <ele>712.95</ele>
        <time>2022-07-15T09:23:20Z</time>
      </trkpt>
      <trkpt lat="44.19185" lon="2.66702">
        <ele>713.44</ele>
        <time>2022-07-15T09:23:28Z</time>
      </trkpt>
      <trkpt lat="44.19181" lon="2.66687">
        <ele>712.95</ele>
        <time>2022-07-15T09:23:35Z</time>
      </trkpt>
      <trkpt lat="44.1918" lon="2.66672">
        <ele>712.47</ele>
        <time>2022-07-15T09:23:42Z</time>
      </trkpt>
      <trkpt lat="44.19181" lon="2.66659">
        <ele>711.03</ele>
        <time>2022-07-15T09:23:49Z</time>
      </trkpt>
      <trkpt lat="44.19183" lon="2.66645">
        <ele>711.51</ele>
        <time>2022-07-15T09:23:56Z</time>
      </trkpt>
      <trkpt lat="44.19184" lon="2.66629">
        <ele>711.99</ele>
        <time>2022-07-15T09:24:04Z</time>
      </trkpt>
      <trkpt lat="44.19184" lon="2.66615">
        <ele>712.95</ele>
        <time>2022-07-15T09:24:11Z</time>
      </trkpt>
      <trkpt lat="44.19183" lon="2.666">
        <ele>712.95</ele>
        <time>2022-07-15T09:24:18Z</time>
      </trkpt>
      <trkpt lat="44.19183" lon="2.66584">
        <ele>713.92</ele>
        <time>2022-07-15T09:24:25Z</time>
      </trkpt>
      <trkpt lat="44.19183" lon="2.66572">
        <ele>713.92</ele>
        <time>2022-07-15T09:24:31Z</time>
      </trkpt>
      <trkpt lat="44.19184" lon="2.66557">
        <ele>714.88</ele>
        <time>2022-07-15T09:24:38Z</time>
      </trkpt>
      <trkpt lat="44.19185" lon="2.66543">
        <ele>715.84</ele>
        <time>2022-07-15T09:24:45Z</time>
      </trkpt>
      <trkpt lat="44.19187" lon="2.66529">
        <ele>716.32</ele>
        <time>2022-07-15T09:24:52Z</time>
      </trkpt>
      <trkpt lat="44.19188" lon="2.66515">
        <ele>718.24</ele>
        <time>2022-07-15T09:24:59Z</time>
      </trkpt>
      <trkpt lat="44.19188" lon="2.665">
        <ele>719.2</ele>
        <time>2022-07-15T09:25:07Z</time>
      </trkpt>
      <trkpt lat="44.19186" lon="2.66483">
        <ele>720.65</ele>
        <time>2022-07-15T09:25:15Z</time>
      </trkpt>
      <trkpt lat="44.19186" lon="2.66469">
        <ele>722.09</ele>
        <time>2022-07-15T09:25:22Z</time>
      </trkpt>
      <trkpt lat="44.19185" lon="2.66456">
        <ele>723.05</ele>
        <time>2022-07-15T09:25:29Z</time>
      </trkpt>
      <trkpt lat="44.19181" lon="2.66443">
        <ele>723.05</ele>
        <time>2022-07-15T09:25:37Z</time>
      </trkpt>
      <trkpt lat="44.19178" lon="2.66431">
        <ele>723.53</ele>
        <time>2022-07-15T09:25:44Z</time>
      </trkpt>
      <trkpt lat="44.19175" lon="2.66418">
        <ele>723.53</ele>
        <time>2022-07-15T09:25:51Z</time>
      </trkpt>
      <trkpt lat="44.19172" lon="2.66405">
        <ele>724.49</ele>
        <time>2022-07-15T09:25:58Z</time>
      </trkpt>
      <trkpt lat="44.19169" lon="2.66392">
        <ele>724.49</ele>
        <time>2022-07-15T09:26:05Z</time>
      </trkpt>
      <trkpt lat="44.19165" lon="2.66378">
        <ele>724.97</ele>
        <time>2022-07-15T09:26:12Z</time>
      </trkpt>
      <trkpt lat="44.19162" lon="2.66365">
        <ele>724.97</ele>
        <time>2022-07-15T09:26:19Z</time>
      </trkpt>
      <trkpt lat="44.19158" lon="2.66351">
        <ele>724.49</ele>
        <time>2022-07-15T09:26:26Z</time>
      </trkpt>
      <trkpt lat="44.19156" lon="2.66336">
        <ele>724.97</ele>
        <time>2022-07-15T09:26:34Z</time>
      </trkpt>
    </trkseg>
  </trk>
</gpx>